<?xml version="1.0" encoding="UTF-8" standalone="no" ?>
<gpx xmlns="http://www.topografix.com/GPX/1/1" xmlns:xsi="http://www.w3.org/2001/XMLSchema-instance" xsi:schemaLocation="http://www.topografix.com/GPX/1/1 http://www.topografix.com/GPX/1/1/gpx.xsd" version="1.1" creator="VisuGPX - https://www.visugpx.com">
  <metadata>
    <name>Craponne St Pierre la palud</name>
    <desc><![CDATA[Craponne Saint Pierre la palud par La tour de salvagny]]></desc>
  </metadata>
  <trk>
    <name><![CDATA[Sortie-VTT-Saint-Bel]]></name>
    <cmt><![CDATA[callardin.free.fr]]></cmt>
    <trkseg>
      <trkpt lat="45.74309" lon="4.73329">
        <ele>260.79525756836</ele>
        <time>2017-04-20T19:48:47Z</time>
      </trkpt>
      <trkpt lat="45.74309" lon="4.73333">
        <ele>260.90774536133</ele>
        <time>2017-04-20T19:48:47Z</time>
      </trkpt>
      <trkpt lat="45.74387" lon="4.73328">
        <ele>268.35394287109</ele>
        <time>2017-04-20T19:48:48Z</time>
      </trkpt>
      <trkpt lat="45.74398" lon="4.7333">
        <ele>268.28469848633</ele>
        <time>2017-04-20T19:49:09Z</time>
      </trkpt>
      <trkpt lat="45.74401" lon="4.7334">
        <ele>267.90972900391</ele>
        <time>2017-04-20T19:49:12Z</time>
      </trkpt>
      <trkpt lat="45.744" lon="4.73368">
        <ele>268.7946472168</ele>
        <time>2017-04-20T19:49:14Z</time>
      </trkpt>
      <trkpt lat="45.744" lon="4.73368">
        <ele>268.7946472168</ele>
        <time>2017-04-20T19:49:19Z</time>
      </trkpt>
      <trkpt lat="45.74401" lon="4.73374">
        <ele>269.12084960938</ele>
        <time>2017-04-20T19:49:19Z</time>
      </trkpt>
      <trkpt lat="45.74406" lon="4.73377">
        <ele>269.75561523438</ele>
        <time>2017-04-20T19:49:20Z</time>
      </trkpt>
      <trkpt lat="45.74447" lon="4.73379">
        <ele>267.44110107422</ele>
        <time>2017-04-20T19:49:21Z</time>
      </trkpt>
      <trkpt lat="45.74495" lon="4.73381">
        <ele>265.74807739258</ele>
        <time>2017-04-20T19:49:32Z</time>
      </trkpt>
      <trkpt lat="45.74498" lon="4.73384">
        <ele>265.82342529297</ele>
        <time>2017-04-20T19:49:45Z</time>
      </trkpt>
      <trkpt lat="45.74499" lon="4.73397">
        <ele>266.10522460938</ele>
        <time>2017-04-20T19:49:46Z</time>
      </trkpt>
      <trkpt lat="45.745" lon="4.73419">
        <ele>267.97274780273</ele>
        <time>2017-04-20T19:49:48Z</time>
      </trkpt>
      <trkpt lat="45.74503" lon="4.73431">
        <ele>268.35165405273</ele>
        <time>2017-04-20T19:49:52Z</time>
      </trkpt>
      <trkpt lat="45.7451" lon="4.7344">
        <ele>267.70922851562</ele>
        <time>2017-04-20T19:49:54Z</time>
      </trkpt>
      <trkpt lat="45.74517" lon="4.73441">
        <ele>267.46572875977</ele>
        <time>2017-04-20T19:49:57Z</time>
      </trkpt>
      <trkpt lat="45.74547" lon="4.73391">
        <ele>265.57998657227</ele>
        <time>2017-04-20T19:49:59Z</time>
      </trkpt>
      <trkpt lat="45.74563" lon="4.73362">
        <ele>264.80807495117</ele>
        <time>2017-04-20T19:50:11Z</time>
      </trkpt>
      <trkpt lat="45.74578" lon="4.73328">
        <ele>264.91152954102</ele>
        <time>2017-04-20T19:50:18Z</time>
      </trkpt>
      <trkpt lat="45.7459" lon="4.73293">
        <ele>265.8869934082</ele>
        <time>2017-04-20T19:50:25Z</time>
      </trkpt>
      <trkpt lat="45.74595" lon="4.73265">
        <ele>265.25039672852</ele>
        <time>2017-04-20T19:50:32Z</time>
      </trkpt>
      <trkpt lat="45.74597" lon="4.7324">
        <ele>265.5205078125</ele>
        <time>2017-04-20T19:50:37Z</time>
      </trkpt>
      <trkpt lat="45.74601" lon="4.73222">
        <ele>266.0280456543</ele>
        <time>2017-04-20T19:50:42Z</time>
      </trkpt>
      <trkpt lat="45.74603" lon="4.73187">
        <ele>266.6842956543</ele>
        <time>2017-04-20T19:50:46Z</time>
      </trkpt>
      <trkpt lat="45.74604" lon="4.73123">
        <ele>268.27481079102</ele>
        <time>2017-04-20T19:50:53Z</time>
      </trkpt>
      <trkpt lat="45.74605" lon="4.73096">
        <ele>268.7275390625</ele>
        <time>2017-04-20T19:51:05Z</time>
      </trkpt>
      <trkpt lat="45.74605" lon="4.73096">
        <ele>268.7275390625</ele>
        <time>2017-04-20T19:51:10Z</time>
      </trkpt>
      <trkpt lat="45.74598" lon="4.73089">
        <ele>269.02249145508</ele>
        <time>2017-04-20T19:51:10Z</time>
      </trkpt>
      <trkpt lat="45.74597" lon="4.73071">
        <ele>269.8473815918</ele>
        <time>2017-04-20T19:51:12Z</time>
      </trkpt>
      <trkpt lat="45.74599" lon="4.73043">
        <ele>270.82998657227</ele>
        <time>2017-04-20T19:51:15Z</time>
      </trkpt>
      <trkpt lat="45.74598" lon="4.72893">
        <ele>276.40545654297</ele>
        <time>2017-04-20T19:51:20Z</time>
      </trkpt>
      <trkpt lat="45.74596" lon="4.72808">
        <ele>278.67687988281</ele>
        <time>2017-04-20T19:51:48Z</time>
      </trkpt>
      <trkpt lat="45.74594" lon="4.7264">
        <ele>281.46447753906</ele>
        <time>2017-04-20T19:52:04Z</time>
      </trkpt>
      <trkpt lat="45.74591" lon="4.72384">
        <ele>282.32110595703</ele>
        <time>2017-04-20T19:52:35Z</time>
      </trkpt>
      <trkpt lat="45.74587" lon="4.72254">
        <ele>283.77423095703</ele>
        <time>2017-04-20T19:53:23Z</time>
      </trkpt>
      <trkpt lat="45.74583" lon="4.72046">
        <ele>286.08465576172</ele>
        <time>2017-04-20T19:53:47Z</time>
      </trkpt>
      <trkpt lat="45.74586" lon="4.71844">
        <ele>288.31085205078</ele>
        <time>2017-04-20T19:54:26Z</time>
      </trkpt>
      <trkpt lat="45.7459" lon="4.71651">
        <ele>290.43505859375</ele>
        <time>2017-04-20T19:55:04Z</time>
      </trkpt>
      <trkpt lat="45.74593" lon="4.71579">
        <ele>290.63363647461</ele>
        <time>2017-04-20T19:55:40Z</time>
      </trkpt>
      <trkpt lat="45.74592" lon="4.71518">
        <ele>290.46099853516</ele>
        <time>2017-04-20T19:55:53Z</time>
      </trkpt>
      <trkpt lat="45.74586" lon="4.71418">
        <ele>291.0051574707</ele>
        <time>2017-04-20T19:56:04Z</time>
      </trkpt>
      <trkpt lat="45.74571" lon="4.71302">
        <ele>292.30590820312</ele>
        <time>2017-04-20T19:56:23Z</time>
      </trkpt>
      <trkpt lat="45.74567" lon="4.71277">
        <ele>292.71188354492</ele>
        <time>2017-04-20T19:56:45Z</time>
      </trkpt>
      <trkpt lat="45.74566" lon="4.71273">
        <ele>292.71957397461</ele>
        <time>2017-04-20T19:56:50Z</time>
      </trkpt>
      <trkpt lat="45.74566" lon="4.71273">
        <ele>292.71957397461</ele>
        <time>2017-04-20T19:56:51Z</time>
      </trkpt>
      <trkpt lat="45.74542" lon="4.71158">
        <ele>293.95236206055</ele>
        <time>2017-04-20T19:56:51Z</time>
      </trkpt>
      <trkpt lat="45.74503" lon="4.70963">
        <ele>297.75802612305</ele>
        <time>2017-04-20T19:57:13Z</time>
      </trkpt>
      <trkpt lat="45.74503" lon="4.70963">
        <ele>297.75802612305</ele>
        <time>2017-04-20T19:57:51Z</time>
      </trkpt>
      <trkpt lat="45.74479" lon="4.7097">
        <ele>297.93560791016</ele>
        <time>2017-04-20T19:57:51Z</time>
      </trkpt>
      <trkpt lat="45.74446" lon="4.70975">
        <ele>297.54861450195</ele>
        <time>2017-04-20T19:57:58Z</time>
      </trkpt>
      <trkpt lat="45.74416" lon="4.7098">
        <ele>298.05505371094</ele>
        <time>2017-04-20T19:58:07Z</time>
      </trkpt>
      <trkpt lat="45.74369" lon="4.70994">
        <ele>298.11889648438</ele>
        <time>2017-04-20T19:58:15Z</time>
      </trkpt>
      <trkpt lat="45.74356" lon="4.70995">
        <ele>297.48651123047</ele>
        <time>2017-04-20T19:58:28Z</time>
      </trkpt>
      <trkpt lat="45.74341" lon="4.70986">
        <ele>297.17706298828</ele>
        <time>2017-04-20T19:58:31Z</time>
      </trkpt>
      <trkpt lat="45.74335" lon="4.70978">
        <ele>297.31979370117</ele>
        <time>2017-04-20T19:58:35Z</time>
      </trkpt>
      <trkpt lat="45.74322" lon="4.70947">
        <ele>297.8583984375</ele>
        <time>2017-04-20T19:58:37Z</time>
      </trkpt>
      <trkpt lat="45.74313" lon="4.70942">
        <ele>298.03280639648</ele>
        <time>2017-04-20T19:58:44Z</time>
      </trkpt>
      <trkpt lat="45.74306" lon="4.70942">
        <ele>298.08465576172</ele>
        <time>2017-04-20T19:58:47Z</time>
      </trkpt>
      <trkpt lat="45.74264" lon="4.70946">
        <ele>298.04479980469</ele>
        <time>2017-04-20T19:58:49Z</time>
      </trkpt>
      <trkpt lat="45.74264" lon="4.70946">
        <ele>298.04479980469</ele>
        <time>2017-04-20T19:59:00Z</time>
      </trkpt>
      <trkpt lat="45.74257" lon="4.70946">
        <ele>298.14996337891</ele>
        <time>2017-04-20T19:59:00Z</time>
      </trkpt>
      <trkpt lat="45.74257" lon="4.70879">
        <ele>298.45901489258</ele>
        <time>2017-04-20T19:59:02Z</time>
      </trkpt>
      <trkpt lat="45.74257" lon="4.70817">
        <ele>298.15655517578</ele>
        <time>2017-04-20T19:59:14Z</time>
      </trkpt>
      <trkpt lat="45.74257" lon="4.7079">
        <ele>297.91711425781</ele>
        <time>2017-04-20T19:59:26Z</time>
      </trkpt>
      <trkpt lat="45.7426" lon="4.70726">
        <ele>296.87777709961</ele>
        <time>2017-04-20T19:59:31Z</time>
      </trkpt>
      <trkpt lat="45.74269" lon="4.70664">
        <ele>297.59420776367</ele>
        <time>2017-04-20T19:59:43Z</time>
      </trkpt>
      <trkpt lat="45.74269" lon="4.70664">
        <ele>297.59420776367</ele>
        <time>2017-04-20T19:59:55Z</time>
      </trkpt>
      <trkpt lat="45.7427" lon="4.70641">
        <ele>297.07806396484</ele>
        <time>2017-04-20T19:59:55Z</time>
      </trkpt>
      <trkpt lat="45.74265" lon="4.70614">
        <ele>297.07455444336</ele>
        <time>2017-04-20T19:59:59Z</time>
      </trkpt>
      <trkpt lat="45.74258" lon="4.70583">
        <ele>297.9934387207</ele>
        <time>2017-04-20T20:00:04Z</time>
      </trkpt>
      <trkpt lat="45.74256" lon="4.70565">
        <ele>298.06921386719</ele>
        <time>2017-04-20T20:00:10Z</time>
      </trkpt>
      <trkpt lat="45.74247" lon="4.70539">
        <ele>299.1091003418</ele>
        <time>2017-04-20T20:00:13Z</time>
      </trkpt>
      <trkpt lat="45.7424" lon="4.70484">
        <ele>301.82806396484</ele>
        <time>2017-04-20T20:00:18Z</time>
      </trkpt>
      <trkpt lat="45.74234" lon="4.7039">
        <ele>301.48425292969</ele>
        <time>2017-04-20T20:00:28Z</time>
      </trkpt>
      <trkpt lat="45.74242" lon="4.70297">
        <ele>303.93960571289</ele>
        <time>2017-04-20T20:00:46Z</time>
      </trkpt>
      <trkpt lat="45.74254" lon="4.70216">
        <ele>303.1701965332</ele>
        <time>2017-04-20T20:01:03Z</time>
      </trkpt>
      <trkpt lat="45.74279" lon="4.70083">
        <ele>302.9326171875</ele>
        <time>2017-04-20T20:01:18Z</time>
      </trkpt>
      <trkpt lat="45.74326" lon="4.69998">
        <ele>302.99905395508</ele>
        <time>2017-04-20T20:01:44Z</time>
      </trkpt>
      <trkpt lat="45.74345" lon="4.69972">
        <ele>304.5517578125</ele>
        <time>2017-04-20T20:02:04Z</time>
      </trkpt>
      <trkpt lat="45.74353" lon="4.69964">
        <ele>305.06338500977</ele>
        <time>2017-04-20T20:02:11Z</time>
      </trkpt>
      <trkpt lat="45.74367" lon="4.69953">
        <ele>304.888671875</ele>
        <time>2017-04-20T20:02:14Z</time>
      </trkpt>
      <trkpt lat="45.74409" lon="4.69933">
        <ele>305.28018188477</ele>
        <time>2017-04-20T20:02:18Z</time>
      </trkpt>
      <trkpt lat="45.74405" lon="4.69924">
        <ele>305.45083618164</ele>
        <time>2017-04-20T20:02:30Z</time>
      </trkpt>
      <trkpt lat="45.74405" lon="4.69924">
        <ele>305.45083618164</ele>
        <time>2017-04-20T20:02:32Z</time>
      </trkpt>
      <trkpt lat="45.74409" lon="4.69933">
        <ele>305.28018188477</ele>
        <time>2017-04-20T20:02:32Z</time>
      </trkpt>
      <trkpt lat="45.74415" lon="4.69924">
        <ele>305.7370300293</ele>
        <time>2017-04-20T20:02:34Z</time>
      </trkpt>
      <trkpt lat="45.74432" lon="4.69908">
        <ele>306.25909423828</ele>
        <time>2017-04-20T20:02:36Z</time>
      </trkpt>
      <trkpt lat="45.74446" lon="4.69899">
        <ele>306.08685302734</ele>
        <time>2017-04-20T20:02:41Z</time>
      </trkpt>
      <trkpt lat="45.74474" lon="4.69882">
        <ele>307.5539855957</ele>
        <time>2017-04-20T20:02:45Z</time>
      </trkpt>
      <trkpt lat="45.74497" lon="4.69868">
        <ele>308.04351806641</ele>
        <time>2017-04-20T20:02:53Z</time>
      </trkpt>
      <trkpt lat="45.74513" lon="4.69853">
        <ele>308.74865722656</ele>
        <time>2017-04-20T20:03:00Z</time>
      </trkpt>
      <trkpt lat="45.74523" lon="4.69839">
        <ele>309.49938964844</ele>
        <time>2017-04-20T20:03:05Z</time>
      </trkpt>
      <trkpt lat="45.74548" lon="4.69803">
        <ele>310.35061645508</ele>
        <time>2017-04-20T20:03:09Z</time>
      </trkpt>
      <trkpt lat="45.74547" lon="4.69793">
        <ele>310.73400878906</ele>
        <time>2017-04-20T20:03:18Z</time>
      </trkpt>
      <trkpt lat="45.74547" lon="4.69788">
        <ele>310.82476806641</ele>
        <time>2017-04-20T20:03:20Z</time>
      </trkpt>
      <trkpt lat="45.74547" lon="4.69788">
        <ele>310.82476806641</ele>
        <time>2017-04-20T20:03:21Z</time>
      </trkpt>
      <trkpt lat="45.74536" lon="4.69509">
        <ele>314.61264038086</ele>
        <time>2017-04-20T20:03:21Z</time>
      </trkpt>
      <trkpt lat="45.7453" lon="4.69426">
        <ele>315.81558227539</ele>
        <time>2017-04-20T20:04:13Z</time>
      </trkpt>
      <trkpt lat="45.74527" lon="4.69328">
        <ele>316.63345336914</ele>
        <time>2017-04-20T20:04:29Z</time>
      </trkpt>
      <trkpt lat="45.74526" lon="4.69312">
        <ele>316.45834350586</ele>
        <time>2017-04-20T20:04:47Z</time>
      </trkpt>
      <trkpt lat="45.74541" lon="4.69312">
        <ele>317.04147338867</ele>
        <time>2017-04-20T20:04:50Z</time>
      </trkpt>
      <trkpt lat="45.74541" lon="4.69312">
        <ele>317.04147338867</ele>
        <time>2017-04-20T20:04:54Z</time>
      </trkpt>
      <trkpt lat="45.74592" lon="4.69308">
        <ele>321.34375</ele>
        <time>2017-04-20T20:04:54Z</time>
      </trkpt>
      <trkpt lat="45.7467" lon="4.69294">
        <ele>327.93362426758</ele>
        <time>2017-04-20T20:05:08Z</time>
      </trkpt>
      <trkpt lat="45.74724" lon="4.6929">
        <ele>328.15872192383</ele>
        <time>2017-04-20T20:05:29Z</time>
      </trkpt>
      <trkpt lat="45.74724" lon="4.6929">
        <ele>328.15872192383</ele>
        <time>2017-04-20T20:05:43Z</time>
      </trkpt>
      <trkpt lat="45.7473" lon="4.69229">
        <ele>330.45629882812</ele>
        <time>2017-04-20T20:05:43Z</time>
      </trkpt>
      <trkpt lat="45.74732" lon="4.69166">
        <ele>331.208984375</ele>
        <time>2017-04-20T20:05:54Z</time>
      </trkpt>
      <trkpt lat="45.74731" lon="4.6915">
        <ele>332.36706542969</ele>
        <time>2017-04-20T20:06:06Z</time>
      </trkpt>
      <trkpt lat="45.74734" lon="4.69153">
        <ele>332.10537719727</ele>
        <time>2017-04-20T20:06:09Z</time>
      </trkpt>
      <trkpt lat="45.74737" lon="4.69156">
        <ele>331.8464050293</ele>
        <time>2017-04-20T20:06:10Z</time>
      </trkpt>
      <trkpt lat="45.74745" lon="4.69154">
        <ele>332.71768188477</ele>
        <time>2017-04-20T20:06:11Z</time>
      </trkpt>
      <trkpt lat="45.74745" lon="4.69154">
        <ele>332.71768188477</ele>
        <time>2017-04-20T20:06:13Z</time>
      </trkpt>
      <trkpt lat="45.74772" lon="4.69148">
        <ele>334.44064331055</ele>
        <time>2017-04-20T20:06:13Z</time>
      </trkpt>
      <trkpt lat="45.74797" lon="4.69141">
        <ele>336.75561523438</ele>
        <time>2017-04-20T20:06:20Z</time>
      </trkpt>
      <trkpt lat="45.74833" lon="4.69126">
        <ele>337.08038330078</ele>
        <time>2017-04-20T20:06:27Z</time>
      </trkpt>
      <trkpt lat="45.74857" lon="4.69111">
        <ele>337.08535766602</ele>
        <time>2017-04-20T20:06:37Z</time>
      </trkpt>
      <trkpt lat="45.74879" lon="4.69104">
        <ele>338.59533691406</ele>
        <time>2017-04-20T20:06:44Z</time>
      </trkpt>
      <trkpt lat="45.74908" lon="4.691">
        <ele>339.73031616211</ele>
        <time>2017-04-20T20:06:50Z</time>
      </trkpt>
      <trkpt lat="45.74936" lon="4.69103">
        <ele>340.31845092773</ele>
        <time>2017-04-20T20:06:58Z</time>
      </trkpt>
      <trkpt lat="45.7499" lon="4.69111">
        <ele>336.70587158203</ele>
        <time>2017-04-20T20:07:06Z</time>
      </trkpt>
      <trkpt lat="45.75" lon="4.69011">
        <ele>339.52581787109</ele>
        <time>2017-04-20T20:07:21Z</time>
      </trkpt>
      <trkpt lat="45.75003" lon="4.69012">
        <ele>339.46664428711</ele>
        <time>2017-04-20T20:07:40Z</time>
      </trkpt>
      <trkpt lat="45.75084" lon="4.69024">
        <ele>337.34561157227</ele>
        <time>2017-04-20T20:07:41Z</time>
      </trkpt>
      <trkpt lat="45.75138" lon="4.69033">
        <ele>334.93731689453</ele>
        <time>2017-04-20T20:08:03Z</time>
      </trkpt>
      <trkpt lat="45.75167" lon="4.6903">
        <ele>332.95458984375</ele>
        <time>2017-04-20T20:08:18Z</time>
      </trkpt>
      <trkpt lat="45.75184" lon="4.69027">
        <ele>332.01419067383</ele>
        <time>2017-04-20T20:08:26Z</time>
      </trkpt>
      <trkpt lat="45.75193" lon="4.69022">
        <ele>331.36514282227</ele>
        <time>2017-04-20T20:08:31Z</time>
      </trkpt>
      <trkpt lat="45.75223" lon="4.68999">
        <ele>328.24319458008</ele>
        <time>2017-04-20T20:08:34Z</time>
      </trkpt>
      <trkpt lat="45.75225" lon="4.68998">
        <ele>328.18444824219</ele>
        <time>2017-04-20T20:08:43Z</time>
      </trkpt>
      <trkpt lat="45.75225" lon="4.68998">
        <ele>328.18444824219</ele>
        <time>2017-04-20T20:08:44Z</time>
      </trkpt>
      <trkpt lat="45.7525" lon="4.68987">
        <ele>325.65158081055</ele>
        <time>2017-04-20T20:08:44Z</time>
      </trkpt>
      <trkpt lat="45.75321" lon="4.68951">
        <ele>313.83020019531</ele>
        <time>2017-04-20T20:08:51Z</time>
      </trkpt>
      <trkpt lat="45.75341" lon="4.68939">
        <ele>308.86828613281</ele>
        <time>2017-04-20T20:09:11Z</time>
      </trkpt>
      <trkpt lat="45.75352" lon="4.68938">
        <ele>307.18884277344</ele>
        <time>2017-04-20T20:09:17Z</time>
      </trkpt>
      <trkpt lat="45.75364" lon="4.68939">
        <ele>305.59149169922</ele>
        <time>2017-04-20T20:09:20Z</time>
      </trkpt>
      <trkpt lat="45.75382" lon="4.68944">
        <ele>303.76904296875</ele>
        <time>2017-04-20T20:09:23Z</time>
      </trkpt>
      <trkpt lat="45.75402" lon="4.68951">
        <ele>301.37145996094</ele>
        <time>2017-04-20T20:09:28Z</time>
      </trkpt>
      <trkpt lat="45.75402" lon="4.68951">
        <ele>301.37145996094</ele>
        <time>2017-04-20T20:09:34Z</time>
      </trkpt>
      <trkpt lat="45.7541" lon="4.68953">
        <ele>300.88067626953</ele>
        <time>2017-04-20T20:09:34Z</time>
      </trkpt>
      <trkpt lat="45.75408" lon="4.68942">
        <ele>301.37496948242</ele>
        <time>2017-04-20T20:09:36Z</time>
      </trkpt>
      <trkpt lat="45.75407" lon="4.68904">
        <ele>302.33190917969</ele>
        <time>2017-04-20T20:09:38Z</time>
      </trkpt>
      <trkpt lat="45.75408" lon="4.68898">
        <ele>302.88558959961</ele>
        <time>2017-04-20T20:09:45Z</time>
      </trkpt>
      <trkpt lat="45.75418" lon="4.68878">
        <ele>305.21383666992</ele>
        <time>2017-04-20T20:09:46Z</time>
      </trkpt>
      <trkpt lat="45.75426" lon="4.68872">
        <ele>306.52249145508</ele>
        <time>2017-04-20T20:09:51Z</time>
      </trkpt>
      <trkpt lat="45.75485" lon="4.68843">
        <ele>319.41934204102</ele>
        <time>2017-04-20T20:09:53Z</time>
      </trkpt>
      <trkpt lat="45.75501" lon="4.68839">
        <ele>321.86245727539</ele>
        <time>2017-04-20T20:10:10Z</time>
      </trkpt>
      <trkpt lat="45.75533" lon="4.68833">
        <ele>325.8053894043</ele>
        <time>2017-04-20T20:10:14Z</time>
      </trkpt>
      <trkpt lat="45.75544" lon="4.68832">
        <ele>326.78848266602</ele>
        <time>2017-04-20T20:10:23Z</time>
      </trkpt>
      <trkpt lat="45.75552" lon="4.68831">
        <ele>327.2966003418</ele>
        <time>2017-04-20T20:10:26Z</time>
      </trkpt>
      <trkpt lat="45.75556" lon="4.68833">
        <ele>327.49884033203</ele>
        <time>2017-04-20T20:10:28Z</time>
      </trkpt>
      <trkpt lat="45.75616" lon="4.68833">
        <ele>332.02081298828</ele>
        <time>2017-04-20T20:10:29Z</time>
      </trkpt>
      <trkpt lat="45.75659" lon="4.68834">
        <ele>334.72988891602</ele>
        <time>2017-04-20T20:10:45Z</time>
      </trkpt>
      <trkpt lat="45.75678" lon="4.68837">
        <ele>335.36639404297</ele>
        <time>2017-04-20T20:10:56Z</time>
      </trkpt>
      <trkpt lat="45.75721" lon="4.68838">
        <ele>336.57925415039</ele>
        <time>2017-04-20T20:11:01Z</time>
      </trkpt>
      <trkpt lat="45.75745" lon="4.68841">
        <ele>336.49429321289</ele>
        <time>2017-04-20T20:11:12Z</time>
      </trkpt>
      <trkpt lat="45.75783" lon="4.68849">
        <ele>336.57681274414</ele>
        <time>2017-04-20T20:11:18Z</time>
      </trkpt>
      <trkpt lat="45.75824" lon="4.68857">
        <ele>335.85415649414</ele>
        <time>2017-04-20T20:11:28Z</time>
      </trkpt>
      <trkpt lat="45.75862" lon="4.6886">
        <ele>335.24877929688</ele>
        <time>2017-04-20T20:11:39Z</time>
      </trkpt>
      <trkpt lat="45.7588" lon="4.68867">
        <ele>334.04782104492</ele>
        <time>2017-04-20T20:11:49Z</time>
      </trkpt>
      <trkpt lat="45.75882" lon="4.68864">
        <ele>334.28262329102</ele>
        <time>2017-04-20T20:11:54Z</time>
      </trkpt>
      <trkpt lat="45.75898" lon="4.6884">
        <ele>333.32931518555</ele>
        <time>2017-04-20T20:11:55Z</time>
      </trkpt>
      <trkpt lat="45.75926" lon="4.68809">
        <ele>334.91571044922</ele>
        <time>2017-04-20T20:12:01Z</time>
      </trkpt>
      <trkpt lat="45.75949" lon="4.68788">
        <ele>334.46307373047</ele>
        <time>2017-04-20T20:12:10Z</time>
      </trkpt>
      <trkpt lat="45.75965" lon="4.68796">
        <ele>334.44567871094</ele>
        <time>2017-04-20T20:12:17Z</time>
      </trkpt>
      <trkpt lat="45.76001" lon="4.68806">
        <ele>332.53619384766</ele>
        <time>2017-04-20T20:12:22Z</time>
      </trkpt>
      <trkpt lat="45.76016" lon="4.68819">
        <ele>331.41882324219</ele>
        <time>2017-04-20T20:12:32Z</time>
      </trkpt>
      <trkpt lat="45.76027" lon="4.68835">
        <ele>329.87426757812</ele>
        <time>2017-04-20T20:12:37Z</time>
      </trkpt>
      <trkpt lat="45.7603" lon="4.68847">
        <ele>328.81716918945</ele>
        <time>2017-04-20T20:12:41Z</time>
      </trkpt>
      <trkpt lat="45.76029" lon="4.68868">
        <ele>327.63858032227</ele>
        <time>2017-04-20T20:12:43Z</time>
      </trkpt>
      <trkpt lat="45.75994" lon="4.6894">
        <ele>322.10482788086</ele>
        <time>2017-04-20T20:12:47Z</time>
      </trkpt>
      <trkpt lat="45.75976" lon="4.6898">
        <ele>317.30630493164</ele>
        <time>2017-04-20T20:13:03Z</time>
      </trkpt>
      <trkpt lat="45.75968" lon="4.69003">
        <ele>315.41159057617</ele>
        <time>2017-04-20T20:13:12Z</time>
      </trkpt>
      <trkpt lat="45.75961" lon="4.69043">
        <ele>313.30517578125</ele>
        <time>2017-04-20T20:13:17Z</time>
      </trkpt>
      <trkpt lat="45.7596" lon="4.6907">
        <ele>312.01641845703</ele>
        <time>2017-04-20T20:13:25Z</time>
      </trkpt>
      <trkpt lat="45.75962" lon="4.69103">
        <ele>310.02136230469</ele>
        <time>2017-04-20T20:13:30Z</time>
      </trkpt>
      <trkpt lat="45.75978" lon="4.69169">
        <ele>305.77810668945</ele>
        <time>2017-04-20T20:13:36Z</time>
      </trkpt>
      <trkpt lat="45.75988" lon="4.69203">
        <ele>304.22064208984</ele>
        <time>2017-04-20T20:13:49Z</time>
      </trkpt>
      <trkpt lat="45.75996" lon="4.69221">
        <ele>303.70657348633</ele>
        <time>2017-04-20T20:13:56Z</time>
      </trkpt>
      <trkpt lat="45.76009" lon="4.69233">
        <ele>301.14346313477</ele>
        <time>2017-04-20T20:14:00Z</time>
      </trkpt>
      <trkpt lat="45.76009" lon="4.69233">
        <ele>301.14346313477</ele>
        <time>2017-04-20T20:14:04Z</time>
      </trkpt>
      <trkpt lat="45.76026" lon="4.69228">
        <ele>297.78009033203</ele>
        <time>2017-04-20T20:14:04Z</time>
      </trkpt>
      <trkpt lat="45.76036" lon="4.69212">
        <ele>296.88708496094</ele>
        <time>2017-04-20T20:14:09Z</time>
      </trkpt>
      <trkpt lat="45.76057" lon="4.69177">
        <ele>296.85470581055</ele>
        <time>2017-04-20T20:14:13Z</time>
      </trkpt>
      <trkpt lat="45.76068" lon="4.69158">
        <ele>296.90756225586</ele>
        <time>2017-04-20T20:14:22Z</time>
      </trkpt>
      <trkpt lat="45.76085" lon="4.69136">
        <ele>297.20846557617</ele>
        <time>2017-04-20T20:14:27Z</time>
      </trkpt>
      <trkpt lat="45.76108" lon="4.69101">
        <ele>298.1901550293</ele>
        <time>2017-04-20T20:14:33Z</time>
      </trkpt>
      <trkpt lat="45.76115" lon="4.69071">
        <ele>297.8424987793</ele>
        <time>2017-04-20T20:14:42Z</time>
      </trkpt>
      <trkpt lat="45.76117" lon="4.69063">
        <ele>298.00396728516</ele>
        <time>2017-04-20T20:14:48Z</time>
      </trkpt>
      <trkpt lat="45.76125" lon="4.69055">
        <ele>298.16708374023</ele>
        <time>2017-04-20T20:14:50Z</time>
      </trkpt>
      <trkpt lat="45.76136" lon="4.69034">
        <ele>300.86032104492</ele>
        <time>2017-04-20T20:14:53Z</time>
      </trkpt>
      <trkpt lat="45.76148" lon="4.6901">
        <ele>304.61074829102</ele>
        <time>2017-04-20T20:14:58Z</time>
      </trkpt>
      <trkpt lat="45.76163" lon="4.6899">
        <ele>305.31024169922</ele>
        <time>2017-04-20T20:15:04Z</time>
      </trkpt>
      <trkpt lat="45.76192" lon="4.68958">
        <ele>304.68658447266</ele>
        <time>2017-04-20T20:15:09Z</time>
      </trkpt>
      <trkpt lat="45.76217" lon="4.68932">
        <ele>307.10290527344</ele>
        <time>2017-04-20T20:15:19Z</time>
      </trkpt>
      <trkpt lat="45.7624" lon="4.68899">
        <ele>310.14059448242</ele>
        <time>2017-04-20T20:15:27Z</time>
      </trkpt>
      <trkpt lat="45.76256" lon="4.68871">
        <ele>310.88757324219</ele>
        <time>2017-04-20T20:15:36Z</time>
      </trkpt>
      <trkpt lat="45.76285" lon="4.68839">
        <ele>306.80737304688</ele>
        <time>2017-04-20T20:15:43Z</time>
      </trkpt>
      <trkpt lat="45.7634" lon="4.68792">
        <ele>309.02044677734</ele>
        <time>2017-04-20T20:15:53Z</time>
      </trkpt>
      <trkpt lat="45.76381" lon="4.68753">
        <ele>313.96820068359</ele>
        <time>2017-04-20T20:16:10Z</time>
      </trkpt>
      <trkpt lat="45.76387" lon="4.68745">
        <ele>315.01715087891</ele>
        <time>2017-04-20T20:16:23Z</time>
      </trkpt>
      <trkpt lat="45.76391" lon="4.68729">
        <ele>315.90325927734</ele>
        <time>2017-04-20T20:16:25Z</time>
      </trkpt>
      <trkpt lat="45.76391" lon="4.68714">
        <ele>315.98864746094</ele>
        <time>2017-04-20T20:16:28Z</time>
      </trkpt>
      <trkpt lat="45.76387" lon="4.68672">
        <ele>316.33892822266</ele>
        <time>2017-04-20T20:16:31Z</time>
      </trkpt>
      <trkpt lat="45.76376" lon="4.68585">
        <ele>319.02285766602</ele>
        <time>2017-04-20T20:16:39Z</time>
      </trkpt>
      <trkpt lat="45.76369" lon="4.68556">
        <ele>319.18209838867</ele>
        <time>2017-04-20T20:16:55Z</time>
      </trkpt>
      <trkpt lat="45.76356" lon="4.68528">
        <ele>320.44717407227</ele>
        <time>2017-04-20T20:17:01Z</time>
      </trkpt>
      <trkpt lat="45.76352" lon="4.68516">
        <ele>321.79266357422</ele>
        <time>2017-04-20T20:17:07Z</time>
      </trkpt>
      <trkpt lat="45.76339" lon="4.68412">
        <ele>329.68664550781</ele>
        <time>2017-04-20T20:17:09Z</time>
      </trkpt>
      <trkpt lat="45.76335" lon="4.68391">
        <ele>330.77029418945</ele>
        <time>2017-04-20T20:17:29Z</time>
      </trkpt>
      <trkpt lat="45.76353" lon="4.68402">
        <ele>332.67095947266</ele>
        <time>2017-04-20T20:17:33Z</time>
      </trkpt>
      <trkpt lat="45.76364" lon="4.6841">
        <ele>333.56137084961</ele>
        <time>2017-04-20T20:17:38Z</time>
      </trkpt>
      <trkpt lat="45.7638" lon="4.68412">
        <ele>334.15921020508</ele>
        <time>2017-04-20T20:17:41Z</time>
      </trkpt>
      <trkpt lat="45.76418" lon="4.68405">
        <ele>335.20812988281</ele>
        <time>2017-04-20T20:17:45Z</time>
      </trkpt>
      <trkpt lat="45.76445" lon="4.68394">
        <ele>335.8971862793</ele>
        <time>2017-04-20T20:17:55Z</time>
      </trkpt>
      <trkpt lat="45.76552" lon="4.68322">
        <ele>335.61053466797</ele>
        <time>2017-04-20T20:18:02Z</time>
      </trkpt>
      <trkpt lat="45.76602" lon="4.68284">
        <ele>335.74011230469</ele>
        <time>2017-04-20T20:18:34Z</time>
      </trkpt>
      <trkpt lat="45.76613" lon="4.68273">
        <ele>335.36422729492</ele>
        <time>2017-04-20T20:18:49Z</time>
      </trkpt>
      <trkpt lat="45.76621" lon="4.6826">
        <ele>335.24951171875</ele>
        <time>2017-04-20T20:18:53Z</time>
      </trkpt>
      <trkpt lat="45.7663" lon="4.6828">
        <ele>335.29071044922</ele>
        <time>2017-04-20T20:18:56Z</time>
      </trkpt>
      <trkpt lat="45.76646" lon="4.68316">
        <ele>332.98773193359</ele>
        <time>2017-04-20T20:19:00Z</time>
      </trkpt>
      <trkpt lat="45.76656" lon="4.68336">
        <ele>330.96884155273</ele>
        <time>2017-04-20T20:19:08Z</time>
      </trkpt>
      <trkpt lat="45.7666" lon="4.6835">
        <ele>329.70303344727</ele>
        <time>2017-04-20T20:19:13Z</time>
      </trkpt>
      <trkpt lat="45.76663" lon="4.68379">
        <ele>331.1247253418</ele>
        <time>2017-04-20T20:19:16Z</time>
      </trkpt>
      <trkpt lat="45.76661" lon="4.68403">
        <ele>330.66809082031</ele>
        <time>2017-04-20T20:19:21Z</time>
      </trkpt>
      <trkpt lat="45.76651" lon="4.68432">
        <ele>329.73779296875</ele>
        <time>2017-04-20T20:19:26Z</time>
      </trkpt>
      <trkpt lat="45.76647" lon="4.68455">
        <ele>329.14361572266</ele>
        <time>2017-04-20T20:19:32Z</time>
      </trkpt>
      <trkpt lat="45.76649" lon="4.6852">
        <ele>330.19244384766</ele>
        <time>2017-04-20T20:19:36Z</time>
      </trkpt>
      <trkpt lat="45.76651" lon="4.68533">
        <ele>331.4541015625</ele>
        <time>2017-04-20T20:19:48Z</time>
      </trkpt>
      <trkpt lat="45.7666" lon="4.68554">
        <ele>334.17498779297</ele>
        <time>2017-04-20T20:19:50Z</time>
      </trkpt>
      <trkpt lat="45.76665" lon="4.68567">
        <ele>335.74551391602</ele>
        <time>2017-04-20T20:19:55Z</time>
      </trkpt>
      <trkpt lat="45.76674" lon="4.68607">
        <ele>339.81634521484</ele>
        <time>2017-04-20T20:19:58Z</time>
      </trkpt>
      <trkpt lat="45.76682" lon="4.68631">
        <ele>341.70043945312</ele>
        <time>2017-04-20T20:20:06Z</time>
      </trkpt>
      <trkpt lat="45.76716" lon="4.68705">
        <ele>347.80422973633</ele>
        <time>2017-04-20T20:20:11Z</time>
      </trkpt>
      <trkpt lat="45.76722" lon="4.6872">
        <ele>348.84857177734</ele>
        <time>2017-04-20T20:20:28Z</time>
      </trkpt>
      <trkpt lat="45.76726" lon="4.68721">
        <ele>349.36236572266</ele>
        <time>2017-04-20T20:20:31Z</time>
      </trkpt>
      <trkpt lat="45.76759" lon="4.68732">
        <ele>352.39013671875</ele>
        <time>2017-04-20T20:20:32Z</time>
      </trkpt>
      <trkpt lat="45.7676" lon="4.68736">
        <ele>352.61895751953</ele>
        <time>2017-04-20T20:20:41Z</time>
      </trkpt>
      <trkpt lat="45.7676" lon="4.68754">
        <ele>352.73428344727</ele>
        <time>2017-04-20T20:20:42Z</time>
      </trkpt>
      <trkpt lat="45.7676" lon="4.68754">
        <ele>352.73428344727</ele>
        <time>2017-04-20T20:20:45Z</time>
      </trkpt>
      <trkpt lat="45.76761" lon="4.68769">
        <ele>352.78314208984</ele>
        <time>2017-04-20T20:20:45Z</time>
      </trkpt>
      <trkpt lat="45.76766" lon="4.68766">
        <ele>352.6223449707</ele>
        <time>2017-04-20T20:20:48Z</time>
      </trkpt>
      <trkpt lat="45.76777" lon="4.68765">
        <ele>353.26885986328</ele>
        <time>2017-04-20T20:20:49Z</time>
      </trkpt>
      <trkpt lat="45.76793" lon="4.68767">
        <ele>354.69390869141</ele>
        <time>2017-04-20T20:20:52Z</time>
      </trkpt>
      <trkpt lat="45.768" lon="4.68764">
        <ele>355.21032714844</ele>
        <time>2017-04-20T20:20:56Z</time>
      </trkpt>
      <trkpt lat="45.76818" lon="4.68727">
        <ele>354.76715087891</ele>
        <time>2017-04-20T20:20:58Z</time>
      </trkpt>
      <trkpt lat="45.76847" lon="4.68672">
        <ele>354.67956542969</ele>
        <time>2017-04-20T20:21:06Z</time>
      </trkpt>
      <trkpt lat="45.76856" lon="4.68654">
        <ele>354.62713623047</ele>
        <time>2017-04-20T20:21:19Z</time>
      </trkpt>
      <trkpt lat="45.76862" lon="4.68629">
        <ele>354.25964355469</ele>
        <time>2017-04-20T20:21:23Z</time>
      </trkpt>
      <trkpt lat="45.76885" lon="4.68539">
        <ele>349.34115600586</ele>
        <time>2017-04-20T20:21:28Z</time>
      </trkpt>
      <trkpt lat="45.76903" lon="4.68473">
        <ele>349.09155273438</ele>
        <time>2017-04-20T20:21:46Z</time>
      </trkpt>
      <trkpt lat="45.76925" lon="4.68416">
        <ele>353.78955078125</ele>
        <time>2017-04-20T20:21:59Z</time>
      </trkpt>
      <trkpt lat="45.76942" lon="4.68302">
        <ele>358.16226196289</ele>
        <time>2017-04-20T20:22:11Z</time>
      </trkpt>
      <trkpt lat="45.76949" lon="4.68286">
        <ele>359.29342651367</ele>
        <time>2017-04-20T20:22:33Z</time>
      </trkpt>
      <trkpt lat="45.76952" lon="4.68284">
        <ele>359.45355224609</ele>
        <time>2017-04-20T20:22:37Z</time>
      </trkpt>
      <trkpt lat="45.7696" lon="4.68281">
        <ele>359.86346435547</ele>
        <time>2017-04-20T20:22:38Z</time>
      </trkpt>
      <trkpt lat="45.76977" lon="4.68278">
        <ele>360.18008422852</ele>
        <time>2017-04-20T20:22:40Z</time>
      </trkpt>
      <trkpt lat="45.76987" lon="4.6828">
        <ele>360.4479675293</ele>
        <time>2017-04-20T20:22:45Z</time>
      </trkpt>
      <trkpt lat="45.77013" lon="4.68294">
        <ele>362.44946289062</ele>
        <time>2017-04-20T20:22:48Z</time>
      </trkpt>
      <trkpt lat="45.77125" lon="4.68363">
        <ele>373.00921630859</ele>
        <time>2017-04-20T20:22:55Z</time>
      </trkpt>
      <trkpt lat="45.77129" lon="4.68364">
        <ele>373.15185546875</ele>
        <time>2017-04-20T20:23:28Z</time>
      </trkpt>
      <trkpt lat="45.77134" lon="4.68363">
        <ele>373.25970458984</ele>
        <time>2017-04-20T20:23:29Z</time>
      </trkpt>
      <trkpt lat="45.77138" lon="4.68355">
        <ele>372.94119262695</ele>
        <time>2017-04-20T20:23:30Z</time>
      </trkpt>
      <trkpt lat="45.7716" lon="4.68264">
        <ele>367.65243530273</ele>
        <time>2017-04-20T20:23:32Z</time>
      </trkpt>
      <trkpt lat="45.77165" lon="4.68258">
        <ele>367.31582641602</ele>
        <time>2017-04-20T20:23:50Z</time>
      </trkpt>
      <trkpt lat="45.77172" lon="4.68261">
        <ele>367.39920043945</ele>
        <time>2017-04-20T20:23:52Z</time>
      </trkpt>
      <trkpt lat="45.77201" lon="4.68293">
        <ele>369.48895263672</ele>
        <time>2017-04-20T20:23:54Z</time>
      </trkpt>
      <trkpt lat="45.77251" lon="4.68359">
        <ele>373.5009765625</ele>
        <time>2017-04-20T20:24:04Z</time>
      </trkpt>
      <trkpt lat="45.7733" lon="4.68464">
        <ele>380.81704711914</ele>
        <time>2017-04-20T20:24:22Z</time>
      </trkpt>
      <trkpt lat="45.77333" lon="4.68471">
        <ele>380.86285400391</ele>
        <time>2017-04-20T20:24:51Z</time>
      </trkpt>
      <trkpt lat="45.77336" lon="4.68469">
        <ele>380.79016113281</ele>
        <time>2017-04-20T20:24:53Z</time>
      </trkpt>
      <trkpt lat="45.77351" lon="4.68462">
        <ele>379.46374511719</ele>
        <time>2017-04-20T20:24:54Z</time>
      </trkpt>
      <trkpt lat="45.77367" lon="4.6846">
        <ele>377.61929321289</ele>
        <time>2017-04-20T20:24:58Z</time>
      </trkpt>
      <trkpt lat="45.77401" lon="4.68459">
        <ele>374.19500732422</ele>
        <time>2017-04-20T20:25:02Z</time>
      </trkpt>
      <trkpt lat="45.7742" lon="4.68454">
        <ele>373.48153686523</ele>
        <time>2017-04-20T20:25:11Z</time>
      </trkpt>
      <trkpt lat="45.77458" lon="4.68434">
        <ele>372.50888061523</ele>
        <time>2017-04-20T20:25:16Z</time>
      </trkpt>
      <trkpt lat="45.77471" lon="4.68423">
        <ele>373.41674804688</ele>
        <time>2017-04-20T20:25:27Z</time>
      </trkpt>
      <trkpt lat="45.77495" lon="4.68397">
        <ele>376.50115966797</ele>
        <time>2017-04-20T20:25:31Z</time>
      </trkpt>
      <trkpt lat="45.77509" lon="4.6842">
        <ele>378.10079956055</ele>
        <time>2017-04-20T20:25:39Z</time>
      </trkpt>
      <trkpt lat="45.77535" lon="4.68443">
        <ele>382.09100341797</ele>
        <time>2017-04-20T20:25:45Z</time>
      </trkpt>
      <trkpt lat="45.77549" lon="4.68454">
        <ele>384.36361694336</ele>
        <time>2017-04-20T20:25:53Z</time>
      </trkpt>
      <trkpt lat="45.77568" lon="4.68472">
        <ele>386.77261352539</ele>
        <time>2017-04-20T20:25:57Z</time>
      </trkpt>
      <trkpt lat="45.77589" lon="4.68504">
        <ele>388.65148925781</ele>
        <time>2017-04-20T20:26:03Z</time>
      </trkpt>
      <trkpt lat="45.7763" lon="4.68584">
        <ele>393.28604125977</ele>
        <time>2017-04-20T20:26:11Z</time>
      </trkpt>
      <trkpt lat="45.77671" lon="4.68681">
        <ele>401.72366333008</ele>
        <time>2017-04-20T20:26:29Z</time>
      </trkpt>
      <trkpt lat="45.77671" lon="4.68681">
        <ele>401.72366333008</ele>
        <time>2017-04-20T20:26:50Z</time>
      </trkpt>
      <trkpt lat="45.77676" lon="4.68688">
        <ele>402.65502929688</ele>
        <time>2017-04-20T20:26:50Z</time>
      </trkpt>
      <trkpt lat="45.7767" lon="4.68703">
        <ele>402.0632019043</ele>
        <time>2017-04-20T20:26:52Z</time>
      </trkpt>
      <trkpt lat="45.77646" lon="4.6877">
        <ele>401.54333496094</ele>
        <time>2017-04-20T20:26:55Z</time>
      </trkpt>
      <trkpt lat="45.77633" lon="4.68814">
        <ele>401.58071899414</ele>
        <time>2017-04-20T20:27:09Z</time>
      </trkpt>
      <trkpt lat="45.77629" lon="4.68836">
        <ele>402.36441040039</ele>
        <time>2017-04-20T20:27:18Z</time>
      </trkpt>
      <trkpt lat="45.77629" lon="4.68836">
        <ele>402.36441040039</ele>
        <time>2017-04-20T20:27:22Z</time>
      </trkpt>
      <trkpt lat="45.77663" lon="4.68839">
        <ele>405.31677246094</ele>
        <time>2017-04-20T20:27:22Z</time>
      </trkpt>
      <trkpt lat="45.77678" lon="4.68835">
        <ele>405.44625854492</ele>
        <time>2017-04-20T20:27:31Z</time>
      </trkpt>
      <trkpt lat="45.77728" lon="4.68806">
        <ele>408.16595458984</ele>
        <time>2017-04-20T20:27:35Z</time>
      </trkpt>
      <trkpt lat="45.77763" lon="4.68782">
        <ele>408.96752929688</ele>
        <time>2017-04-20T20:27:49Z</time>
      </trkpt>
      <trkpt lat="45.77799" lon="4.68751">
        <ele>411.31381225586</ele>
        <time>2017-04-20T20:27:59Z</time>
      </trkpt>
      <trkpt lat="45.77835" lon="4.6872">
        <ele>410.66595458984</ele>
        <time>2017-04-20T20:28:10Z</time>
      </trkpt>
      <trkpt lat="45.77856" lon="4.687">
        <ele>410.37835693359</ele>
        <time>2017-04-20T20:28:21Z</time>
      </trkpt>
      <trkpt lat="45.77881" lon="4.68668">
        <ele>410.01055908203</ele>
        <time>2017-04-20T20:28:28Z</time>
      </trkpt>
      <trkpt lat="45.77901" lon="4.68631">
        <ele>411.15844726562</ele>
        <time>2017-04-20T20:28:37Z</time>
      </trkpt>
      <trkpt lat="45.7794" lon="4.68537">
        <ele>411.23098754883</ele>
        <time>2017-04-20T20:28:46Z</time>
      </trkpt>
      <trkpt lat="45.77962" lon="4.68486">
        <ele>412.25970458984</ele>
        <time>2017-04-20T20:29:06Z</time>
      </trkpt>
      <trkpt lat="45.77968" lon="4.68477">
        <ele>412.31289672852</ele>
        <time>2017-04-20T20:29:17Z</time>
      </trkpt>
      <trkpt lat="45.78005" lon="4.68447">
        <ele>409.92135620117</ele>
        <time>2017-04-20T20:29:19Z</time>
      </trkpt>
      <trkpt lat="45.78015" lon="4.68437">
        <ele>408.78082275391</ele>
        <time>2017-04-20T20:29:30Z</time>
      </trkpt>
      <trkpt lat="45.78018" lon="4.6843">
        <ele>408.37747192383</ele>
        <time>2017-04-20T20:29:33Z</time>
      </trkpt>
      <trkpt lat="45.78023" lon="4.68433">
        <ele>408.09573364258</ele>
        <time>2017-04-20T20:29:35Z</time>
      </trkpt>
      <trkpt lat="45.78023" lon="4.68433">
        <ele>408.09573364258</ele>
        <time>2017-04-20T20:29:36Z</time>
      </trkpt>
      <trkpt lat="45.78018" lon="4.6843">
        <ele>408.37747192383</ele>
        <time>2017-04-20T20:29:36Z</time>
      </trkpt>
      <trkpt lat="45.7802" lon="4.68424">
        <ele>407.91723632812</ele>
        <time>2017-04-20T20:29:37Z</time>
      </trkpt>
      <trkpt lat="45.78022" lon="4.68402">
        <ele>405.64703369141</ele>
        <time>2017-04-20T20:29:38Z</time>
      </trkpt>
      <trkpt lat="45.78024" lon="4.68359">
        <ele>404.03561401367</ele>
        <time>2017-04-20T20:29:42Z</time>
      </trkpt>
      <trkpt lat="45.78028" lon="4.6834">
        <ele>402.62524414062</ele>
        <time>2017-04-20T20:29:50Z</time>
      </trkpt>
      <trkpt lat="45.78038" lon="4.68324">
        <ele>401.251953125</ele>
        <time>2017-04-20T20:29:54Z</time>
      </trkpt>
      <trkpt lat="45.78066" lon="4.68299">
        <ele>399.39544677734</ele>
        <time>2017-04-20T20:29:58Z</time>
      </trkpt>
      <trkpt lat="45.78102" lon="4.68258">
        <ele>393.3258972168</ele>
        <time>2017-04-20T20:30:07Z</time>
      </trkpt>
      <trkpt lat="45.78132" lon="4.68216">
        <ele>391.3034362793</ele>
        <time>2017-04-20T20:30:19Z</time>
      </trkpt>
      <trkpt lat="45.78142" lon="4.6819">
        <ele>392.90496826172</ele>
        <time>2017-04-20T20:30:30Z</time>
      </trkpt>
      <trkpt lat="45.78151" lon="4.68162">
        <ele>395.82235717773</ele>
        <time>2017-04-20T20:30:36Z</time>
      </trkpt>
      <trkpt lat="45.78164" lon="4.68143">
        <ele>396.10171508789</ele>
        <time>2017-04-20T20:30:42Z</time>
      </trkpt>
      <trkpt lat="45.782" lon="4.6812">
        <ele>393.60977172852</ele>
        <time>2017-04-20T20:30:47Z</time>
      </trkpt>
      <trkpt lat="45.78208" lon="4.68113">
        <ele>392.34902954102</ele>
        <time>2017-04-20T20:30:58Z</time>
      </trkpt>
      <trkpt lat="45.78252" lon="4.68097">
        <ele>391.19323730469</ele>
        <time>2017-04-20T20:31:01Z</time>
      </trkpt>
      <trkpt lat="45.78312" lon="4.68062">
        <ele>387.4450378418</ele>
        <time>2017-04-20T20:31:13Z</time>
      </trkpt>
      <trkpt lat="45.78357" lon="4.68026">
        <ele>381.82424926758</ele>
        <time>2017-04-20T20:31:30Z</time>
      </trkpt>
      <trkpt lat="45.78383" lon="4.67989">
        <ele>377.10073852539</ele>
        <time>2017-04-20T20:31:44Z</time>
      </trkpt>
      <trkpt lat="45.78462" lon="4.6786">
        <ele>363.6337890625</ele>
        <time>2017-04-20T20:31:54Z</time>
      </trkpt>
      <trkpt lat="45.78514" lon="4.67785">
        <ele>355.78833007812</ele>
        <time>2017-04-20T20:32:26Z</time>
      </trkpt>
      <trkpt lat="45.7853" lon="4.67763">
        <ele>354.39743041992</ele>
        <time>2017-04-20T20:32:46Z</time>
      </trkpt>
      <trkpt lat="45.78536" lon="4.67759">
        <ele>353.55416870117</ele>
        <time>2017-04-20T20:32:52Z</time>
      </trkpt>
      <trkpt lat="45.78548" lon="4.67758">
        <ele>351.76821899414</ele>
        <time>2017-04-20T20:32:54Z</time>
      </trkpt>
      <trkpt lat="45.78559" lon="4.67763">
        <ele>350.20474243164</ele>
        <time>2017-04-20T20:32:57Z</time>
      </trkpt>
      <trkpt lat="45.78573" lon="4.67785">
        <ele>349.28558349609</ele>
        <time>2017-04-20T20:33:00Z</time>
      </trkpt>
      <trkpt lat="45.78587" lon="4.67795">
        <ele>348.69641113281</ele>
        <time>2017-04-20T20:33:06Z</time>
      </trkpt>
      <trkpt lat="45.78606" lon="4.67799">
        <ele>347.19256591797</ele>
        <time>2017-04-20T20:33:10Z</time>
      </trkpt>
      <trkpt lat="45.78637" lon="4.67791">
        <ele>345.97229003906</ele>
        <time>2017-04-20T20:33:15Z</time>
      </trkpt>
      <trkpt lat="45.78657" lon="4.67782">
        <ele>346.18020629883</ele>
        <time>2017-04-20T20:33:23Z</time>
      </trkpt>
      <trkpt lat="45.78663" lon="4.67791">
        <ele>345.37533569336</ele>
        <time>2017-04-20T20:33:29Z</time>
      </trkpt>
      <trkpt lat="45.78663" lon="4.67799">
        <ele>344.69049072266</ele>
        <time>2017-04-20T20:33:31Z</time>
      </trkpt>
      <trkpt lat="45.78653" lon="4.67823">
        <ele>344.63980102539</ele>
        <time>2017-04-20T20:33:32Z</time>
      </trkpt>
      <trkpt lat="45.78651" lon="4.67834">
        <ele>344.38171386719</ele>
        <time>2017-04-20T20:33:37Z</time>
      </trkpt>
      <trkpt lat="45.78654" lon="4.67845">
        <ele>345.07446289062</ele>
        <time>2017-04-20T20:33:39Z</time>
      </trkpt>
      <trkpt lat="45.7868" lon="4.67882">
        <ele>349.04769897461</ele>
        <time>2017-04-20T20:33:41Z</time>
      </trkpt>
      <trkpt lat="45.78703" lon="4.67919">
        <ele>353.92761230469</ele>
        <time>2017-04-20T20:33:51Z</time>
      </trkpt>
      <trkpt lat="45.78731" lon="4.67957">
        <ele>359.37057495117</ele>
        <time>2017-04-20T20:34:00Z</time>
      </trkpt>
      <trkpt lat="45.78763" lon="4.67992">
        <ele>364.74166870117</ele>
        <time>2017-04-20T20:34:10Z</time>
      </trkpt>
      <trkpt lat="45.78859" lon="4.68098">
        <ele>373.91683959961</ele>
        <time>2017-04-20T20:34:21Z</time>
      </trkpt>
      <trkpt lat="45.78859" lon="4.68098">
        <ele>373.91683959961</ele>
        <time>2017-04-20T20:34:53Z</time>
      </trkpt>
      <trkpt lat="45.78872" lon="4.6811">
        <ele>373.96850585938</ele>
        <time>2017-04-20T20:34:53Z</time>
      </trkpt>
      <trkpt lat="45.78893" lon="4.68126">
        <ele>375.08319091797</ele>
        <time>2017-04-20T20:34:57Z</time>
      </trkpt>
      <trkpt lat="45.78929" lon="4.68139">
        <ele>374.50979614258</ele>
        <time>2017-04-20T20:35:03Z</time>
      </trkpt>
      <trkpt lat="45.78979" lon="4.68154">
        <ele>372.36041259766</ele>
        <time>2017-04-20T20:35:13Z</time>
      </trkpt>
      <trkpt lat="45.79019" lon="4.68168">
        <ele>366.84552001953</ele>
        <time>2017-04-20T20:35:27Z</time>
      </trkpt>
      <trkpt lat="45.79022" lon="4.68166">
        <ele>366.49859619141</ele>
        <time>2017-04-20T20:35:38Z</time>
      </trkpt>
      <trkpt lat="45.79048" lon="4.68118">
        <ele>364.12185668945</ele>
        <time>2017-04-20T20:35:39Z</time>
      </trkpt>
      <trkpt lat="45.79061" lon="4.68091">
        <ele>363.93545532227</ele>
        <time>2017-04-20T20:35:50Z</time>
      </trkpt>
      <trkpt lat="45.79065" lon="4.68092">
        <ele>363.36642456055</ele>
        <time>2017-04-20T20:35:56Z</time>
      </trkpt>
      <trkpt lat="45.79083" lon="4.68109">
        <ele>360.74389648438</ele>
        <time>2017-04-20T20:35:57Z</time>
      </trkpt>
      <trkpt lat="45.79091" lon="4.68114">
        <ele>360.13858032227</ele>
        <time>2017-04-20T20:36:03Z</time>
      </trkpt>
      <trkpt lat="45.79101" lon="4.68115">
        <ele>359.45864868164</ele>
        <time>2017-04-20T20:36:05Z</time>
      </trkpt>
      <trkpt lat="45.79116" lon="4.68122">
        <ele>358.40582275391</ele>
        <time>2017-04-20T20:36:08Z</time>
      </trkpt>
      <trkpt lat="45.79137" lon="4.68139">
        <ele>356.83590698242</ele>
        <time>2017-04-20T20:36:12Z</time>
      </trkpt>
      <trkpt lat="45.79189" lon="4.68179">
        <ele>353.68322753906</ele>
        <time>2017-04-20T20:36:18Z</time>
      </trkpt>
      <trkpt lat="45.79199" lon="4.68186">
        <ele>353.51223754883</ele>
        <time>2017-04-20T20:36:34Z</time>
      </trkpt>
      <trkpt lat="45.79203" lon="4.68198">
        <ele>352.99301147461</ele>
        <time>2017-04-20T20:36:37Z</time>
      </trkpt>
      <trkpt lat="45.79211" lon="4.68229">
        <ele>351.2099609375</ele>
        <time>2017-04-20T20:36:39Z</time>
      </trkpt>
      <trkpt lat="45.79211" lon="4.68244">
        <ele>350.10659790039</ele>
        <time>2017-04-20T20:36:45Z</time>
      </trkpt>
      <trkpt lat="45.79208" lon="4.68249">
        <ele>349.67456054688</ele>
        <time>2017-04-20T20:36:48Z</time>
      </trkpt>
      <trkpt lat="45.79187" lon="4.68246">
        <ele>347.17202758789</ele>
        <time>2017-04-20T20:36:49Z</time>
      </trkpt>
      <trkpt lat="45.79183" lon="4.68252">
        <ele>347.04095458984</ele>
        <time>2017-04-20T20:36:55Z</time>
      </trkpt>
      <trkpt lat="45.79188" lon="4.68273">
        <ele>347.42324829102</ele>
        <time>2017-04-20T20:36:57Z</time>
      </trkpt>
      <trkpt lat="45.79197" lon="4.68299">
        <ele>346.50518798828</ele>
        <time>2017-04-20T20:37:01Z</time>
      </trkpt>
      <trkpt lat="45.79219" lon="4.68347">
        <ele>338.55505371094</ele>
        <time>2017-04-20T20:37:06Z</time>
      </trkpt>
      <trkpt lat="45.79227" lon="4.6836">
        <ele>332.83749389648</ele>
        <time>2017-04-20T20:37:17Z</time>
      </trkpt>
      <trkpt lat="45.79233" lon="4.6836">
        <ele>330.29312133789</ele>
        <time>2017-04-20T20:37:20Z</time>
      </trkpt>
      <trkpt lat="45.79255" lon="4.68357">
        <ele>326.02133178711</ele>
        <time>2017-04-20T20:37:22Z</time>
      </trkpt>
      <trkpt lat="45.79271" lon="4.68359">
        <ele>328.19436645508</ele>
        <time>2017-04-20T20:37:28Z</time>
      </trkpt>
      <trkpt lat="45.79286" lon="4.68367">
        <ele>331.62945556641</ele>
        <time>2017-04-20T20:37:32Z</time>
      </trkpt>
      <trkpt lat="45.79294" lon="4.68381">
        <ele>331.62603759766</ele>
        <time>2017-04-20T20:37:36Z</time>
      </trkpt>
      <trkpt lat="45.79302" lon="4.68409">
        <ele>330.82064819336</ele>
        <time>2017-04-20T20:37:39Z</time>
      </trkpt>
      <trkpt lat="45.79312" lon="4.6839">
        <ele>333.54418945312</ele>
        <time>2017-04-20T20:37:45Z</time>
      </trkpt>
      <trkpt lat="45.79318" lon="4.68383">
        <ele>335.23852539062</ele>
        <time>2017-04-20T20:37:49Z</time>
      </trkpt>
      <trkpt lat="45.79336" lon="4.68372">
        <ele>340.24203491211</ele>
        <time>2017-04-20T20:37:51Z</time>
      </trkpt>
      <trkpt lat="45.79415" lon="4.68325">
        <ele>346.92254638672</ele>
        <time>2017-04-20T20:37:56Z</time>
      </trkpt>
      <trkpt lat="45.79447" lon="4.68316">
        <ele>349.47680664062</ele>
        <time>2017-04-20T20:38:19Z</time>
      </trkpt>
      <trkpt lat="45.79474" lon="4.68306">
        <ele>348.23260498047</ele>
        <time>2017-04-20T20:38:28Z</time>
      </trkpt>
      <trkpt lat="45.79491" lon="4.68281">
        <ele>348.27017211914</ele>
        <time>2017-04-20T20:38:35Z</time>
      </trkpt>
      <trkpt lat="45.79504" lon="4.68264">
        <ele>348.7453918457</ele>
        <time>2017-04-20T20:38:42Z</time>
      </trkpt>
      <trkpt lat="45.79511" lon="4.68263">
        <ele>349.28826904297</ele>
        <time>2017-04-20T20:38:47Z</time>
      </trkpt>
      <trkpt lat="45.79548" lon="4.68269">
        <ele>354.33459472656</ele>
        <time>2017-04-20T20:38:49Z</time>
      </trkpt>
      <trkpt lat="45.7955" lon="4.6826">
        <ele>354.49362182617</ele>
        <time>2017-04-20T20:38:59Z</time>
      </trkpt>
      <trkpt lat="45.79555" lon="4.68209">
        <ele>357.23541259766</ele>
        <time>2017-04-20T20:39:01Z</time>
      </trkpt>
      <trkpt lat="45.7956" lon="4.68206">
        <ele>358.54574584961</ele>
        <time>2017-04-20T20:39:11Z</time>
      </trkpt>
      <trkpt lat="45.79575" lon="4.68202">
        <ele>360.26336669922</ele>
        <time>2017-04-20T20:39:12Z</time>
      </trkpt>
      <trkpt lat="45.79675" lon="4.68168">
        <ele>373.57925415039</ele>
        <time>2017-04-20T20:39:16Z</time>
      </trkpt>
      <trkpt lat="45.79675" lon="4.68157">
        <ele>373.50909423828</ele>
        <time>2017-04-20T20:39:43Z</time>
      </trkpt>
      <trkpt lat="45.79675" lon="4.68157">
        <ele>373.50909423828</ele>
        <time>2017-04-20T20:39:45Z</time>
      </trkpt>
      <trkpt lat="45.79673" lon="4.6819">
        <ele>373.04635620117</ele>
        <time>2017-04-20T20:39:45Z</time>
      </trkpt>
      <trkpt lat="45.79667" lon="4.6823">
        <ele>370.71505737305</ele>
        <time>2017-04-20T20:39:51Z</time>
      </trkpt>
      <trkpt lat="45.7966" lon="4.68303">
        <ele>364.923828125</ele>
        <time>2017-04-20T20:39:59Z</time>
      </trkpt>
      <trkpt lat="45.79652" lon="4.68343">
        <ele>363.55465698242</ele>
        <time>2017-04-20T20:40:13Z</time>
      </trkpt>
      <trkpt lat="45.79639" lon="4.68384">
        <ele>360.84603881836</ele>
        <time>2017-04-20T20:40:21Z</time>
      </trkpt>
      <trkpt lat="45.79591" lon="4.68512">
        <ele>353.08224487305</ele>
        <time>2017-04-20T20:40:29Z</time>
      </trkpt>
      <trkpt lat="45.79581" lon="4.6854">
        <ele>351.73931884766</ele>
        <time>2017-04-20T20:40:56Z</time>
      </trkpt>
      <trkpt lat="45.79568" lon="4.68589">
        <ele>348.55978393555</ele>
        <time>2017-04-20T20:41:02Z</time>
      </trkpt>
      <trkpt lat="45.79502" lon="4.68723">
        <ele>341.85665893555</ele>
        <time>2017-04-20T20:41:12Z</time>
      </trkpt>
      <trkpt lat="45.79488" lon="4.68761">
        <ele>340.54406738281</ele>
        <time>2017-04-20T20:41:43Z</time>
      </trkpt>
      <trkpt lat="45.79483" lon="4.68784">
        <ele>340.33804321289</ele>
        <time>2017-04-20T20:41:51Z</time>
      </trkpt>
      <trkpt lat="45.79479" lon="4.6886">
        <ele>339.44522094727</ele>
        <time>2017-04-20T20:41:55Z</time>
      </trkpt>
      <trkpt lat="45.79471" lon="4.68868">
        <ele>339.05685424805</ele>
        <time>2017-04-20T20:42:09Z</time>
      </trkpt>
      <trkpt lat="45.79469" lon="4.69006">
        <ele>335.78466796875</ele>
        <time>2017-04-20T20:42:12Z</time>
      </trkpt>
      <trkpt lat="45.79475" lon="4.6901">
        <ele>335.4704284668</ele>
        <time>2017-04-20T20:42:38Z</time>
      </trkpt>
      <trkpt lat="45.79475" lon="4.6901">
        <ele>335.4704284668</ele>
        <time>2017-04-20T20:42:40Z</time>
      </trkpt>
      <trkpt lat="45.79482" lon="4.69014">
        <ele>335.44259643555</ele>
        <time>2017-04-20T20:42:40Z</time>
      </trkpt>
      <trkpt lat="45.79566" lon="4.69022">
        <ele>332.81838989258</ele>
        <time>2017-04-20T20:42:42Z</time>
      </trkpt>
      <trkpt lat="45.79582" lon="4.69026">
        <ele>331.86419677734</ele>
        <time>2017-04-20T20:43:04Z</time>
      </trkpt>
      <trkpt lat="45.79597" lon="4.69035">
        <ele>331.27743530273</ele>
        <time>2017-04-20T20:43:08Z</time>
      </trkpt>
      <trkpt lat="45.79608" lon="4.69048">
        <ele>330.5439453125</ele>
        <time>2017-04-20T20:43:12Z</time>
      </trkpt>
      <trkpt lat="45.7963" lon="4.69084">
        <ele>330.44891357422</ele>
        <time>2017-04-20T20:43:16Z</time>
      </trkpt>
      <trkpt lat="45.79645" lon="4.69102">
        <ele>329.48831176758</ele>
        <time>2017-04-20T20:43:25Z</time>
      </trkpt>
      <trkpt lat="45.79674" lon="4.69123">
        <ele>328.67321777344</ele>
        <time>2017-04-20T20:43:30Z</time>
      </trkpt>
      <trkpt lat="45.79771" lon="4.69187">
        <ele>329.16009521484</ele>
        <time>2017-04-20T20:43:39Z</time>
      </trkpt>
      <trkpt lat="45.79781" lon="4.69197">
        <ele>329.03890991211</ele>
        <time>2017-04-20T20:44:08Z</time>
      </trkpt>
      <trkpt lat="45.79848" lon="4.69323">
        <ele>325.31530761719</ele>
        <time>2017-04-20T20:44:11Z</time>
      </trkpt>
      <trkpt lat="45.79874" lon="4.69365">
        <ele>323.14172363281</ele>
        <time>2017-04-20T20:44:41Z</time>
      </trkpt>
      <trkpt lat="45.799" lon="4.69396">
        <ele>322.62896728516</ele>
        <time>2017-04-20T20:44:51Z</time>
      </trkpt>
      <trkpt lat="45.7992" lon="4.69415">
        <ele>322.37982177734</ele>
        <time>2017-04-20T20:45:00Z</time>
      </trkpt>
      <trkpt lat="45.79943" lon="4.6943">
        <ele>321.50680541992</ele>
        <time>2017-04-20T20:45:06Z</time>
      </trkpt>
      <trkpt lat="45.79943" lon="4.6943">
        <ele>321.50680541992</ele>
        <time>2017-04-20T20:45:13Z</time>
      </trkpt>
      <trkpt lat="45.79943" lon="4.69438">
        <ele>321.04895019531</ele>
        <time>2017-04-20T20:45:13Z</time>
      </trkpt>
      <trkpt lat="45.79945" lon="4.69439">
        <ele>321.00216674805</ele>
        <time>2017-04-20T20:45:14Z</time>
      </trkpt>
      <trkpt lat="45.79966" lon="4.69457">
        <ele>320.33892822266</ele>
        <time>2017-04-20T20:45:15Z</time>
      </trkpt>
      <trkpt lat="45.79975" lon="4.69468">
        <ele>320.14685058594</ele>
        <time>2017-04-20T20:45:22Z</time>
      </trkpt>
      <trkpt lat="45.80017" lon="4.69549">
        <ele>318.15747070312</ele>
        <time>2017-04-20T20:45:25Z</time>
      </trkpt>
      <trkpt lat="45.80048" lon="4.69602">
        <ele>317.20581054688</ele>
        <time>2017-04-20T20:45:44Z</time>
      </trkpt>
      <trkpt lat="45.80067" lon="4.69632">
        <ele>316.80990600586</ele>
        <time>2017-04-20T20:45:57Z</time>
      </trkpt>
      <trkpt lat="45.80084" lon="4.69666">
        <ele>316.12857055664</ele>
        <time>2017-04-20T20:46:05Z</time>
      </trkpt>
      <trkpt lat="45.8013" lon="4.69749">
        <ele>319.89501953125</ele>
        <time>2017-04-20T20:46:13Z</time>
      </trkpt>
      <trkpt lat="45.8019" lon="4.69864">
        <ele>325.59732055664</ele>
        <time>2017-04-20T20:46:33Z</time>
      </trkpt>
      <trkpt lat="45.80227" lon="4.69939">
        <ele>326.88873291016</ele>
        <time>2017-04-20T20:47:00Z</time>
      </trkpt>
      <trkpt lat="45.8031" lon="4.70027">
        <ele>320.77972412109</ele>
        <time>2017-04-20T20:47:17Z</time>
      </trkpt>
      <trkpt lat="45.80337" lon="4.70033">
        <ele>314.85977172852</ele>
        <time>2017-04-20T20:47:45Z</time>
      </trkpt>
      <trkpt lat="45.80363" lon="4.70044">
        <ele>311.84735107422</ele>
        <time>2017-04-20T20:47:52Z</time>
      </trkpt>
      <trkpt lat="45.8041" lon="4.70081">
        <ele>312.9909362793</ele>
        <time>2017-04-20T20:47:59Z</time>
      </trkpt>
      <trkpt lat="45.80446" lon="4.70098">
        <ele>312.46752929688</ele>
        <time>2017-04-20T20:48:13Z</time>
      </trkpt>
      <trkpt lat="45.80474" lon="4.70114">
        <ele>310.05117797852</ele>
        <time>2017-04-20T20:48:23Z</time>
      </trkpt>
      <trkpt lat="45.80501" lon="4.70124">
        <ele>307.6530456543</ele>
        <time>2017-04-20T20:48:31Z</time>
      </trkpt>
      <trkpt lat="45.80511" lon="4.70129">
        <ele>305.59832763672</ele>
        <time>2017-04-20T20:48:38Z</time>
      </trkpt>
      <trkpt lat="45.8057" lon="4.70195">
        <ele>305.75659179688</ele>
        <time>2017-04-20T20:48:41Z</time>
      </trkpt>
      <trkpt lat="45.80576" lon="4.70198">
        <ele>305.9909362793</ele>
        <time>2017-04-20T20:49:01Z</time>
      </trkpt>
      <trkpt lat="45.80586" lon="4.70196">
        <ele>305.87475585938</ele>
        <time>2017-04-20T20:49:03Z</time>
      </trkpt>
      <trkpt lat="45.80652" lon="4.70162">
        <ele>301.76159667969</ele>
        <time>2017-04-20T20:49:06Z</time>
      </trkpt>
      <trkpt lat="45.807" lon="4.70134">
        <ele>299.44812011719</ele>
        <time>2017-04-20T20:49:25Z</time>
      </trkpt>
      <trkpt lat="45.80721" lon="4.70124">
        <ele>299.79116821289</ele>
        <time>2017-04-20T20:49:39Z</time>
      </trkpt>
      <trkpt lat="45.80726" lon="4.70119">
        <ele>300.09289550781</ele>
        <time>2017-04-20T20:49:45Z</time>
      </trkpt>
      <trkpt lat="45.80729" lon="4.70111">
        <ele>300.3981628418</ele>
        <time>2017-04-20T20:49:47Z</time>
      </trkpt>
      <trkpt lat="45.80728" lon="4.70102">
        <ele>300.13275146484</ele>
        <time>2017-04-20T20:49:49Z</time>
      </trkpt>
      <trkpt lat="45.80724" lon="4.70093">
        <ele>299.32907104492</ele>
        <time>2017-04-20T20:49:51Z</time>
      </trkpt>
      <trkpt lat="45.80718" lon="4.70083">
        <ele>297.96810913086</ele>
        <time>2017-04-20T20:49:53Z</time>
      </trkpt>
      <trkpt lat="45.80716" lon="4.70072">
        <ele>295.50152587891</ele>
        <time>2017-04-20T20:49:55Z</time>
      </trkpt>
      <trkpt lat="45.8072" lon="4.70064">
        <ele>295.08853149414</ele>
        <time>2017-04-20T20:49:57Z</time>
      </trkpt>
      <trkpt lat="45.80745" lon="4.70053">
        <ele>296.03936767578</ele>
        <time>2017-04-20T20:49:59Z</time>
      </trkpt>
      <trkpt lat="45.80754" lon="4.70051">
        <ele>295.48318481445</ele>
        <time>2017-04-20T20:50:06Z</time>
      </trkpt>
      <trkpt lat="45.80763" lon="4.70052">
        <ele>294.9469909668</ele>
        <time>2017-04-20T20:50:08Z</time>
      </trkpt>
      <trkpt lat="45.80773" lon="4.70058">
        <ele>296.04257202148</ele>
        <time>2017-04-20T20:50:10Z</time>
      </trkpt>
      <trkpt lat="45.80791" lon="4.70073">
        <ele>295.7822265625</ele>
        <time>2017-04-20T20:50:13Z</time>
      </trkpt>
      <trkpt lat="45.80807" lon="4.70083">
        <ele>292.24575805664</ele>
        <time>2017-04-20T20:50:19Z</time>
      </trkpt>
      <trkpt lat="45.8081" lon="4.70089">
        <ele>291.93121337891</ele>
        <time>2017-04-20T20:50:24Z</time>
      </trkpt>
      <trkpt lat="45.8081" lon="4.70093">
        <ele>291.96484375</ele>
        <time>2017-04-20T20:50:25Z</time>
      </trkpt>
      <trkpt lat="45.8081" lon="4.70093">
        <ele>291.96484375</ele>
        <time>2017-04-20T20:50:26Z</time>
      </trkpt>
      <trkpt lat="45.80814" lon="4.70064">
        <ele>290.88284301758</ele>
        <time>2017-04-20T20:50:26Z</time>
      </trkpt>
      <trkpt lat="45.80827" lon="4.70019">
        <ele>284.76419067383</ele>
        <time>2017-04-20T20:50:32Z</time>
      </trkpt>
      <trkpt lat="45.80832" lon="4.70008">
        <ele>285.25</ele>
        <time>2017-04-20T20:50:41Z</time>
      </trkpt>
      <trkpt lat="45.80844" lon="4.69964">
        <ele>284.07476806641</ele>
        <time>2017-04-20T20:50:43Z</time>
      </trkpt>
      <trkpt lat="45.80853" lon="4.69932">
        <ele>285.99600219727</ele>
        <time>2017-04-20T20:50:52Z</time>
      </trkpt>
      <trkpt lat="45.8086" lon="4.69878">
        <ele>286.37881469727</ele>
        <time>2017-04-20T20:50:58Z</time>
      </trkpt>
      <trkpt lat="45.80866" lon="4.69828">
        <ele>291.60623168945</ele>
        <time>2017-04-20T20:51:08Z</time>
      </trkpt>
      <trkpt lat="45.80873" lon="4.69791">
        <ele>291.37524414062</ele>
        <time>2017-04-20T20:51:17Z</time>
      </trkpt>
      <trkpt lat="45.80882" lon="4.69758">
        <ele>290.70626831055</ele>
        <time>2017-04-20T20:51:24Z</time>
      </trkpt>
      <trkpt lat="45.8092" lon="4.69687">
        <ele>291.96557617188</ele>
        <time>2017-04-20T20:51:31Z</time>
      </trkpt>
      <trkpt lat="45.80962" lon="4.69606">
        <ele>292.16415405273</ele>
        <time>2017-04-20T20:51:48Z</time>
      </trkpt>
      <trkpt lat="45.8097" lon="4.69595">
        <ele>292.87210083008</ele>
        <time>2017-04-20T20:52:07Z</time>
      </trkpt>
      <trkpt lat="45.80992" lon="4.69574">
        <ele>292.85482788086</ele>
        <time>2017-04-20T20:52:10Z</time>
      </trkpt>
      <trkpt lat="45.81018" lon="4.69545">
        <ele>294.35845947266</ele>
        <time>2017-04-20T20:52:17Z</time>
      </trkpt>
      <trkpt lat="45.81036" lon="4.69518">
        <ele>295.04006958008</ele>
        <time>2017-04-20T20:52:26Z</time>
      </trkpt>
      <trkpt lat="45.81047" lon="4.69498">
        <ele>294.91717529297</ele>
        <time>2017-04-20T20:52:33Z</time>
      </trkpt>
      <trkpt lat="45.81052" lon="4.69475">
        <ele>295.84652709961</ele>
        <time>2017-04-20T20:52:38Z</time>
      </trkpt>
      <trkpt lat="45.81053" lon="4.69465">
        <ele>296.76239013672</ele>
        <time>2017-04-20T20:52:42Z</time>
      </trkpt>
      <trkpt lat="45.81048" lon="4.69448">
        <ele>297.79248046875</ele>
        <time>2017-04-20T20:52:44Z</time>
      </trkpt>
      <trkpt lat="45.81037" lon="4.69431">
        <ele>300.89126586914</ele>
        <time>2017-04-20T20:52:47Z</time>
      </trkpt>
      <trkpt lat="45.81034" lon="4.69428">
        <ele>301.76446533203</ele>
        <time>2017-04-20T20:52:51Z</time>
      </trkpt>
      <trkpt lat="45.81016" lon="4.6942">
        <ele>306.55960083008</ele>
        <time>2017-04-20T20:52:52Z</time>
      </trkpt>
      <trkpt lat="45.80985" lon="4.69403">
        <ele>310.38482666016</ele>
        <time>2017-04-20T20:52:57Z</time>
      </trkpt>
      <trkpt lat="45.80979" lon="4.69398">
        <ele>310.85913085938</ele>
        <time>2017-04-20T20:53:06Z</time>
      </trkpt>
      <trkpt lat="45.80975" lon="4.69391">
        <ele>312.08688354492</ele>
        <time>2017-04-20T20:53:08Z</time>
      </trkpt>
      <trkpt lat="45.80975" lon="4.69383">
        <ele>313.525390625</ele>
        <time>2017-04-20T20:53:10Z</time>
      </trkpt>
      <trkpt lat="45.80982" lon="4.69354">
        <ele>318.58016967773</ele>
        <time>2017-04-20T20:53:11Z</time>
      </trkpt>
      <trkpt lat="45.80984" lon="4.69335">
        <ele>320.82022094727</ele>
        <time>2017-04-20T20:53:17Z</time>
      </trkpt>
      <trkpt lat="45.81" lon="4.69242">
        <ele>319.69973754883</ele>
        <time>2017-04-20T20:53:21Z</time>
      </trkpt>
      <trkpt lat="45.81007" lon="4.69171">
        <ele>320.46697998047</ele>
        <time>2017-04-20T20:53:39Z</time>
      </trkpt>
      <trkpt lat="45.8101" lon="4.69161">
        <ele>319.82373046875</ele>
        <time>2017-04-20T20:53:52Z</time>
      </trkpt>
      <trkpt lat="45.81015" lon="4.69156">
        <ele>319.91445922852</ele>
        <time>2017-04-20T20:53:54Z</time>
      </trkpt>
      <trkpt lat="45.81024" lon="4.69152">
        <ele>319.94302368164</ele>
        <time>2017-04-20T20:53:56Z</time>
      </trkpt>
      <trkpt lat="45.81035" lon="4.69132">
        <ele>317.25109863281</ele>
        <time>2017-04-20T20:53:59Z</time>
      </trkpt>
      <trkpt lat="45.81076" lon="4.69075">
        <ele>312.11099243164</ele>
        <time>2017-04-20T20:54:04Z</time>
      </trkpt>
      <trkpt lat="45.81079" lon="4.69055">
        <ele>314.38754272461</ele>
        <time>2017-04-20T20:54:19Z</time>
      </trkpt>
      <trkpt lat="45.81082" lon="4.69009">
        <ele>315.92129516602</ele>
        <time>2017-04-20T20:54:23Z</time>
      </trkpt>
      <trkpt lat="45.81083" lon="4.68972">
        <ele>312.75527954102</ele>
        <time>2017-04-20T20:54:32Z</time>
      </trkpt>
      <trkpt lat="45.81082" lon="4.68929">
        <ele>311.48129272461</ele>
        <time>2017-04-20T20:54:39Z</time>
      </trkpt>
      <trkpt lat="45.81073" lon="4.68796">
        <ele>314.64410400391</ele>
        <time>2017-04-20T20:54:47Z</time>
      </trkpt>
      <trkpt lat="45.81073" lon="4.68766">
        <ele>314.86917114258</ele>
        <time>2017-04-20T20:55:12Z</time>
      </trkpt>
      <trkpt lat="45.81075" lon="4.68729">
        <ele>315.63296508789</ele>
        <time>2017-04-20T20:55:18Z</time>
      </trkpt>
      <trkpt lat="45.81086" lon="4.68635">
        <ele>318.15878295898</ele>
        <time>2017-04-20T20:55:25Z</time>
      </trkpt>
      <trkpt lat="45.81087" lon="4.6863">
        <ele>318.16058349609</ele>
        <time>2017-04-20T20:55:43Z</time>
      </trkpt>
      <trkpt lat="45.81087" lon="4.6863">
        <ele>318.16058349609</ele>
        <time>2017-04-20T20:55:44Z</time>
      </trkpt>
      <trkpt lat="45.81093" lon="4.68607">
        <ele>318.29281616211</ele>
        <time>2017-04-20T20:55:44Z</time>
      </trkpt>
      <trkpt lat="45.81098" lon="4.68567">
        <ele>318.5514831543</ele>
        <time>2017-04-20T20:55:49Z</time>
      </trkpt>
      <trkpt lat="45.81105" lon="4.68471">
        <ele>319.55743408203</ele>
        <time>2017-04-20T20:55:57Z</time>
      </trkpt>
      <trkpt lat="45.81105" lon="4.68431">
        <ele>320.26342773438</ele>
        <time>2017-04-20T20:56:15Z</time>
      </trkpt>
      <trkpt lat="45.81106" lon="4.68377">
        <ele>321.02709960938</ele>
        <time>2017-04-20T20:56:22Z</time>
      </trkpt>
      <trkpt lat="45.81112" lon="4.6833">
        <ele>321.38391113281</ele>
        <time>2017-04-20T20:56:32Z</time>
      </trkpt>
      <trkpt lat="45.81132" lon="4.68176">
        <ele>327.34896850586</ele>
        <time>2017-04-20T20:56:41Z</time>
      </trkpt>
      <trkpt lat="45.81135" lon="4.68167">
        <ele>327.7092590332</ele>
        <time>2017-04-20T20:57:10Z</time>
      </trkpt>
      <trkpt lat="45.81169" lon="4.68129">
        <ele>327.54904174805</ele>
        <time>2017-04-20T20:57:12Z</time>
      </trkpt>
      <trkpt lat="45.81222" lon="4.68059">
        <ele>330.16131591797</ele>
        <time>2017-04-20T20:57:24Z</time>
      </trkpt>
      <trkpt lat="45.81297" lon="4.6795">
        <ele>332.498046875</ele>
        <time>2017-04-20T20:57:43Z</time>
      </trkpt>
      <trkpt lat="45.81303" lon="4.67928">
        <ele>332.51351928711</ele>
        <time>2017-04-20T20:58:12Z</time>
      </trkpt>
      <trkpt lat="45.81306" lon="4.67872">
        <ele>334.99960327148</ele>
        <time>2017-04-20T20:58:16Z</time>
      </trkpt>
      <trkpt lat="45.81312" lon="4.67795">
        <ele>336.09042358398</ele>
        <time>2017-04-20T20:58:26Z</time>
      </trkpt>
      <trkpt lat="45.81322" lon="4.67739">
        <ele>335.97463989258</ele>
        <time>2017-04-20T20:58:40Z</time>
      </trkpt>
      <trkpt lat="45.81335" lon="4.67701">
        <ele>335.90707397461</ele>
        <time>2017-04-20T20:58:51Z</time>
      </trkpt>
      <trkpt lat="45.81358" lon="4.6763">
        <ele>334.58483886719</ele>
        <time>2017-04-20T20:58:59Z</time>
      </trkpt>
      <trkpt lat="45.81374" lon="4.67566">
        <ele>332.27365112305</ele>
        <time>2017-04-20T20:59:14Z</time>
      </trkpt>
      <trkpt lat="45.81389" lon="4.67521">
        <ele>330.58703613281</ele>
        <time>2017-04-20T20:59:27Z</time>
      </trkpt>
      <trkpt lat="45.81412" lon="4.67471">
        <ele>329.24673461914</ele>
        <time>2017-04-20T20:59:36Z</time>
      </trkpt>
      <trkpt lat="45.81432" lon="4.67435">
        <ele>326.8935546875</ele>
        <time>2017-04-20T20:59:47Z</time>
      </trkpt>
      <trkpt lat="45.8148" lon="4.67389">
        <ele>324.27243041992</ele>
        <time>2017-04-20T20:59:56Z</time>
      </trkpt>
      <trkpt lat="45.8148" lon="4.67385">
        <ele>324.15246582031</ele>
        <time>2017-04-20T21:00:11Z</time>
      </trkpt>
      <trkpt lat="45.8148" lon="4.67385">
        <ele>324.15246582031</ele>
        <time>2017-04-20T21:00:12Z</time>
      </trkpt>
      <trkpt lat="45.81477" lon="4.67355">
        <ele>323.73016357422</ele>
        <time>2017-04-20T21:00:12Z</time>
      </trkpt>
      <trkpt lat="45.81491" lon="4.67294">
        <ele>324.35174560547</ele>
        <time>2017-04-20T21:00:18Z</time>
      </trkpt>
      <trkpt lat="45.81491" lon="4.67281">
        <ele>324.36880493164</ele>
        <time>2017-04-20T21:00:30Z</time>
      </trkpt>
      <trkpt lat="45.81456" lon="4.67236">
        <ele>327.7444152832</ele>
        <time>2017-04-20T21:00:32Z</time>
      </trkpt>
      <trkpt lat="45.81409" lon="4.67174">
        <ele>329.56326293945</ele>
        <time>2017-04-20T21:00:45Z</time>
      </trkpt>
      <trkpt lat="45.81395" lon="4.67146">
        <ele>330.404296875</ele>
        <time>2017-04-20T21:01:02Z</time>
      </trkpt>
      <trkpt lat="45.81365" lon="4.67056">
        <ele>334.02499389648</ele>
        <time>2017-04-20T21:01:08Z</time>
      </trkpt>
      <trkpt lat="45.81332" lon="4.66965">
        <ele>340.31942749023</ele>
        <time>2017-04-20T21:01:27Z</time>
      </trkpt>
      <trkpt lat="45.81316" lon="4.66927">
        <ele>341.25616455078</ele>
        <time>2017-04-20T21:01:46Z</time>
      </trkpt>
      <trkpt lat="45.81313" lon="4.66924">
        <ele>341.44592285156</ele>
        <time>2017-04-20T21:01:54Z</time>
      </trkpt>
      <trkpt lat="45.81312" lon="4.66919">
        <ele>341.50601196289</ele>
        <time>2017-04-20T21:01:55Z</time>
      </trkpt>
      <trkpt lat="45.81304" lon="4.66897">
        <ele>341.79934692383</ele>
        <time>2017-04-20T21:01:56Z</time>
      </trkpt>
      <trkpt lat="45.81269" lon="4.66812">
        <ele>340.02310180664</ele>
        <time>2017-04-20T21:02:01Z</time>
      </trkpt>
      <trkpt lat="45.81226" lon="4.66714">
        <ele>335.28994750977</ele>
        <time>2017-04-20T21:02:19Z</time>
      </trkpt>
      <trkpt lat="45.81219" lon="4.66704">
        <ele>334.5446472168</ele>
        <time>2017-04-20T21:02:41Z</time>
      </trkpt>
      <trkpt lat="45.81123" lon="4.66667">
        <ele>339.55990600586</ele>
        <time>2017-04-20T21:02:44Z</time>
      </trkpt>
      <trkpt lat="45.8107" lon="4.66647">
        <ele>344.31408691406</ele>
        <time>2017-04-20T21:03:11Z</time>
      </trkpt>
      <trkpt lat="45.81061" lon="4.66646">
        <ele>344.74502563477</ele>
        <time>2017-04-20T21:03:26Z</time>
      </trkpt>
      <trkpt lat="45.81054" lon="4.66644">
        <ele>345.14749145508</ele>
        <time>2017-04-20T21:03:28Z</time>
      </trkpt>
      <trkpt lat="45.81053" lon="4.6665">
        <ele>345.51379394531</ele>
        <time>2017-04-20T21:03:30Z</time>
      </trkpt>
      <trkpt lat="45.8105" lon="4.66652">
        <ele>345.84005737305</ele>
        <time>2017-04-20T21:03:31Z</time>
      </trkpt>
      <trkpt lat="45.80974" lon="4.6666">
        <ele>351.2809753418</ele>
        <time>2017-04-20T21:03:32Z</time>
      </trkpt>
      <trkpt lat="45.80906" lon="4.66662">
        <ele>356.60131835938</ele>
        <time>2017-04-20T21:03:52Z</time>
      </trkpt>
      <trkpt lat="45.8088" lon="4.66677">
        <ele>359.30401611328</ele>
        <time>2017-04-20T21:04:10Z</time>
      </trkpt>
      <trkpt lat="45.80822" lon="4.66706">
        <ele>364.61129760742</ele>
        <time>2017-04-20T21:04:17Z</time>
      </trkpt>
      <trkpt lat="45.80797" lon="4.66724">
        <ele>367.53405761719</ele>
        <time>2017-04-20T21:04:33Z</time>
      </trkpt>
      <trkpt lat="45.80777" lon="4.66735">
        <ele>369.60256958008</ele>
        <time>2017-04-20T21:04:40Z</time>
      </trkpt>
      <trkpt lat="45.80764" lon="4.66735">
        <ele>371.41766357422</ele>
        <time>2017-04-20T21:04:46Z</time>
      </trkpt>
      <trkpt lat="45.80761" lon="4.66734">
        <ele>371.72808837891</ele>
        <time>2017-04-20T21:04:49Z</time>
      </trkpt>
      <trkpt lat="45.80765" lon="4.66746">
        <ele>371.48336791992</ele>
        <time>2017-04-20T21:04:50Z</time>
      </trkpt>
      <trkpt lat="45.80765" lon="4.66746">
        <ele>371.48336791992</ele>
        <time>2017-04-20T21:04:52Z</time>
      </trkpt>
      <trkpt lat="45.80761" lon="4.66734">
        <ele>371.72808837891</ele>
        <time>2017-04-20T21:04:52Z</time>
      </trkpt>
      <trkpt lat="45.80752" lon="4.66722">
        <ele>371.52096557617</ele>
        <time>2017-04-20T21:04:54Z</time>
      </trkpt>
      <trkpt lat="45.8074" lon="4.66677">
        <ele>369.71087646484</ele>
        <time>2017-04-20T21:04:57Z</time>
      </trkpt>
      <trkpt lat="45.80738" lon="4.66661">
        <ele>368.8063659668</ele>
        <time>2017-04-20T21:05:06Z</time>
      </trkpt>
      <trkpt lat="45.80739" lon="4.66649">
        <ele>368.45333862305</ele>
        <time>2017-04-20T21:05:09Z</time>
      </trkpt>
      <trkpt lat="45.8075" lon="4.66627">
        <ele>366.76937866211</ele>
        <time>2017-04-20T21:05:11Z</time>
      </trkpt>
      <trkpt lat="45.80778" lon="4.66583">
        <ele>365.8583984375</ele>
        <time>2017-04-20T21:05:16Z</time>
      </trkpt>
      <trkpt lat="45.80781" lon="4.66572">
        <ele>365.96817016602</ele>
        <time>2017-04-20T21:05:27Z</time>
      </trkpt>
      <trkpt lat="45.80783" lon="4.6654">
        <ele>366.0546875</ele>
        <time>2017-04-20T21:05:29Z</time>
      </trkpt>
      <trkpt lat="45.80784" lon="4.66454">
        <ele>366.30514526367</ele>
        <time>2017-04-20T21:05:35Z</time>
      </trkpt>
      <trkpt lat="45.8079" lon="4.66454">
        <ele>365.92037963867</ele>
        <time>2017-04-20T21:05:51Z</time>
      </trkpt>
      <trkpt lat="45.8079" lon="4.66442">
        <ele>365.55667114258</ele>
        <time>2017-04-20T21:05:53Z</time>
      </trkpt>
      <trkpt lat="45.80795" lon="4.6642">
        <ele>365.71951293945</ele>
        <time>2017-04-20T21:05:55Z</time>
      </trkpt>
      <trkpt lat="45.80842" lon="4.66283">
        <ele>359.30569458008</ele>
        <time>2017-04-20T21:05:59Z</time>
      </trkpt>
      <trkpt lat="45.80853" lon="4.66258">
        <ele>356.84268188477</ele>
        <time>2017-04-20T21:06:27Z</time>
      </trkpt>
      <trkpt lat="45.80857" lon="4.66252">
        <ele>356.20654296875</ele>
        <time>2017-04-20T21:06:33Z</time>
      </trkpt>
      <trkpt lat="45.80852" lon="4.66248">
        <ele>356.81030273438</ele>
        <time>2017-04-20T21:06:35Z</time>
      </trkpt>
      <trkpt lat="45.80852" lon="4.66238">
        <ele>356.87979125977</ele>
        <time>2017-04-20T21:06:37Z</time>
      </trkpt>
      <trkpt lat="45.80848" lon="4.66198">
        <ele>357.49087524414</ele>
        <time>2017-04-20T21:06:39Z</time>
      </trkpt>
      <trkpt lat="45.80847" lon="4.66124">
        <ele>355.62045288086</ele>
        <time>2017-04-20T21:06:47Z</time>
      </trkpt>
      <trkpt lat="45.80845" lon="4.6611">
        <ele>354.39996337891</ele>
        <time>2017-04-20T21:07:01Z</time>
      </trkpt>
      <trkpt lat="45.80847" lon="4.66061">
        <ele>352.4970703125</ele>
        <time>2017-04-20T21:07:04Z</time>
      </trkpt>
      <trkpt lat="45.80846" lon="4.65981">
        <ele>348.16384887695</ele>
        <time>2017-04-20T21:07:13Z</time>
      </trkpt>
      <trkpt lat="45.80837" lon="4.65916">
        <ele>345.89971923828</ele>
        <time>2017-04-20T21:07:28Z</time>
      </trkpt>
      <trkpt lat="45.80837" lon="4.65889">
        <ele>345.060546875</ele>
        <time>2017-04-20T21:07:40Z</time>
      </trkpt>
      <trkpt lat="45.80842" lon="4.65829">
        <ele>344.68728637695</ele>
        <time>2017-04-20T21:07:45Z</time>
      </trkpt>
      <trkpt lat="45.80832" lon="4.65802">
        <ele>346.03598022461</ele>
        <time>2017-04-20T21:07:56Z</time>
      </trkpt>
      <trkpt lat="45.80818" lon="4.6578">
        <ele>346.1845703125</ele>
        <time>2017-04-20T21:08:02Z</time>
      </trkpt>
      <trkpt lat="45.80814" lon="4.65773">
        <ele>346.21005249023</ele>
        <time>2017-04-20T21:08:08Z</time>
      </trkpt>
      <trkpt lat="45.80812" lon="4.65735">
        <ele>348.13864135742</ele>
        <time>2017-04-20T21:08:10Z</time>
      </trkpt>
      <trkpt lat="45.80813" lon="4.65582">
        <ele>356.46853637695</ele>
        <time>2017-04-20T21:08:17Z</time>
      </trkpt>
      <trkpt lat="45.80815" lon="4.65562">
        <ele>358.09146118164</ele>
        <time>2017-04-20T21:08:45Z</time>
      </trkpt>
      <trkpt lat="45.80824" lon="4.65535">
        <ele>358.21487426758</ele>
        <time>2017-04-20T21:08:49Z</time>
      </trkpt>
      <trkpt lat="45.80851" lon="4.6545">
        <ele>362.01000976562</ele>
        <time>2017-04-20T21:08:55Z</time>
      </trkpt>
      <trkpt lat="45.80882" lon="4.65322">
        <ele>360.3342590332</ele>
        <time>2017-04-20T21:09:12Z</time>
      </trkpt>
      <trkpt lat="45.80882" lon="4.65322">
        <ele>360.3342590332</ele>
        <time>2017-04-20T21:09:37Z</time>
      </trkpt>
      <trkpt lat="45.80884" lon="4.65313">
        <ele>360.48699951172</ele>
        <time>2017-04-20T21:09:37Z</time>
      </trkpt>
      <trkpt lat="45.80904" lon="4.65307">
        <ele>360.09451293945</ele>
        <time>2017-04-20T21:09:39Z</time>
      </trkpt>
      <trkpt lat="45.80944" lon="4.65286">
        <ele>357.70684814453</ele>
        <time>2017-04-20T21:09:44Z</time>
      </trkpt>
      <trkpt lat="45.80984" lon="4.65267">
        <ele>355.63186645508</ele>
        <time>2017-04-20T21:09:55Z</time>
      </trkpt>
      <trkpt lat="45.80994" lon="4.65267">
        <ele>355.58676147461</ele>
        <time>2017-04-20T21:10:06Z</time>
      </trkpt>
      <trkpt lat="45.81056" lon="4.65285">
        <ele>353.65356445312</ele>
        <time>2017-04-20T21:10:09Z</time>
      </trkpt>
      <trkpt lat="45.8107" lon="4.65293">
        <ele>353.23062133789</ele>
        <time>2017-04-20T21:10:26Z</time>
      </trkpt>
      <trkpt lat="45.81087" lon="4.65308">
        <ele>351.52005004883</ele>
        <time>2017-04-20T21:10:30Z</time>
      </trkpt>
      <trkpt lat="45.81148" lon="4.65371">
        <ele>343.11111450195</ele>
        <time>2017-04-20T21:10:35Z</time>
      </trkpt>
      <trkpt lat="45.81221" lon="4.6544">
        <ele>334.27093505859</ele>
        <time>2017-04-20T21:10:55Z</time>
      </trkpt>
      <trkpt lat="45.81246" lon="4.6546">
        <ele>331.04818725586</ele>
        <time>2017-04-20T21:11:18Z</time>
      </trkpt>
      <trkpt lat="45.81288" lon="4.65486">
        <ele>325.13394165039</ele>
        <time>2017-04-20T21:11:26Z</time>
      </trkpt>
      <trkpt lat="45.81366" lon="4.65537">
        <ele>315.47882080078</ele>
        <time>2017-04-20T21:11:38Z</time>
      </trkpt>
      <trkpt lat="45.81381" lon="4.6555">
        <ele>313.12911987305</ele>
        <time>2017-04-20T21:12:01Z</time>
      </trkpt>
      <trkpt lat="45.81398" lon="4.6551">
        <ele>313.36245727539</ele>
        <time>2017-04-20T21:12:06Z</time>
      </trkpt>
      <trkpt lat="45.81402" lon="4.65484">
        <ele>314.30462646484</ele>
        <time>2017-04-20T21:12:15Z</time>
      </trkpt>
      <trkpt lat="45.81398" lon="4.65458">
        <ele>315.38711547852</ele>
        <time>2017-04-20T21:12:20Z</time>
      </trkpt>
      <trkpt lat="45.81368" lon="4.65309">
        <ele>318.35501098633</ele>
        <time>2017-04-20T21:12:25Z</time>
      </trkpt>
      <trkpt lat="45.81364" lon="4.6529">
        <ele>317.9508972168</ele>
        <time>2017-04-20T21:12:54Z</time>
      </trkpt>
      <trkpt lat="45.81354" lon="4.65284">
        <ele>318.74499511719</ele>
        <time>2017-04-20T21:12:58Z</time>
      </trkpt>
      <trkpt lat="45.81322" lon="4.65254">
        <ele>321.7795715332</ele>
        <time>2017-04-20T21:13:01Z</time>
      </trkpt>
      <trkpt lat="45.81316" lon="4.65245">
        <ele>321.67953491211</ele>
        <time>2017-04-20T21:13:11Z</time>
      </trkpt>
      <trkpt lat="45.81316" lon="4.65245">
        <ele>321.67953491211</ele>
        <time>2017-04-20T21:13:13Z</time>
      </trkpt>
      <trkpt lat="45.81298" lon="4.65215">
        <ele>321.52633666992</ele>
        <time>2017-04-20T21:13:13Z</time>
      </trkpt>
      <trkpt lat="45.81252" lon="4.65147">
        <ele>321.55053710938</ele>
        <time>2017-04-20T21:13:20Z</time>
      </trkpt>
      <trkpt lat="45.81183" lon="4.65048">
        <ele>324.99572753906</ele>
        <time>2017-04-20T21:13:38Z</time>
      </trkpt>
      <trkpt lat="45.81178" lon="4.65034">
        <ele>325.28637695312</ele>
        <time>2017-04-20T21:14:04Z</time>
      </trkpt>
      <trkpt lat="45.81158" lon="4.64993">
        <ele>324.66851806641</ele>
        <time>2017-04-20T21:14:07Z</time>
      </trkpt>
      <trkpt lat="45.81158" lon="4.64966">
        <ele>324.29232788086</ele>
        <time>2017-04-20T21:14:16Z</time>
      </trkpt>
      <trkpt lat="45.81156" lon="4.64956">
        <ele>324.6296081543</ele>
        <time>2017-04-20T21:14:21Z</time>
      </trkpt>
      <trkpt lat="45.81141" lon="4.64923">
        <ele>326.95022583008</ele>
        <time>2017-04-20T21:14:23Z</time>
      </trkpt>
      <trkpt lat="45.81136" lon="4.64898">
        <ele>329.35250854492</ele>
        <time>2017-04-20T21:14:30Z</time>
      </trkpt>
      <trkpt lat="45.81116" lon="4.64818">
        <ele>334.3821105957</ele>
        <time>2017-04-20T21:14:35Z</time>
      </trkpt>
      <trkpt lat="45.81102" lon="4.64783">
        <ele>337.5341796875</ele>
        <time>2017-04-20T21:14:51Z</time>
      </trkpt>
      <trkpt lat="45.81067" lon="4.64725">
        <ele>340.36819458008</ele>
        <time>2017-04-20T21:14:59Z</time>
      </trkpt>
      <trkpt lat="45.81029" lon="4.64671">
        <ele>343.59057617188</ele>
        <time>2017-04-20T21:15:13Z</time>
      </trkpt>
      <trkpt lat="45.8098" lon="4.64596">
        <ele>349.71508789062</ele>
        <time>2017-04-20T21:15:27Z</time>
      </trkpt>
      <trkpt lat="45.80952" lon="4.64568">
        <ele>353.54641723633</ele>
        <time>2017-04-20T21:15:46Z</time>
      </trkpt>
      <trkpt lat="45.80939" lon="4.64555">
        <ele>354.93463134766</ele>
        <time>2017-04-20T21:15:55Z</time>
      </trkpt>
      <trkpt lat="45.80932" lon="4.64544">
        <ele>356.41162109375</ele>
        <time>2017-04-20T21:15:59Z</time>
      </trkpt>
      <trkpt lat="45.80916" lon="4.64514">
        <ele>358.09976196289</ele>
        <time>2017-04-20T21:16:02Z</time>
      </trkpt>
      <trkpt lat="45.80915" lon="4.64512">
        <ele>358.21884155273</ele>
        <time>2017-04-20T21:16:09Z</time>
      </trkpt>
      <trkpt lat="45.80909" lon="4.64493">
        <ele>359.20288085938</ele>
        <time>2017-04-20T21:16:09Z</time>
      </trkpt>
      <trkpt lat="45.8091" lon="4.64481">
        <ele>359.84426879883</ele>
        <time>2017-04-20T21:16:13Z</time>
      </trkpt>
      <trkpt lat="45.80926" lon="4.6443">
        <ele>361.67709350586</ele>
        <time>2017-04-20T21:16:15Z</time>
      </trkpt>
      <trkpt lat="45.8096" lon="4.64353">
        <ele>368.40863037109</ele>
        <time>2017-04-20T21:16:25Z</time>
      </trkpt>
      <trkpt lat="45.80977" lon="4.64318">
        <ele>371.71994018555</ele>
        <time>2017-04-20T21:16:42Z</time>
      </trkpt>
      <trkpt lat="45.80994" lon="4.64291">
        <ele>373.50311279297</ele>
        <time>2017-04-20T21:16:50Z</time>
      </trkpt>
      <trkpt lat="45.81025" lon="4.64247">
        <ele>377.37103271484</ele>
        <time>2017-04-20T21:16:57Z</time>
      </trkpt>
      <trkpt lat="45.81034" lon="4.6423">
        <ele>379.55337524414</ele>
        <time>2017-04-20T21:17:09Z</time>
      </trkpt>
      <trkpt lat="45.81036" lon="4.64219">
        <ele>380.64047241211</ele>
        <time>2017-04-20T21:17:13Z</time>
      </trkpt>
      <trkpt lat="45.81025" lon="4.64148">
        <ele>388.11871337891</ele>
        <time>2017-04-20T21:17:15Z</time>
      </trkpt>
      <trkpt lat="45.81023" lon="4.6414">
        <ele>390.19897460938</ele>
        <time>2017-04-20T21:17:29Z</time>
      </trkpt>
      <trkpt lat="45.80997" lon="4.64117">
        <ele>392.3620300293</ele>
        <time>2017-04-20T21:17:31Z</time>
      </trkpt>
      <trkpt lat="45.8106" lon="4.6397">
        <ele>390.37713623047</ele>
        <time>2017-04-20T21:17:39Z</time>
      </trkpt>
      <trkpt lat="45.81087" lon="4.63912">
        <ele>387.49533081055</ele>
        <time>2017-04-20T21:18:11Z</time>
      </trkpt>
      <trkpt lat="45.81106" lon="4.63887">
        <ele>387.26852416992</ele>
        <time>2017-04-20T21:18:24Z</time>
      </trkpt>
      <trkpt lat="45.81144" lon="4.63861">
        <ele>386.89965820312</ele>
        <time>2017-04-20T21:18:31Z</time>
      </trkpt>
      <trkpt lat="45.81164" lon="4.63852">
        <ele>386.52941894531</ele>
        <time>2017-04-20T21:18:42Z</time>
      </trkpt>
      <trkpt lat="45.81178" lon="4.63855">
        <ele>385.99111938477</ele>
        <time>2017-04-20T21:18:48Z</time>
      </trkpt>
      <trkpt lat="45.81189" lon="4.63861">
        <ele>385.81079101562</ele>
        <time>2017-04-20T21:18:52Z</time>
      </trkpt>
      <trkpt lat="45.81282" lon="4.63945">
        <ele>387.57693481445</ele>
        <time>2017-04-20T21:18:55Z</time>
      </trkpt>
      <trkpt lat="45.81316" lon="4.63973">
        <ele>390.45904541016</ele>
        <time>2017-04-20T21:19:24Z</time>
      </trkpt>
      <trkpt lat="45.81343" lon="4.63989">
        <ele>390.38061523438</ele>
        <time>2017-04-20T21:19:34Z</time>
      </trkpt>
      <trkpt lat="45.81345" lon="4.63987">
        <ele>390.60525512695</ele>
        <time>2017-04-20T21:19:42Z</time>
      </trkpt>
      <trkpt lat="45.81351" lon="4.63987">
        <ele>390.79211425781</ele>
        <time>2017-04-20T21:19:43Z</time>
      </trkpt>
      <trkpt lat="45.81373" lon="4.63996">
        <ele>390.81536865234</ele>
        <time>2017-04-20T21:19:45Z</time>
      </trkpt>
      <trkpt lat="45.81385" lon="4.63995">
        <ele>391.15158081055</ele>
        <time>2017-04-20T21:19:51Z</time>
      </trkpt>
      <trkpt lat="45.81391" lon="4.63982">
        <ele>393.31338500977</ele>
        <time>2017-04-20T21:19:54Z</time>
      </trkpt>
      <trkpt lat="45.81414" lon="4.63932">
        <ele>396.6911315918</ele>
        <time>2017-04-20T21:19:57Z</time>
      </trkpt>
      <trkpt lat="45.8142" lon="4.63894">
        <ele>403.20343017578</ele>
        <time>2017-04-20T21:20:08Z</time>
      </trkpt>
      <trkpt lat="45.8142" lon="4.63878">
        <ele>405.43701171875</ele>
        <time>2017-04-20T21:20:15Z</time>
      </trkpt>
      <trkpt lat="45.81417" lon="4.63874">
        <ele>405.60504150391</ele>
        <time>2017-04-20T21:20:18Z</time>
      </trkpt>
      <trkpt lat="45.814" lon="4.6387">
        <ele>406.50241088867</ele>
        <time>2017-04-20T21:20:19Z</time>
      </trkpt>
      <trkpt lat="45.81374" lon="4.63866">
        <ele>408.94549560547</ele>
        <time>2017-04-20T21:20:24Z</time>
      </trkpt>
      <trkpt lat="45.81369" lon="4.63862">
        <ele>409.42840576172</ele>
        <time>2017-04-20T21:20:31Z</time>
      </trkpt>
      <trkpt lat="45.81366" lon="4.63858">
        <ele>410.181640625</ele>
        <time>2017-04-20T21:20:33Z</time>
      </trkpt>
      <trkpt lat="45.81365" lon="4.63852">
        <ele>411.3388671875</ele>
        <time>2017-04-20T21:20:34Z</time>
      </trkpt>
      <trkpt lat="45.81359" lon="4.63851">
        <ele>411.6823425293</ele>
        <time>2017-04-20T21:20:35Z</time>
      </trkpt>
      <trkpt lat="45.81357" lon="4.63849">
        <ele>412.04135131836</ele>
        <time>2017-04-20T21:20:37Z</time>
      </trkpt>
      <trkpt lat="45.81357" lon="4.63849">
        <ele>412.04135131836</ele>
        <time>2017-04-20T21:20:38Z</time>
      </trkpt>
      <trkpt lat="45.81365" lon="4.63852">
        <ele>411.3388671875</ele>
        <time>2017-04-20T21:20:38Z</time>
      </trkpt>
      <trkpt lat="45.81367" lon="4.63848">
        <ele>412.01733398438</ele>
        <time>2017-04-20T21:20:40Z</time>
      </trkpt>
      <trkpt lat="45.81386" lon="4.63832">
        <ele>412.15798950195</ele>
        <time>2017-04-20T21:20:41Z</time>
      </trkpt>
      <trkpt lat="45.81412" lon="4.63808">
        <ele>415.20553588867</ele>
        <time>2017-04-20T21:20:47Z</time>
      </trkpt>
      <trkpt lat="45.81421" lon="4.63806">
        <ele>415.87594604492</ele>
        <time>2017-04-20T21:20:55Z</time>
      </trkpt>
      <trkpt lat="45.81435" lon="4.63811">
        <ele>415.4997253418</ele>
        <time>2017-04-20T21:20:57Z</time>
      </trkpt>
      <trkpt lat="45.81446" lon="4.63797">
        <ele>418.11929321289</ele>
        <time>2017-04-20T21:21:01Z</time>
      </trkpt>
      <trkpt lat="45.8146" lon="4.6379">
        <ele>419.58267211914</ele>
        <time>2017-04-20T21:21:05Z</time>
      </trkpt>
      <trkpt lat="45.81512" lon="4.63777">
        <ele>425.21463012695</ele>
        <time>2017-04-20T21:21:09Z</time>
      </trkpt>
      <trkpt lat="45.81576" lon="4.63766">
        <ele>432.59313964844</ele>
        <time>2017-04-20T21:21:23Z</time>
      </trkpt>
      <trkpt lat="45.81618" lon="4.63762">
        <ele>437.45916748047</ele>
        <time>2017-04-20T21:21:40Z</time>
      </trkpt>
      <trkpt lat="45.81637" lon="4.63755">
        <ele>439.77157592773</ele>
        <time>2017-04-20T21:21:51Z</time>
      </trkpt>
      <trkpt lat="45.81648" lon="4.63749">
        <ele>439.26974487305</ele>
        <time>2017-04-20T21:21:56Z</time>
      </trkpt>
      <trkpt lat="45.81656" lon="4.63741">
        <ele>439.64794921875</ele>
        <time>2017-04-20T21:21:59Z</time>
      </trkpt>
      <trkpt lat="45.81693" lon="4.63699">
        <ele>438.30960083008</ele>
        <time>2017-04-20T21:22:02Z</time>
      </trkpt>
      <trkpt lat="45.81748" lon="4.63628">
        <ele>430.84780883789</ele>
        <time>2017-04-20T21:22:15Z</time>
      </trkpt>
      <trkpt lat="45.81787" lon="4.63581">
        <ele>421.54318237305</ele>
        <time>2017-04-20T21:22:35Z</time>
      </trkpt>
      <trkpt lat="45.81787" lon="4.63581">
        <ele>421.54318237305</ele>
        <time>2017-04-20T21:22:49Z</time>
      </trkpt>
      <trkpt lat="45.81791" lon="4.63578">
        <ele>420.61737060547</ele>
        <time>2017-04-20T21:22:49Z</time>
      </trkpt>
      <trkpt lat="45.81796" lon="4.63578">
        <ele>419.63427734375</ele>
        <time>2017-04-20T21:22:50Z</time>
      </trkpt>
      <trkpt lat="45.818" lon="4.63588">
        <ele>419.62075805664</ele>
        <time>2017-04-20T21:22:51Z</time>
      </trkpt>
      <trkpt lat="45.81819" lon="4.63638">
        <ele>419.82095336914</ele>
        <time>2017-04-20T21:22:53Z</time>
      </trkpt>
      <trkpt lat="45.81863" lon="4.63746">
        <ele>421.5380859375</ele>
        <time>2017-04-20T21:23:04Z</time>
      </trkpt>
      <trkpt lat="45.81879" lon="4.63781">
        <ele>421.53280639648</ele>
        <time>2017-04-20T21:23:27Z</time>
      </trkpt>
      <trkpt lat="45.81909" lon="4.63834">
        <ele>419.4992980957</ele>
        <time>2017-04-20T21:23:35Z</time>
      </trkpt>
      <trkpt lat="45.81918" lon="4.63846">
        <ele>418.45733642578</ele>
        <time>2017-04-20T21:23:48Z</time>
      </trkpt>
      <trkpt lat="45.81933" lon="4.63875">
        <ele>417.36059570312</ele>
        <time>2017-04-20T21:23:51Z</time>
      </trkpt>
      <trkpt lat="45.81942" lon="4.63901">
        <ele>416.60531616211</ele>
        <time>2017-04-20T21:23:58Z</time>
      </trkpt>
      <trkpt lat="45.81955" lon="4.6396">
        <ele>414.94284057617</ele>
        <time>2017-04-20T21:24:03Z</time>
      </trkpt>
      <trkpt lat="45.81957" lon="4.63988">
        <ele>413.27880859375</ele>
        <time>2017-04-20T21:24:15Z</time>
      </trkpt>
      <trkpt lat="45.81958" lon="4.64059">
        <ele>408.51342773438</ele>
        <time>2017-04-20T21:24:20Z</time>
      </trkpt>
      <trkpt lat="45.81955" lon="4.64116">
        <ele>405.48870849609</ele>
        <time>2017-04-20T21:24:33Z</time>
      </trkpt>
      <trkpt lat="45.81944" lon="4.64139">
        <ele>404.02938842773</ele>
        <time>2017-04-20T21:24:44Z</time>
      </trkpt>
      <trkpt lat="45.81939" lon="4.64159">
        <ele>401.50500488281</ele>
        <time>2017-04-20T21:24:49Z</time>
      </trkpt>
      <trkpt lat="45.81939" lon="4.64164">
        <ele>400.50872802734</ele>
        <time>2017-04-20T21:24:53Z</time>
      </trkpt>
      <trkpt lat="45.81939" lon="4.64169">
        <ele>399.60452270508</ele>
        <time>2017-04-20T21:24:54Z</time>
      </trkpt>
      <trkpt lat="45.81947" lon="4.64152">
        <ele>400.81909179688</ele>
        <time>2017-04-20T21:24:55Z</time>
      </trkpt>
      <trkpt lat="45.81969" lon="4.6412">
        <ele>400.6350402832</ele>
        <time>2017-04-20T21:24:59Z</time>
      </trkpt>
      <trkpt lat="45.82012" lon="4.64057">
        <ele>399.94018554688</ele>
        <time>2017-04-20T21:25:07Z</time>
      </trkpt>
      <trkpt lat="45.82036" lon="4.64014">
        <ele>400.18453979492</ele>
        <time>2017-04-20T21:25:23Z</time>
      </trkpt>
      <trkpt lat="45.82052" lon="4.63977">
        <ele>399.40093994141</ele>
        <time>2017-04-20T21:25:33Z</time>
      </trkpt>
      <trkpt lat="45.8206" lon="4.63948">
        <ele>398.82702636719</ele>
        <time>2017-04-20T21:25:41Z</time>
      </trkpt>
      <trkpt lat="45.82067" lon="4.63907">
        <ele>398.26947021484</ele>
        <time>2017-04-20T21:25:47Z</time>
      </trkpt>
      <trkpt lat="45.82072" lon="4.63869">
        <ele>397.50393676758</ele>
        <time>2017-04-20T21:25:55Z</time>
      </trkpt>
      <trkpt lat="45.8207" lon="4.6383">
        <ele>396.53591918945</ele>
        <time>2017-04-20T21:26:02Z</time>
      </trkpt>
      <trkpt lat="45.82057" lon="4.63775">
        <ele>395.93106079102</ele>
        <time>2017-04-20T21:26:09Z</time>
      </trkpt>
      <trkpt lat="45.82044" lon="4.63713">
        <ele>392.95468139648</ele>
        <time>2017-04-20T21:26:20Z</time>
      </trkpt>
      <trkpt lat="45.82036" lon="4.63617">
        <ele>388.21881103516</ele>
        <time>2017-04-20T21:26:32Z</time>
      </trkpt>
      <trkpt lat="45.82024" lon="4.63552">
        <ele>383.92935180664</ele>
        <time>2017-04-20T21:26:50Z</time>
      </trkpt>
      <trkpt lat="45.82011" lon="4.6349">
        <ele>380.33715820312</ele>
        <time>2017-04-20T21:27:03Z</time>
      </trkpt>
      <trkpt lat="45.82008" lon="4.63463">
        <ele>378.14837646484</ele>
        <time>2017-04-20T21:27:15Z</time>
      </trkpt>
      <trkpt lat="45.82011" lon="4.63412">
        <ele>376.98883056641</ele>
        <time>2017-04-20T21:27:20Z</time>
      </trkpt>
      <trkpt lat="45.8202" lon="4.63357">
        <ele>377.24319458008</ele>
        <time>2017-04-20T21:27:30Z</time>
      </trkpt>
      <trkpt lat="45.82029" lon="4.63333">
        <ele>377.17544555664</ele>
        <time>2017-04-20T21:27:41Z</time>
      </trkpt>
      <trkpt lat="45.8204" lon="4.63315">
        <ele>377.55429077148</ele>
        <time>2017-04-20T21:27:46Z</time>
      </trkpt>
      <trkpt lat="45.82048" lon="4.63307">
        <ele>377.62194824219</ele>
        <time>2017-04-20T21:27:50Z</time>
      </trkpt>
      <trkpt lat="45.82066" lon="4.63296">
        <ele>377.93280029297</ele>
        <time>2017-04-20T21:27:53Z</time>
      </trkpt>
      <trkpt lat="45.82095" lon="4.63286">
        <ele>378.10848999023</ele>
        <time>2017-04-20T21:27:58Z</time>
      </trkpt>
      <trkpt lat="45.82114" lon="4.63278">
        <ele>377.79867553711</ele>
        <time>2017-04-20T21:28:06Z</time>
      </trkpt>
      <trkpt lat="45.82125" lon="4.63269">
        <ele>378.14733886719</ele>
        <time>2017-04-20T21:28:11Z</time>
      </trkpt>
      <trkpt lat="45.82147" lon="4.63252">
        <ele>377.58651733398</ele>
        <time>2017-04-20T21:28:14Z</time>
      </trkpt>
      <trkpt lat="45.82171" lon="4.63225">
        <ele>376.86141967773</ele>
        <time>2017-04-20T21:28:21Z</time>
      </trkpt>
      <trkpt lat="45.82179" lon="4.63211">
        <ele>376.87622070312</ele>
        <time>2017-04-20T21:28:29Z</time>
      </trkpt>
      <trkpt lat="45.82188" lon="4.63189">
        <ele>377.06588745117</ele>
        <time>2017-04-20T21:28:32Z</time>
      </trkpt>
      <trkpt lat="45.82195" lon="4.6316">
        <ele>377.58636474609</ele>
        <time>2017-04-20T21:28:37Z</time>
      </trkpt>
      <trkpt lat="45.82199" lon="4.63134">
        <ele>378.34390258789</ele>
        <time>2017-04-20T21:28:43Z</time>
      </trkpt>
      <trkpt lat="45.82209" lon="4.63093">
        <ele>379.1435546875</ele>
        <time>2017-04-20T21:28:48Z</time>
      </trkpt>
      <trkpt lat="45.82214" lon="4.63078">
        <ele>378.99951171875</ele>
        <time>2017-04-20T21:28:56Z</time>
      </trkpt>
      <trkpt lat="45.82212" lon="4.63052">
        <ele>380.46957397461</ele>
        <time>2017-04-20T21:28:59Z</time>
      </trkpt>
      <trkpt lat="45.82214" lon="4.63032">
        <ele>381.33032226562</ele>
        <time>2017-04-20T21:29:04Z</time>
      </trkpt>
      <trkpt lat="45.8223" lon="4.62951">
        <ele>383.93417358398</ele>
        <time>2017-04-20T21:29:08Z</time>
      </trkpt>
      <trkpt lat="45.8224" lon="4.62883">
        <ele>383.65014648438</ele>
        <time>2017-04-20T21:29:24Z</time>
      </trkpt>
      <trkpt lat="45.82238" lon="4.62865">
        <ele>383.68927001953</ele>
        <time>2017-04-20T21:29:37Z</time>
      </trkpt>
      <trkpt lat="45.82237" lon="4.62864">
        <ele>383.78540039062</ele>
        <time>2017-04-20T21:29:40Z</time>
      </trkpt>
      <trkpt lat="45.82242" lon="4.62864">
        <ele>383.35455322266</ele>
        <time>2017-04-20T21:29:40Z</time>
      </trkpt>
      <trkpt lat="45.8225" lon="4.62825">
        <ele>381.373046875</ele>
        <time>2017-04-20T21:29:41Z</time>
      </trkpt>
      <trkpt lat="45.82262" lon="4.62727">
        <ele>376.46755981445</ele>
        <time>2017-04-20T21:29:49Z</time>
      </trkpt>
      <trkpt lat="45.82266" lon="4.62672">
        <ele>374.0419921875</ele>
        <time>2017-04-20T21:30:08Z</time>
      </trkpt>
      <trkpt lat="45.82264" lon="4.62644">
        <ele>373.7018737793</ele>
        <time>2017-04-20T21:30:18Z</time>
      </trkpt>
      <trkpt lat="45.8226" lon="4.62623">
        <ele>373.72894287109</ele>
        <time>2017-04-20T21:30:23Z</time>
      </trkpt>
      <trkpt lat="45.82251" lon="4.62604">
        <ele>372.89349365234</ele>
        <time>2017-04-20T21:30:27Z</time>
      </trkpt>
      <trkpt lat="45.82243" lon="4.62594">
        <ele>371.81781005859</ele>
        <time>2017-04-20T21:30:31Z</time>
      </trkpt>
      <trkpt lat="45.82234" lon="4.62587">
        <ele>370.98281860352</ele>
        <time>2017-04-20T21:30:34Z</time>
      </trkpt>
      <trkpt lat="45.82213" lon="4.62575">
        <ele>370.25476074219</ele>
        <time>2017-04-20T21:30:37Z</time>
      </trkpt>
      <trkpt lat="45.82206" lon="4.62562">
        <ele>369.22305297852</ele>
        <time>2017-04-20T21:30:43Z</time>
      </trkpt>
      <trkpt lat="45.82205" lon="4.62556">
        <ele>368.79949951172</ele>
        <time>2017-04-20T21:30:46Z</time>
      </trkpt>
      <trkpt lat="45.82208" lon="4.62539">
        <ele>366.29553222656</ele>
        <time>2017-04-20T21:30:47Z</time>
      </trkpt>
      <trkpt lat="45.82215" lon="4.62507">
        <ele>363.87161254883</ele>
        <time>2017-04-20T21:30:50Z</time>
      </trkpt>
      <trkpt lat="45.82209" lon="4.62444">
        <ele>361.69534301758</ele>
        <time>2017-04-20T21:30:56Z</time>
      </trkpt>
      <trkpt lat="45.82201" lon="4.62425">
        <ele>361.67211914062</ele>
        <time>2017-04-20T21:31:08Z</time>
      </trkpt>
      <trkpt lat="45.82179" lon="4.6239">
        <ele>362.62704467773</ele>
        <time>2017-04-20T21:31:12Z</time>
      </trkpt>
      <trkpt lat="45.82176" lon="4.6239">
        <ele>362.94732666016</ele>
        <time>2017-04-20T21:31:21Z</time>
      </trkpt>
      <trkpt lat="45.82154" lon="4.62377">
        <ele>365.68447875977</ele>
        <time>2017-04-20T21:31:22Z</time>
      </trkpt>
      <trkpt lat="45.8186" lon="4.62262">
        <ele>379.01229858398</ele>
        <time>2017-04-20T21:31:28Z</time>
      </trkpt>
      <trkpt lat="45.81826" lon="4.62245">
        <ele>381.11917114258</ele>
        <time>2017-04-20T21:32:49Z</time>
      </trkpt>
      <trkpt lat="45.81808" lon="4.62233">
        <ele>382.51797485352</ele>
        <time>2017-04-20T21:32:59Z</time>
      </trkpt>
      <trkpt lat="45.81789" lon="4.62216">
        <ele>385.23880004883</ele>
        <time>2017-04-20T21:33:04Z</time>
      </trkpt>
      <trkpt lat="45.81777" lon="4.62201">
        <ele>386.70272827148</ele>
        <time>2017-04-20T21:33:10Z</time>
      </trkpt>
      <trkpt lat="45.81771" lon="4.62189">
        <ele>387.3401184082</ele>
        <time>2017-04-20T21:33:14Z</time>
      </trkpt>
      <trkpt lat="45.81767" lon="4.62163">
        <ele>388.39181518555</ele>
        <time>2017-04-20T21:33:17Z</time>
      </trkpt>
      <trkpt lat="45.81768" lon="4.62128">
        <ele>390.60971069336</ele>
        <time>2017-04-20T21:33:22Z</time>
      </trkpt>
      <trkpt lat="45.81768" lon="4.62128">
        <ele>390.60971069336</ele>
        <time>2017-04-20T21:33:29Z</time>
      </trkpt>
      <trkpt lat="45.81767" lon="4.62144">
        <ele>389.35211181641</ele>
        <time>2017-04-20T21:33:29Z</time>
      </trkpt>
      <trkpt lat="45.81775" lon="4.62124">
        <ele>390.19171142578</ele>
        <time>2017-04-20T21:33:32Z</time>
      </trkpt>
      <trkpt lat="45.81785" lon="4.62103">
        <ele>393.0237121582</ele>
        <time>2017-04-20T21:33:36Z</time>
      </trkpt>
      <trkpt lat="45.81871" lon="4.62001">
        <ele>391.435546875</ele>
        <time>2017-04-20T21:33:41Z</time>
      </trkpt>
      <trkpt lat="45.81875" lon="4.61995">
        <ele>390.82421875</ele>
        <time>2017-04-20T21:34:11Z</time>
      </trkpt>
      <trkpt lat="45.81898" lon="4.61928">
        <ele>393.14184570312</ele>
        <time>2017-04-20T21:34:13Z</time>
      </trkpt>
      <trkpt lat="45.81899" lon="4.61916">
        <ele>394.08865356445</ele>
        <time>2017-04-20T21:34:27Z</time>
      </trkpt>
      <trkpt lat="45.81899" lon="4.61847">
        <ele>385.7470703125</ele>
        <time>2017-04-20T21:34:29Z</time>
      </trkpt>
      <trkpt lat="45.81897" lon="4.61812">
        <ele>382.28518676758</ele>
        <time>2017-04-20T21:34:42Z</time>
      </trkpt>
      <trkpt lat="45.8189" lon="4.61759">
        <ele>378.95623779297</ele>
        <time>2017-04-20T21:34:49Z</time>
      </trkpt>
      <trkpt lat="45.81885" lon="4.61722">
        <ele>378.72073364258</ele>
        <time>2017-04-20T21:34:59Z</time>
      </trkpt>
      <trkpt lat="45.81887" lon="4.61706">
        <ele>377.64926147461</ele>
        <time>2017-04-20T21:35:06Z</time>
      </trkpt>
      <trkpt lat="45.81887" lon="4.61625">
        <ele>372.72653198242</ele>
        <time>2017-04-20T21:35:09Z</time>
      </trkpt>
      <trkpt lat="45.81889" lon="4.61614">
        <ele>371.90979003906</ele>
        <time>2017-04-20T21:35:24Z</time>
      </trkpt>
      <trkpt lat="45.81893" lon="4.61606">
        <ele>370.90277099609</ele>
        <time>2017-04-20T21:35:26Z</time>
      </trkpt>
      <trkpt lat="45.81906" lon="4.61602">
        <ele>366.3313293457</ele>
        <time>2017-04-20T21:35:28Z</time>
      </trkpt>
      <trkpt lat="45.81935" lon="4.61605">
        <ele>371.75277709961</ele>
        <time>2017-04-20T21:35:32Z</time>
      </trkpt>
      <trkpt lat="45.81939" lon="4.6161">
        <ele>371.77984619141</ele>
        <time>2017-04-20T21:35:40Z</time>
      </trkpt>
      <trkpt lat="45.81951" lon="4.61651">
        <ele>374.03308105469</ele>
        <time>2017-04-20T21:35:41Z</time>
      </trkpt>
      <trkpt lat="45.81955" lon="4.61681">
        <ele>375.23831176758</ele>
        <time>2017-04-20T21:35:49Z</time>
      </trkpt>
      <trkpt lat="45.81956" lon="4.61718">
        <ele>373.76159667969</ele>
        <time>2017-04-20T21:35:55Z</time>
      </trkpt>
      <trkpt lat="45.81958" lon="4.61765">
        <ele>371.28796386719</ele>
        <time>2017-04-20T21:36:02Z</time>
      </trkpt>
      <trkpt lat="45.81954" lon="4.61787">
        <ele>374.3678894043</ele>
        <time>2017-04-20T21:36:11Z</time>
      </trkpt>
      <trkpt lat="45.81975" lon="4.61837">
        <ele>374.03662109375</ele>
        <time>2017-04-20T21:36:15Z</time>
      </trkpt>
      <trkpt lat="45.81983" lon="4.61893">
        <ele>370.29989624023</ele>
        <time>2017-04-20T21:36:26Z</time>
      </trkpt>
      <trkpt lat="45.82008" lon="4.62008">
        <ele>356.06951904297</ele>
        <time>2017-04-20T21:36:37Z</time>
      </trkpt>
      <trkpt lat="45.82008" lon="4.62024">
        <ele>355.86395263672</ele>
        <time>2017-04-20T21:36:59Z</time>
      </trkpt>
      <trkpt lat="45.82006" lon="4.62037">
        <ele>356.74667358398</ele>
        <time>2017-04-20T21:37:02Z</time>
      </trkpt>
      <trkpt lat="45.82005" lon="4.62045">
        <ele>356.68991088867</ele>
        <time>2017-04-20T21:37:04Z</time>
      </trkpt>
      <trkpt lat="45.82008" lon="4.62044">
        <ele>355.30926513672</ele>
        <time>2017-04-20T21:37:06Z</time>
      </trkpt>
      <trkpt lat="45.8215" lon="4.61709">
        <ele>324.55163574219</ele>
        <time>2017-04-20T21:37:07Z</time>
      </trkpt>
      <trkpt lat="45.82207" lon="4.6158">
        <ele>307.60073852539</ele>
        <time>2017-04-20T21:38:20Z</time>
      </trkpt>
      <trkpt lat="45.82231" lon="4.61544">
        <ele>294.26007080078</ele>
        <time>2017-04-20T21:38:48Z</time>
      </trkpt>
      <trkpt lat="45.82246" lon="4.61525">
        <ele>291.7568359375</ele>
        <time>2017-04-20T21:38:57Z</time>
      </trkpt>
      <trkpt lat="45.8228" lon="4.61489">
        <ele>287.61306762695</ele>
        <time>2017-04-20T21:39:02Z</time>
      </trkpt>
      <trkpt lat="45.82307" lon="4.6147">
        <ele>283.20095825195</ele>
        <time>2017-04-20T21:39:13Z</time>
      </trkpt>
      <trkpt lat="45.8233" lon="4.6146">
        <ele>280.14114379883</ele>
        <time>2017-04-20T21:39:21Z</time>
      </trkpt>
      <trkpt lat="45.8233" lon="4.6146">
        <ele>280.14114379883</ele>
        <time>2017-04-20T21:39:27Z</time>
      </trkpt>
      <trkpt lat="45.82346" lon="4.61454">
        <ele>278.82699584961</ele>
        <time>2017-04-20T21:39:27Z</time>
      </trkpt>
      <trkpt lat="45.82345" lon="4.6145">
        <ele>278.87939453125</ele>
        <time>2017-04-20T21:39:31Z</time>
      </trkpt>
      <trkpt lat="45.82341" lon="4.61436">
        <ele>279.05545043945</ele>
        <time>2017-04-20T21:39:32Z</time>
      </trkpt>
      <trkpt lat="45.82328" lon="4.61406">
        <ele>279.90991210938</ele>
        <time>2017-04-20T21:39:35Z</time>
      </trkpt>
      <trkpt lat="45.82311" lon="4.61381">
        <ele>281.04806518555</ele>
        <time>2017-04-20T21:39:42Z</time>
      </trkpt>
      <trkpt lat="45.82298" lon="4.61366">
        <ele>281.12551879883</ele>
        <time>2017-04-20T21:39:49Z</time>
      </trkpt>
      <trkpt lat="45.82289" lon="4.61359">
        <ele>281.69696044922</ele>
        <time>2017-04-20T21:39:53Z</time>
      </trkpt>
      <trkpt lat="45.82241" lon="4.61327">
        <ele>284.17416381836</ele>
        <time>2017-04-20T21:39:56Z</time>
      </trkpt>
      <trkpt lat="45.82231" lon="4.61318">
        <ele>284.0361328125</ele>
        <time>2017-04-20T21:40:10Z</time>
      </trkpt>
      <trkpt lat="45.82214" lon="4.61299">
        <ele>284.01715087891</ele>
        <time>2017-04-20T21:40:13Z</time>
      </trkpt>
      <trkpt lat="45.82195" lon="4.61271">
        <ele>283.94384765625</ele>
        <time>2017-04-20T21:40:19Z</time>
      </trkpt>
      <trkpt lat="45.82109" lon="4.61131">
        <ele>284.79742431641</ele>
        <time>2017-04-20T21:40:26Z</time>
      </trkpt>
      <trkpt lat="45.82084" lon="4.61105">
        <ele>283.22537231445</ele>
        <time>2017-04-20T21:41:01Z</time>
      </trkpt>
      <trkpt lat="45.82056" lon="4.61085">
        <ele>281.07781982422</ele>
        <time>2017-04-20T21:41:09Z</time>
      </trkpt>
      <trkpt lat="45.82026" lon="4.61081">
        <ele>280.1640625</ele>
        <time>2017-04-20T21:41:17Z</time>
      </trkpt>
      <trkpt lat="45.82019" lon="4.61079">
        <ele>280.00219726562</ele>
        <time>2017-04-20T21:41:25Z</time>
      </trkpt>
      <trkpt lat="45.82014" lon="4.61076">
        <ele>279.89141845703</ele>
        <time>2017-04-20T21:41:27Z</time>
      </trkpt>
      <trkpt lat="45.82006" lon="4.61069">
        <ele>279.57257080078</ele>
        <time>2017-04-20T21:41:28Z</time>
      </trkpt>
      <trkpt lat="45.81994" lon="4.61051">
        <ele>279.17211914062</ele>
        <time>2017-04-20T21:41:31Z</time>
      </trkpt>
      <trkpt lat="45.81955" lon="4.60991">
        <ele>277.20739746094</ele>
        <time>2017-04-20T21:41:36Z</time>
      </trkpt>
      <trkpt lat="45.8193" lon="4.60961">
        <ele>269.9716796875</ele>
        <time>2017-04-20T21:41:51Z</time>
      </trkpt>
      <trkpt lat="45.8191" lon="4.60946">
        <ele>265.98760986328</ele>
        <time>2017-04-20T21:42:00Z</time>
      </trkpt>
      <trkpt lat="45.81896" lon="4.60939">
        <ele>264.91116333008</ele>
        <time>2017-04-20T21:42:06Z</time>
      </trkpt>
      <trkpt lat="45.81846" lon="4.60896">
        <ele>258.16104125977</ele>
        <time>2017-04-20T21:42:10Z</time>
      </trkpt>
      <trkpt lat="45.81825" lon="4.60869">
        <ele>251.26446533203</ele>
        <time>2017-04-20T21:42:26Z</time>
      </trkpt>
      <trkpt lat="45.8182" lon="4.60855">
        <ele>247.26203918457</ele>
        <time>2017-04-20T21:42:34Z</time>
      </trkpt>
      <trkpt lat="45.81798" lon="4.60811">
        <ele>239.32736206055</ele>
        <time>2017-04-20T21:42:37Z</time>
      </trkpt>
      <trkpt lat="45.81775" lon="4.60778">
        <ele>237.66191101074</ele>
        <time>2017-04-20T21:42:47Z</time>
      </trkpt>
      <trkpt lat="45.8169" lon="4.60694">
        <ele>238.16549682617</ele>
        <time>2017-04-20T21:42:56Z</time>
      </trkpt>
      <trkpt lat="45.81677" lon="4.6067">
        <ele>238.98611450195</ele>
        <time>2017-04-20T21:43:24Z</time>
      </trkpt>
      <trkpt lat="45.81667" lon="4.60657">
        <ele>240.54615783691</ele>
        <time>2017-04-20T21:43:30Z</time>
      </trkpt>
      <trkpt lat="45.81638" lon="4.60633">
        <ele>243.40216064453</ele>
        <time>2017-04-20T21:43:34Z</time>
      </trkpt>
      <trkpt lat="45.81628" lon="4.60627">
        <ele>244.54354858398</ele>
        <time>2017-04-20T21:43:43Z</time>
      </trkpt>
      <trkpt lat="45.81623" lon="4.60609">
        <ele>243.85766601562</ele>
        <time>2017-04-20T21:43:46Z</time>
      </trkpt>
      <trkpt lat="45.81613" lon="4.60593">
        <ele>242.50491333008</ele>
        <time>2017-04-20T21:43:50Z</time>
      </trkpt>
      <trkpt lat="45.8161" lon="4.60585">
        <ele>241.29948425293</ele>
        <time>2017-04-20T21:43:54Z</time>
      </trkpt>
      <trkpt lat="45.81604" lon="4.60566">
        <ele>238.72819519043</ele>
        <time>2017-04-20T21:43:56Z</time>
      </trkpt>
      <trkpt lat="45.81592" lon="4.60552">
        <ele>238.1695098877</ele>
        <time>2017-04-20T21:44:00Z</time>
      </trkpt>
      <trkpt lat="45.81584" lon="4.60522">
        <ele>236.97764587402</ele>
        <time>2017-04-20T21:44:04Z</time>
      </trkpt>
      <trkpt lat="45.81591" lon="4.60522">
        <ele>238.00621032715</ele>
        <time>2017-04-20T21:44:10Z</time>
      </trkpt>
      <trkpt lat="45.81591" lon="4.60522">
        <ele>238.00621032715</ele>
        <time>2017-04-20T21:44:12Z</time>
      </trkpt>
      <trkpt lat="45.81584" lon="4.60522">
        <ele>236.97764587402</ele>
        <time>2017-04-20T21:44:12Z</time>
      </trkpt>
      <trkpt lat="45.8159" lon="4.60549">
        <ele>237.76011657715</ele>
        <time>2017-04-20T21:44:14Z</time>
      </trkpt>
      <trkpt lat="45.81585" lon="4.60548">
        <ele>238.14640808105</ele>
        <time>2017-04-20T21:44:19Z</time>
      </trkpt>
      <trkpt lat="45.81526" lon="4.60519">
        <ele>239.62586975098</ele>
        <time>2017-04-20T21:44:20Z</time>
      </trkpt>
      <trkpt lat="45.81498" lon="4.605">
        <ele>241.59826660156</ele>
        <time>2017-04-20T21:44:37Z</time>
      </trkpt>
      <trkpt lat="45.81487" lon="4.6049">
        <ele>240.77310180664</ele>
        <time>2017-04-20T21:44:45Z</time>
      </trkpt>
      <trkpt lat="45.81442" lon="4.60463">
        <ele>239.69462585449</ele>
        <time>2017-04-20T21:44:48Z</time>
      </trkpt>
      <trkpt lat="45.81434" lon="4.60456">
        <ele>239.32385253906</ele>
        <time>2017-04-20T21:45:01Z</time>
      </trkpt>
      <trkpt lat="45.81424" lon="4.60444">
        <ele>239.0040435791</ele>
        <time>2017-04-20T21:45:04Z</time>
      </trkpt>
      <trkpt lat="45.81407" lon="4.6041">
        <ele>240.19912719727</ele>
        <time>2017-04-20T21:45:07Z</time>
      </trkpt>
      <trkpt lat="45.81386" lon="4.60362">
        <ele>239.96690368652</ele>
        <time>2017-04-20T21:45:15Z</time>
      </trkpt>
      <trkpt lat="45.81373" lon="4.60339">
        <ele>239.76177978516</ele>
        <time>2017-04-20T21:45:26Z</time>
      </trkpt>
      <trkpt lat="45.81296" lon="4.60229">
        <ele>240.17926025391</ele>
        <time>2017-04-20T21:45:32Z</time>
      </trkpt>
      <trkpt lat="45.81258" lon="4.60188">
        <ele>242.14506530762</ele>
        <time>2017-04-20T21:46:01Z</time>
      </trkpt>
      <trkpt lat="45.81247" lon="4.6017">
        <ele>240.44062805176</ele>
        <time>2017-04-20T21:46:14Z</time>
      </trkpt>
      <trkpt lat="45.81215" lon="4.60111">
        <ele>243.60520935059</ele>
        <time>2017-04-20T21:46:18Z</time>
      </trkpt>
      <trkpt lat="45.81202" lon="4.60093">
        <ele>242.79557800293</ele>
        <time>2017-04-20T21:46:32Z</time>
      </trkpt>
      <trkpt lat="45.81164" lon="4.60051">
        <ele>240.97673034668</ele>
        <time>2017-04-20T21:46:37Z</time>
      </trkpt>
      <trkpt lat="45.81141" lon="4.6003">
        <ele>242.06039428711</ele>
        <time>2017-04-20T21:46:50Z</time>
      </trkpt>
      <trkpt lat="45.81117" lon="4.60022">
        <ele>241.88537597656</ele>
        <time>2017-04-20T21:46:57Z</time>
      </trkpt>
      <trkpt lat="45.81106" lon="4.6002">
        <ele>242.30517578125</ele>
        <time>2017-04-20T21:47:04Z</time>
      </trkpt>
      <trkpt lat="45.81106" lon="4.6002">
        <ele>242.30517578125</ele>
        <time>2017-04-20T21:47:07Z</time>
      </trkpt>
      <trkpt lat="45.81117" lon="4.60022">
        <ele>241.88537597656</ele>
        <time>2017-04-20T21:47:07Z</time>
      </trkpt>
      <trkpt lat="45.81113" lon="4.60045">
        <ele>242.48472595215</ele>
        <time>2017-04-20T21:47:10Z</time>
      </trkpt>
      <trkpt lat="45.81109" lon="4.60061">
        <ele>243.09014892578</ele>
        <time>2017-04-20T21:47:14Z</time>
      </trkpt>
      <trkpt lat="45.81095" lon="4.6009">
        <ele>243.71894836426</ele>
        <time>2017-04-20T21:47:17Z</time>
      </trkpt>
      <trkpt lat="45.81081" lon="4.60107">
        <ele>244.60441589355</ele>
        <time>2017-04-20T21:47:24Z</time>
      </trkpt>
      <trkpt lat="45.81071" lon="4.60125">
        <ele>245.22946166992</ele>
        <time>2017-04-20T21:47:29Z</time>
      </trkpt>
      <trkpt lat="45.81047" lon="4.60122">
        <ele>247.04689025879</ele>
        <time>2017-04-20T21:47:33Z</time>
      </trkpt>
      <trkpt lat="45.80998" lon="4.60095">
        <ele>251.1587677002</ele>
        <time>2017-04-20T21:47:39Z</time>
      </trkpt>
      <trkpt lat="45.80976" lon="4.60085">
        <ele>252.63218688965</ele>
        <time>2017-04-20T21:47:53Z</time>
      </trkpt>
      <trkpt lat="45.80967" lon="4.60083">
        <ele>253.63128662109</ele>
        <time>2017-04-20T21:47:59Z</time>
      </trkpt>
      <trkpt lat="45.80946" lon="4.60091">
        <ele>257.77377319336</ele>
        <time>2017-04-20T21:48:01Z</time>
      </trkpt>
      <trkpt lat="45.80936" lon="4.60093">
        <ele>258.61242675781</ele>
        <time>2017-04-20T21:48:07Z</time>
      </trkpt>
      <trkpt lat="45.80923" lon="4.60093">
        <ele>259.60025024414</ele>
        <time>2017-04-20T21:48:10Z</time>
      </trkpt>
      <trkpt lat="45.80916" lon="4.60106">
        <ele>262.07775878906</ele>
        <time>2017-04-20T21:48:13Z</time>
      </trkpt>
      <trkpt lat="45.80905" lon="4.60113">
        <ele>264.83935546875</ele>
        <time>2017-04-20T21:48:16Z</time>
      </trkpt>
      <trkpt lat="45.80866" lon="4.60131">
        <ele>274.51968383789</ele>
        <time>2017-04-20T21:48:19Z</time>
      </trkpt>
      <trkpt lat="45.80838" lon="4.60132">
        <ele>279.84344482422</ele>
        <time>2017-04-20T21:48:30Z</time>
      </trkpt>
      <trkpt lat="45.80746" lon="4.60137">
        <ele>290.0119934082</ele>
        <time>2017-04-20T21:48:37Z</time>
      </trkpt>
      <trkpt lat="45.80701" lon="4.60138">
        <ele>295.29885864258</ele>
        <time>2017-04-20T21:49:02Z</time>
      </trkpt>
      <trkpt lat="45.80651" lon="4.6013">
        <ele>298.86758422852</ele>
        <time>2017-04-20T21:49:14Z</time>
      </trkpt>
      <trkpt lat="45.80638" lon="4.60127">
        <ele>299.87817382812</ele>
        <time>2017-04-20T21:49:27Z</time>
      </trkpt>
      <trkpt lat="45.80618" lon="4.60139">
        <ele>301.1413269043</ele>
        <time>2017-04-20T21:49:31Z</time>
      </trkpt>
      <trkpt lat="45.80517" lon="4.60192">
        <ele>306.0578918457</ele>
        <time>2017-04-20T21:49:37Z</time>
      </trkpt>
      <trkpt lat="45.80413" lon="4.60234">
        <ele>309.33840942383</ele>
        <time>2017-04-20T21:50:06Z</time>
      </trkpt>
      <trkpt lat="45.80385" lon="4.6024">
        <ele>311.61779785156</ele>
        <time>2017-04-20T21:50:35Z</time>
      </trkpt>
      <trkpt lat="45.80375" lon="4.60246">
        <ele>312.63903808594</ele>
        <time>2017-04-20T21:50:43Z</time>
      </trkpt>
      <trkpt lat="45.80375" lon="4.60246">
        <ele>312.63903808594</ele>
        <time>2017-04-20T21:50:46Z</time>
      </trkpt>
      <trkpt lat="45.80341" lon="4.60268">
        <ele>317.42407226562</ele>
        <time>2017-04-20T21:50:46Z</time>
      </trkpt>
      <trkpt lat="45.80277" lon="4.60314">
        <ele>325.95053100586</ele>
        <time>2017-04-20T21:50:56Z</time>
      </trkpt>
      <trkpt lat="45.80248" lon="4.60338">
        <ele>330.57363891602</ele>
        <time>2017-04-20T21:51:15Z</time>
      </trkpt>
      <trkpt lat="45.80223" lon="4.60365">
        <ele>332.57739257812</ele>
        <time>2017-04-20T21:51:24Z</time>
      </trkpt>
      <trkpt lat="45.80185" lon="4.60392">
        <ele>338.26663208008</ele>
        <time>2017-04-20T21:51:32Z</time>
      </trkpt>
      <trkpt lat="45.80113" lon="4.6043">
        <ele>348.28753662109</ele>
        <time>2017-04-20T21:51:43Z</time>
      </trkpt>
      <trkpt lat="45.80077" lon="4.60451">
        <ele>352.81552124023</ele>
        <time>2017-04-20T21:52:03Z</time>
      </trkpt>
      <trkpt lat="45.80073" lon="4.60448">
        <ele>354.68609619141</ele>
        <time>2017-04-20T21:52:13Z</time>
      </trkpt>
      <trkpt lat="45.80057" lon="4.6044">
        <ele>358.19845581055</ele>
        <time>2017-04-20T21:52:14Z</time>
      </trkpt>
      <trkpt lat="45.8005" lon="4.60449">
        <ele>358.54510498047</ele>
        <time>2017-04-20T21:52:19Z</time>
      </trkpt>
      <trkpt lat="45.80018" lon="4.60471">
        <ele>362.27890014648</ele>
        <time>2017-04-20T21:52:22Z</time>
      </trkpt>
      <trkpt lat="45.79924" lon="4.60543">
        <ele>370.96038818359</ele>
        <time>2017-04-20T21:52:31Z</time>
      </trkpt>
      <trkpt lat="45.79861" lon="4.60571">
        <ele>376.49633789062</ele>
        <time>2017-04-20T21:52:59Z</time>
      </trkpt>
      <trkpt lat="45.7983" lon="4.6058">
        <ele>377.82220458984</ele>
        <time>2017-04-20T21:53:17Z</time>
      </trkpt>
      <trkpt lat="45.79751" lon="4.60589">
        <ele>381.32144165039</ele>
        <time>2017-04-20T21:53:25Z</time>
      </trkpt>
      <trkpt lat="45.797" lon="4.60587">
        <ele>384.42623901367</ele>
        <time>2017-04-20T21:53:46Z</time>
      </trkpt>
      <trkpt lat="45.79648" lon="4.60588">
        <ele>387.25009155273</ele>
        <time>2017-04-20T21:54:00Z</time>
      </trkpt>
      <trkpt lat="45.79606" lon="4.606">
        <ele>391.77816772461</ele>
        <time>2017-04-20T21:54:14Z</time>
      </trkpt>
      <trkpt lat="45.79464" lon="4.60655">
        <ele>399.79586791992</ele>
        <time>2017-04-20T21:54:25Z</time>
      </trkpt>
      <trkpt lat="45.79388" lon="4.60677">
        <ele>405.4538269043</ele>
        <time>2017-04-20T21:55:04Z</time>
      </trkpt>
      <trkpt lat="45.79322" lon="4.60692">
        <ele>406.48330688477</ele>
        <time>2017-04-20T21:55:25Z</time>
      </trkpt>
      <trkpt lat="45.79294" lon="4.60702">
        <ele>405.53524780273</ele>
        <time>2017-04-20T21:55:43Z</time>
      </trkpt>
      <trkpt lat="45.79283" lon="4.60709">
        <ele>403.5498046875</ele>
        <time>2017-04-20T21:55:51Z</time>
      </trkpt>
      <trkpt lat="45.79268" lon="4.60722">
        <ele>400.77514648438</ele>
        <time>2017-04-20T21:55:54Z</time>
      </trkpt>
      <trkpt lat="45.79257" lon="4.60732">
        <ele>398.7795715332</ele>
        <time>2017-04-20T21:55:59Z</time>
      </trkpt>
      <trkpt lat="45.79252" lon="4.60713">
        <ele>400.58044433594</ele>
        <time>2017-04-20T21:56:02Z</time>
      </trkpt>
      <trkpt lat="45.79252" lon="4.60713">
        <ele>400.58044433594</ele>
        <time>2017-04-20T21:56:06Z</time>
      </trkpt>
      <trkpt lat="45.79257" lon="4.60732">
        <ele>398.7795715332</ele>
        <time>2017-04-20T21:56:06Z</time>
      </trkpt>
      <trkpt lat="45.79245" lon="4.60743">
        <ele>397.32797241211</ele>
        <time>2017-04-20T21:56:10Z</time>
      </trkpt>
      <trkpt lat="45.79245" lon="4.60742">
        <ele>397.38793945312</ele>
        <time>2017-04-20T21:56:14Z</time>
      </trkpt>
      <trkpt lat="45.79243" lon="4.6074">
        <ele>397.43392944336</ele>
        <time>2017-04-20T21:56:14Z</time>
      </trkpt>
      <trkpt lat="45.7924" lon="4.60738">
        <ele>397.45944213867</ele>
        <time>2017-04-20T21:56:15Z</time>
      </trkpt>
      <trkpt lat="45.79236" lon="4.6074">
        <ele>397.384765625</ele>
        <time>2017-04-20T21:56:16Z</time>
      </trkpt>
      <trkpt lat="45.79233" lon="4.60744">
        <ele>397.11993408203</ele>
        <time>2017-04-20T21:56:17Z</time>
      </trkpt>
      <trkpt lat="45.79232" lon="4.60749">
        <ele>396.65408325195</ele>
        <time>2017-04-20T21:56:18Z</time>
      </trkpt>
      <trkpt lat="45.79232" lon="4.6075">
        <ele>396.55596923828</ele>
        <time>2017-04-20T21:56:19Z</time>
      </trkpt>
      <trkpt lat="45.7921" lon="4.60751">
        <ele>396.18215942383</ele>
        <time>2017-04-20T21:56:19Z</time>
      </trkpt>
      <trkpt lat="45.79165" lon="4.60898">
        <ele>389.84356689453</ele>
        <time>2017-04-20T21:56:25Z</time>
      </trkpt>
      <trkpt lat="45.79159" lon="4.60939">
        <ele>388.59085083008</ele>
        <time>2017-04-20T21:56:55Z</time>
      </trkpt>
      <trkpt lat="45.7913" lon="4.6094">
        <ele>388.84616088867</ele>
        <time>2017-04-20T21:57:03Z</time>
      </trkpt>
      <trkpt lat="45.79056" lon="4.60947">
        <ele>390.18966674805</ele>
        <time>2017-04-20T21:57:11Z</time>
      </trkpt>
      <trkpt lat="45.79033" lon="4.60945">
        <ele>390.34313964844</ele>
        <time>2017-04-20T21:57:31Z</time>
      </trkpt>
      <trkpt lat="45.79016" lon="4.60948">
        <ele>389.82632446289</ele>
        <time>2017-04-20T21:57:37Z</time>
      </trkpt>
      <trkpt lat="45.79005" lon="4.60955">
        <ele>388.52453613281</ele>
        <time>2017-04-20T21:57:42Z</time>
      </trkpt>
      <trkpt lat="45.79005" lon="4.60948">
        <ele>388.52252197266</ele>
        <time>2017-04-20T21:57:45Z</time>
      </trkpt>
      <trkpt lat="45.79005" lon="4.60948">
        <ele>388.52252197266</ele>
        <time>2017-04-20T21:57:46Z</time>
      </trkpt>
      <trkpt lat="45.79008" lon="4.60984">
        <ele>390.85415649414</ele>
        <time>2017-04-20T21:57:46Z</time>
      </trkpt>
      <trkpt lat="45.79022" lon="4.61071">
        <ele>390.41885375977</ele>
        <time>2017-04-20T21:57:53Z</time>
      </trkpt>
      <trkpt lat="45.7903" lon="4.61122">
        <ele>391.71762084961</ele>
        <time>2017-04-20T21:58:10Z</time>
      </trkpt>
      <trkpt lat="45.79033" lon="4.61155">
        <ele>392.10296630859</ele>
        <time>2017-04-20T21:58:20Z</time>
      </trkpt>
      <trkpt lat="45.79032" lon="4.6117">
        <ele>392.73657226562</ele>
        <time>2017-04-20T21:58:26Z</time>
      </trkpt>
      <trkpt lat="45.79029" lon="4.61184">
        <ele>393.1728515625</ele>
        <time>2017-04-20T21:58:29Z</time>
      </trkpt>
      <trkpt lat="45.79029" lon="4.61184">
        <ele>393.1728515625</ele>
        <time>2017-04-20T21:58:32Z</time>
      </trkpt>
      <trkpt lat="45.79031" lon="4.61206">
        <ele>394.14413452148</ele>
        <time>2017-04-20T21:58:32Z</time>
      </trkpt>
      <trkpt lat="45.7899" lon="4.61219">
        <ele>393.78295898438</ele>
        <time>2017-04-20T21:58:36Z</time>
      </trkpt>
      <trkpt lat="45.78955" lon="4.61223">
        <ele>391.04064941406</ele>
        <time>2017-04-20T21:58:47Z</time>
      </trkpt>
      <trkpt lat="45.789" lon="4.61241">
        <ele>390.18280029297</ele>
        <time>2017-04-20T21:58:56Z</time>
      </trkpt>
      <trkpt lat="45.78859" lon="4.61254">
        <ele>390.51312255859</ele>
        <time>2017-04-20T21:59:11Z</time>
      </trkpt>
      <trkpt lat="45.78811" lon="4.61273">
        <ele>388.66284179688</ele>
        <time>2017-04-20T21:59:22Z</time>
      </trkpt>
      <trkpt lat="45.7881" lon="4.61273">
        <ele>388.6594543457</ele>
        <time>2017-04-20T21:59:35Z</time>
      </trkpt>
      <trkpt lat="45.7881" lon="4.61272">
        <ele>388.55905151367</ele>
        <time>2017-04-20T21:59:35Z</time>
      </trkpt>
      <trkpt lat="45.78808" lon="4.61271">
        <ele>388.48596191406</ele>
        <time>2017-04-20T21:59:35Z</time>
      </trkpt>
      <trkpt lat="45.78804" lon="4.61272">
        <ele>388.63150024414</ele>
        <time>2017-04-20T21:59:36Z</time>
      </trkpt>
      <trkpt lat="45.78802" lon="4.61276">
        <ele>389.18612670898</ele>
        <time>2017-04-20T21:59:37Z</time>
      </trkpt>
      <trkpt lat="45.78802" lon="4.61278">
        <ele>389.45074462891</ele>
        <time>2017-04-20T21:59:38Z</time>
      </trkpt>
      <trkpt lat="45.78795" lon="4.61277">
        <ele>389.74130249023</ele>
        <time>2017-04-20T21:59:38Z</time>
      </trkpt>
      <trkpt lat="45.78765" lon="4.61287">
        <ele>390.30056762695</ele>
        <time>2017-04-20T21:59:40Z</time>
      </trkpt>
      <trkpt lat="45.78703" lon="4.61313">
        <ele>392.22415161133</ele>
        <time>2017-04-20T21:59:48Z</time>
      </trkpt>
      <trkpt lat="45.78672" lon="4.61328">
        <ele>392.23751831055</ele>
        <time>2017-04-20T22:00:05Z</time>
      </trkpt>
      <trkpt lat="45.78654" lon="4.61343">
        <ele>393.18560791016</ele>
        <time>2017-04-20T22:00:14Z</time>
      </trkpt>
      <trkpt lat="45.78589" lon="4.61442">
        <ele>399.6628112793</ele>
        <time>2017-04-20T22:00:20Z</time>
      </trkpt>
      <trkpt lat="45.78533" lon="4.61513">
        <ele>403.72067260742</ele>
        <time>2017-04-20T22:00:45Z</time>
      </trkpt>
      <trkpt lat="45.78522" lon="4.61531">
        <ele>403.68045043945</ele>
        <time>2017-04-20T22:01:05Z</time>
      </trkpt>
      <trkpt lat="45.78521" lon="4.6154">
        <ele>403.95132446289</ele>
        <time>2017-04-20T22:01:09Z</time>
      </trkpt>
      <trkpt lat="45.78521" lon="4.6154">
        <ele>403.95132446289</ele>
        <time>2017-04-20T22:01:11Z</time>
      </trkpt>
      <trkpt lat="45.7852" lon="4.6156">
        <ele>404.12121582031</ele>
        <time>2017-04-20T22:01:11Z</time>
      </trkpt>
      <trkpt lat="45.78523" lon="4.61583">
        <ele>404.46838378906</ele>
        <time>2017-04-20T22:01:15Z</time>
      </trkpt>
      <trkpt lat="45.7853" lon="4.61602">
        <ele>404.43054199219</ele>
        <time>2017-04-20T22:01:19Z</time>
      </trkpt>
      <trkpt lat="45.7855" lon="4.61643">
        <ele>405.0085144043</ele>
        <time>2017-04-20T22:01:23Z</time>
      </trkpt>
      <trkpt lat="45.78559" lon="4.61665">
        <ele>405.03863525391</ele>
        <time>2017-04-20T22:01:32Z</time>
      </trkpt>
      <trkpt lat="45.78562" lon="4.61682">
        <ele>405.37078857422</ele>
        <time>2017-04-20T22:01:37Z</time>
      </trkpt>
      <trkpt lat="45.78564" lon="4.61711">
        <ele>406.05801391602</ele>
        <time>2017-04-20T22:01:40Z</time>
      </trkpt>
      <trkpt lat="45.78562" lon="4.61736">
        <ele>406.47982788086</ele>
        <time>2017-04-20T22:01:45Z</time>
      </trkpt>
      <trkpt lat="45.78556" lon="4.61774">
        <ele>408.04760742188</ele>
        <time>2017-04-20T22:01:50Z</time>
      </trkpt>
      <trkpt lat="45.78544" lon="4.61821">
        <ele>409.99542236328</ele>
        <time>2017-04-20T22:01:57Z</time>
      </trkpt>
      <trkpt lat="45.78542" lon="4.61836">
        <ele>410.89413452148</ele>
        <time>2017-04-20T22:02:06Z</time>
      </trkpt>
      <trkpt lat="45.7853" lon="4.6188">
        <ele>413.40362548828</ele>
        <time>2017-04-20T22:02:09Z</time>
      </trkpt>
      <trkpt lat="45.7852" lon="4.61903">
        <ele>414.29019165039</ele>
        <time>2017-04-20T22:02:18Z</time>
      </trkpt>
      <trkpt lat="45.78521" lon="4.61918">
        <ele>415.53036499023</ele>
        <time>2017-04-20T22:02:23Z</time>
      </trkpt>
      <trkpt lat="45.78514" lon="4.61953">
        <ele>419.54769897461</ele>
        <time>2017-04-20T22:02:26Z</time>
      </trkpt>
      <trkpt lat="45.78498" lon="4.62015">
        <ele>420.82876586914</ele>
        <time>2017-04-20T22:02:33Z</time>
      </trkpt>
      <trkpt lat="45.78484" lon="4.6205">
        <ele>423.00189208984</ele>
        <time>2017-04-20T22:02:45Z</time>
      </trkpt>
      <trkpt lat="45.78472" lon="4.62073">
        <ele>424.05667114258</ele>
        <time>2017-04-20T22:02:53Z</time>
      </trkpt>
      <trkpt lat="45.78447" lon="4.62111">
        <ele>427.00234985352</ele>
        <time>2017-04-20T22:02:58Z</time>
      </trkpt>
      <trkpt lat="45.78336" lon="4.62234">
        <ele>439.72714233398</ele>
        <time>2017-04-20T22:03:08Z</time>
      </trkpt>
      <trkpt lat="45.78329" lon="4.62242">
        <ele>440.35250854492</ele>
        <time>2017-04-20T22:03:45Z</time>
      </trkpt>
      <trkpt lat="45.7832" lon="4.62256">
        <ele>441.7639465332</ele>
        <time>2017-04-20T22:03:47Z</time>
      </trkpt>
      <trkpt lat="45.78267" lon="4.62363">
        <ele>450.69836425781</ele>
        <time>2017-04-20T22:03:51Z</time>
      </trkpt>
      <trkpt lat="45.78246" lon="4.62395">
        <ele>453.08178710938</ele>
        <time>2017-04-20T22:04:15Z</time>
      </trkpt>
      <trkpt lat="45.78214" lon="4.62427">
        <ele>456.73654174805</ele>
        <time>2017-04-20T22:04:23Z</time>
      </trkpt>
      <trkpt lat="45.78214" lon="4.62427">
        <ele>456.73654174805</ele>
        <time>2017-04-20T22:04:33Z</time>
      </trkpt>
      <trkpt lat="45.78207" lon="4.62436">
        <ele>457.2961730957</ele>
        <time>2017-04-20T22:04:33Z</time>
      </trkpt>
      <trkpt lat="45.782" lon="4.6245">
        <ele>457.83883666992</ele>
        <time>2017-04-20T22:04:36Z</time>
      </trkpt>
      <trkpt lat="45.78194" lon="4.62489">
        <ele>460.59674072266</ele>
        <time>2017-04-20T22:04:39Z</time>
      </trkpt>
      <trkpt lat="45.78179" lon="4.6253">
        <ele>463.96240234375</ele>
        <time>2017-04-20T22:04:46Z</time>
      </trkpt>
      <trkpt lat="45.78166" lon="4.62547">
        <ele>465.06973266602</ele>
        <time>2017-04-20T22:04:55Z</time>
      </trkpt>
      <trkpt lat="45.78139" lon="4.62572">
        <ele>467.58050537109</ele>
        <time>2017-04-20T22:05:00Z</time>
      </trkpt>
      <trkpt lat="45.78112" lon="4.62596">
        <ele>469.86743164062</ele>
        <time>2017-04-20T22:05:09Z</time>
      </trkpt>
      <trkpt lat="45.78083" lon="4.62617">
        <ele>473.23294067383</ele>
        <time>2017-04-20T22:05:17Z</time>
      </trkpt>
      <trkpt lat="45.78054" lon="4.62643">
        <ele>476.71246337891</ele>
        <time>2017-04-20T22:05:26Z</time>
      </trkpt>
      <trkpt lat="45.78043" lon="4.62661">
        <ele>478.49633789062</ele>
        <time>2017-04-20T22:05:35Z</time>
      </trkpt>
      <trkpt lat="45.78031" lon="4.62684">
        <ele>479.09469604492</ele>
        <time>2017-04-20T22:05:39Z</time>
      </trkpt>
      <trkpt lat="45.78016" lon="4.62706">
        <ele>480.94641113281</ele>
        <time>2017-04-20T22:05:44Z</time>
      </trkpt>
      <trkpt lat="45.78002" lon="4.62721">
        <ele>482.47171020508</ele>
        <time>2017-04-20T22:05:50Z</time>
      </trkpt>
      <trkpt lat="45.77958" lon="4.62754">
        <ele>489.57891845703</ele>
        <time>2017-04-20T22:05:55Z</time>
      </trkpt>
      <trkpt lat="45.77943" lon="4.62762">
        <ele>491.55062866211</ele>
        <time>2017-04-20T22:06:08Z</time>
      </trkpt>
      <trkpt lat="45.77911" lon="4.62765">
        <ele>495.94909667969</ele>
        <time>2017-04-20T22:06:12Z</time>
      </trkpt>
      <trkpt lat="45.77877" lon="4.6277">
        <ele>500.73934936523</ele>
        <time>2017-04-20T22:06:21Z</time>
      </trkpt>
      <trkpt lat="45.77854" lon="4.62769">
        <ele>507.14398193359</ele>
        <time>2017-04-20T22:06:30Z</time>
      </trkpt>
      <trkpt lat="45.77821" lon="4.62758">
        <ele>510.67889404297</ele>
        <time>2017-04-20T22:06:36Z</time>
      </trkpt>
      <trkpt lat="45.77788" lon="4.62745">
        <ele>517.74389648438</ele>
        <time>2017-04-20T22:06:45Z</time>
      </trkpt>
      <trkpt lat="45.77777" lon="4.62742">
        <ele>521.52069091797</ele>
        <time>2017-04-20T22:06:54Z</time>
      </trkpt>
      <trkpt lat="45.77771" lon="4.62743">
        <ele>522.60394287109</ele>
        <time>2017-04-20T22:06:57Z</time>
      </trkpt>
      <trkpt lat="45.77761" lon="4.62749">
        <ele>524.12170410156</ele>
        <time>2017-04-20T22:06:59Z</time>
      </trkpt>
      <trkpt lat="45.77737" lon="4.62775">
        <ele>523.55059814453</ele>
        <time>2017-04-20T22:07:02Z</time>
      </trkpt>
      <trkpt lat="45.77721" lon="4.62796">
        <ele>524.87713623047</ele>
        <time>2017-04-20T22:07:10Z</time>
      </trkpt>
      <trkpt lat="45.7771" lon="4.62825">
        <ele>522.41021728516</ele>
        <time>2017-04-20T22:07:16Z</time>
      </trkpt>
      <trkpt lat="45.77707" lon="4.62842">
        <ele>520.07208251953</ele>
        <time>2017-04-20T22:07:22Z</time>
      </trkpt>
      <trkpt lat="45.77706" lon="4.6285">
        <ele>526.11224365234</ele>
        <time>2017-04-20T22:07:25Z</time>
      </trkpt>
      <trkpt lat="45.77703" lon="4.62849">
        <ele>526.83874511719</ele>
        <time>2017-04-20T22:07:27Z</time>
      </trkpt>
      <trkpt lat="45.77701" lon="4.62844">
        <ele>525.26446533203</ele>
        <time>2017-04-20T22:07:28Z</time>
      </trkpt>
      <trkpt lat="45.777" lon="4.62806">
        <ele>532.00634765625</ele>
        <time>2017-04-20T22:07:29Z</time>
      </trkpt>
      <trkpt lat="45.77704" lon="4.6278">
        <ele>536.16223144531</ele>
        <time>2017-04-20T22:07:36Z</time>
      </trkpt>
      <trkpt lat="45.77711" lon="4.62749">
        <ele>538.84240722656</ele>
        <time>2017-04-20T22:07:41Z</time>
      </trkpt>
      <trkpt lat="45.77716" lon="4.62739">
        <ele>538.70275878906</ele>
        <time>2017-04-20T22:07:47Z</time>
      </trkpt>
      <trkpt lat="45.77723" lon="4.6272">
        <ele>539.30322265625</ele>
        <time>2017-04-20T22:07:49Z</time>
      </trkpt>
      <trkpt lat="45.7771" lon="4.62732">
        <ele>541.44830322266</ele>
        <time>2017-04-20T22:07:53Z</time>
      </trkpt>
      <trkpt lat="45.7771" lon="4.62732">
        <ele>541.44830322266</ele>
        <time>2017-04-20T22:07:57Z</time>
      </trkpt>
      <trkpt lat="45.7768" lon="4.62762">
        <ele>549.49475097656</ele>
        <time>2017-04-20T22:07:57Z</time>
      </trkpt>
      <trkpt lat="45.77663" lon="4.62787">
        <ele>552.44805908203</ele>
        <time>2017-04-20T22:08:07Z</time>
      </trkpt>
      <trkpt lat="45.77647" lon="4.62826">
        <ele>553.26391601562</ele>
        <time>2017-04-20T22:08:14Z</time>
      </trkpt>
      <trkpt lat="45.77642" lon="4.62854">
        <ele>557.51165771484</ele>
        <time>2017-04-20T22:08:22Z</time>
      </trkpt>
      <trkpt lat="45.77643" lon="4.62879">
        <ele>559.7109375</ele>
        <time>2017-04-20T22:08:27Z</time>
      </trkpt>
      <trkpt lat="45.77656" lon="4.62929">
        <ele>563.59771728516</ele>
        <time>2017-04-20T22:08:32Z</time>
      </trkpt>
      <trkpt lat="45.77671" lon="4.62971">
        <ele>567.08764648438</ele>
        <time>2017-04-20T22:08:42Z</time>
      </trkpt>
      <trkpt lat="45.77696" lon="4.63022">
        <ele>571.69281005859</ele>
        <time>2017-04-20T22:08:51Z</time>
      </trkpt>
      <trkpt lat="45.77704" lon="4.63046">
        <ele>572.78436279297</ele>
        <time>2017-04-20T22:09:03Z</time>
      </trkpt>
      <trkpt lat="45.77709" lon="4.63084">
        <ele>573.56958007812</ele>
        <time>2017-04-20T22:09:08Z</time>
      </trkpt>
      <trkpt lat="45.77712" lon="4.6315">
        <ele>583.62530517578</ele>
        <time>2017-04-20T22:09:15Z</time>
      </trkpt>
      <trkpt lat="45.77716" lon="4.63185">
        <ele>584.29602050781</ele>
        <time>2017-04-20T22:09:27Z</time>
      </trkpt>
      <trkpt lat="45.77715" lon="4.63207">
        <ele>583.76129150391</ele>
        <time>2017-04-20T22:09:34Z</time>
      </trkpt>
      <trkpt lat="45.7771" lon="4.63237">
        <ele>583.94250488281</ele>
        <time>2017-04-20T22:09:38Z</time>
      </trkpt>
      <trkpt lat="45.777" lon="4.63261">
        <ele>585.59197998047</ele>
        <time>2017-04-20T22:09:44Z</time>
      </trkpt>
      <trkpt lat="45.77689" lon="4.63279">
        <ele>587.26721191406</ele>
        <time>2017-04-20T22:09:49Z</time>
      </trkpt>
      <trkpt lat="45.77664" lon="4.63307">
        <ele>589.81072998047</ele>
        <time>2017-04-20T22:09:53Z</time>
      </trkpt>
      <trkpt lat="45.77635" lon="4.63332">
        <ele>590.96636962891</ele>
        <time>2017-04-20T22:10:01Z</time>
      </trkpt>
      <trkpt lat="45.77598" lon="4.63355">
        <ele>591.86022949219</ele>
        <time>2017-04-20T22:10:10Z</time>
      </trkpt>
      <trkpt lat="45.77566" lon="4.63366">
        <ele>597.20556640625</ele>
        <time>2017-04-20T22:10:21Z</time>
      </trkpt>
      <trkpt lat="45.77545" lon="4.63379">
        <ele>601.05841064453</ele>
        <time>2017-04-20T22:10:30Z</time>
      </trkpt>
      <trkpt lat="45.77522" lon="4.634">
        <ele>602.85406494141</ele>
        <time>2017-04-20T22:10:36Z</time>
      </trkpt>
      <trkpt lat="45.77508" lon="4.63417">
        <ele>600.62939453125</ele>
        <time>2017-04-20T22:10:43Z</time>
      </trkpt>
      <trkpt lat="45.77503" lon="4.63429">
        <ele>595.66931152344</ele>
        <time>2017-04-20T22:10:48Z</time>
      </trkpt>
      <trkpt lat="45.77501" lon="4.63451">
        <ele>597.53161621094</ele>
        <time>2017-04-20T22:10:51Z</time>
      </trkpt>
      <trkpt lat="45.77505" lon="4.63477">
        <ele>608.00048828125</ele>
        <time>2017-04-20T22:10:55Z</time>
      </trkpt>
      <trkpt lat="45.77518" lon="4.6353">
        <ele>608.31219482422</ele>
        <time>2017-04-20T22:11:00Z</time>
      </trkpt>
      <trkpt lat="45.77543" lon="4.63634">
        <ele>604.96337890625</ele>
        <time>2017-04-20T22:11:10Z</time>
      </trkpt>
      <trkpt lat="45.77556" lon="4.63682">
        <ele>613.09234619141</ele>
        <time>2017-04-20T22:11:30Z</time>
      </trkpt>
      <trkpt lat="45.77564" lon="4.63722">
        <ele>614.58325195312</ele>
        <time>2017-04-20T22:11:40Z</time>
      </trkpt>
      <trkpt lat="45.77567" lon="4.63754">
        <ele>615.71276855469</ele>
        <time>2017-04-20T22:11:48Z</time>
      </trkpt>
      <trkpt lat="45.77582" lon="4.63819">
        <ele>614.02612304688</ele>
        <time>2017-04-20T22:11:54Z</time>
      </trkpt>
      <trkpt lat="45.77584" lon="4.63837">
        <ele>613.03143310547</ele>
        <time>2017-04-20T22:12:07Z</time>
      </trkpt>
      <trkpt lat="45.77585" lon="4.6384">
        <ele>612.58477783203</ele>
        <time>2017-04-20T22:12:10Z</time>
      </trkpt>
      <trkpt lat="45.77585" lon="4.6384">
        <ele>612.58477783203</ele>
        <time>2017-04-20T22:12:11Z</time>
      </trkpt>
      <trkpt lat="45.77586" lon="4.63853">
        <ele>609.96203613281</ele>
        <time>2017-04-20T22:12:11Z</time>
      </trkpt>
      <trkpt lat="45.77634" lon="4.63883">
        <ele>609.01379394531</ele>
        <time>2017-04-20T22:12:13Z</time>
      </trkpt>
      <trkpt lat="45.77672" lon="4.63905">
        <ele>608.13934326172</ele>
        <time>2017-04-20T22:12:27Z</time>
      </trkpt>
      <trkpt lat="45.77692" lon="4.63922">
        <ele>607.16467285156</ele>
        <time>2017-04-20T22:12:38Z</time>
      </trkpt>
      <trkpt lat="45.77708" lon="4.6393">
        <ele>606.8935546875</ele>
        <time>2017-04-20T22:12:44Z</time>
      </trkpt>
      <trkpt lat="45.77723" lon="4.63929">
        <ele>606.72900390625</ele>
        <time>2017-04-20T22:12:49Z</time>
      </trkpt>
      <trkpt lat="45.77734" lon="4.63931">
        <ele>606.34991455078</ele>
        <time>2017-04-20T22:12:53Z</time>
      </trkpt>
      <trkpt lat="45.77764" lon="4.63955">
        <ele>604.92193603516</ele>
        <time>2017-04-20T22:12:56Z</time>
      </trkpt>
      <trkpt lat="45.77781" lon="4.63972">
        <ele>604.72668457031</ele>
        <time>2017-04-20T22:13:05Z</time>
      </trkpt>
      <trkpt lat="45.77794" lon="4.6399">
        <ele>603.98394775391</ele>
        <time>2017-04-20T22:13:11Z</time>
      </trkpt>
      <trkpt lat="45.77797" lon="4.63984">
        <ele>604.3525390625</ele>
        <time>2017-04-20T22:13:16Z</time>
      </trkpt>
      <trkpt lat="45.77799" lon="4.63975">
        <ele>604.11871337891</ele>
        <time>2017-04-20T22:13:17Z</time>
      </trkpt>
      <trkpt lat="45.77799" lon="4.63975">
        <ele>604.11871337891</ele>
        <time>2017-04-20T22:13:19Z</time>
      </trkpt>
      <trkpt lat="45.77793" lon="4.63992">
        <ele>603.79986572266</ele>
        <time>2017-04-20T22:13:19Z</time>
      </trkpt>
      <trkpt lat="45.77787" lon="4.63996">
        <ele>602.99493408203</ele>
        <time>2017-04-20T22:13:23Z</time>
      </trkpt>
      <trkpt lat="45.7778" lon="4.63998">
        <ele>602.45379638672</ele>
        <time>2017-04-20T22:13:25Z</time>
      </trkpt>
      <trkpt lat="45.77766" lon="4.63998">
        <ele>602.02331542969</ele>
        <time>2017-04-20T22:13:27Z</time>
      </trkpt>
      <trkpt lat="45.77748" lon="4.63994">
        <ele>601.69567871094</ele>
        <time>2017-04-20T22:13:31Z</time>
      </trkpt>
      <trkpt lat="45.77694" lon="4.63989">
        <ele>597.57635498047</ele>
        <time>2017-04-20T22:13:36Z</time>
      </trkpt>
      <trkpt lat="45.7766" lon="4.63982">
        <ele>594.82965087891</ele>
        <time>2017-04-20T22:13:50Z</time>
      </trkpt>
      <trkpt lat="45.77644" lon="4.63972">
        <ele>599.46447753906</ele>
        <time>2017-04-20T22:13:59Z</time>
      </trkpt>
      <trkpt lat="45.77625" lon="4.63958">
        <ele>607.03399658203</ele>
        <time>2017-04-20T22:14:04Z</time>
      </trkpt>
      <trkpt lat="45.77605" lon="4.63948">
        <ele>605.76519775391</ele>
        <time>2017-04-20T22:14:10Z</time>
      </trkpt>
      <trkpt lat="45.77591" lon="4.63949">
        <ele>603.36212158203</ele>
        <time>2017-04-20T22:14:16Z</time>
      </trkpt>
      <trkpt lat="45.77571" lon="4.63961">
        <ele>595.55413818359</ele>
        <time>2017-04-20T22:14:20Z</time>
      </trkpt>
      <trkpt lat="45.77509" lon="4.63989">
        <ele>599.50616455078</ele>
        <time>2017-04-20T22:14:26Z</time>
      </trkpt>
      <trkpt lat="45.77485" lon="4.64008">
        <ele>595.50579833984</ele>
        <time>2017-04-20T22:14:43Z</time>
      </trkpt>
      <trkpt lat="45.77475" lon="4.6402">
        <ele>596.30822753906</ele>
        <time>2017-04-20T22:14:50Z</time>
      </trkpt>
      <trkpt lat="45.77464" lon="4.64042">
        <ele>598.35083007812</ele>
        <time>2017-04-20T22:14:53Z</time>
      </trkpt>
      <trkpt lat="45.77439" lon="4.64093">
        <ele>586.39166259766</ele>
        <time>2017-04-20T22:14:58Z</time>
      </trkpt>
      <trkpt lat="45.77434" lon="4.64108">
        <ele>582.74377441406</ele>
        <time>2017-04-20T22:15:10Z</time>
      </trkpt>
      <trkpt lat="45.7743" lon="4.64126">
        <ele>583.39923095703</ele>
        <time>2017-04-20T22:15:13Z</time>
      </trkpt>
      <trkpt lat="45.77428" lon="4.64162">
        <ele>581.60321044922</ele>
        <time>2017-04-20T22:15:17Z</time>
      </trkpt>
      <trkpt lat="45.77425" lon="4.64183">
        <ele>578.85278320312</ele>
        <time>2017-04-20T22:15:24Z</time>
      </trkpt>
      <trkpt lat="45.77414" lon="4.64207">
        <ele>579.09948730469</ele>
        <time>2017-04-20T22:15:28Z</time>
      </trkpt>
      <trkpt lat="45.77381" lon="4.64264">
        <ele>579.52087402344</ele>
        <time>2017-04-20T22:15:33Z</time>
      </trkpt>
      <trkpt lat="45.77361" lon="4.64299">
        <ele>575.96020507812</ele>
        <time>2017-04-20T22:15:47Z</time>
      </trkpt>
      <trkpt lat="45.77346" lon="4.64319">
        <ele>571.43774414062</ele>
        <time>2017-04-20T22:15:55Z</time>
      </trkpt>
      <trkpt lat="45.77304" lon="4.64359">
        <ele>567.77325439453</ele>
        <time>2017-04-20T22:16:00Z</time>
      </trkpt>
      <trkpt lat="45.77282" lon="4.64378">
        <ele>566.15747070312</ele>
        <time>2017-04-20T22:16:13Z</time>
      </trkpt>
      <trkpt lat="45.77267" lon="4.64382">
        <ele>567.85504150391</ele>
        <time>2017-04-20T22:16:20Z</time>
      </trkpt>
      <trkpt lat="45.77256" lon="4.64382">
        <ele>566.94134521484</ele>
        <time>2017-04-20T22:16:24Z</time>
      </trkpt>
      <trkpt lat="45.77242" lon="4.64373">
        <ele>566.15502929688</ele>
        <time>2017-04-20T22:16:27Z</time>
      </trkpt>
      <trkpt lat="45.77221" lon="4.64351">
        <ele>567.42022705078</ele>
        <time>2017-04-20T22:16:31Z</time>
      </trkpt>
      <trkpt lat="45.77211" lon="4.64344">
        <ele>565.27331542969</ele>
        <time>2017-04-20T22:16:38Z</time>
      </trkpt>
      <trkpt lat="45.77202" lon="4.64339">
        <ele>565.36083984375</ele>
        <time>2017-04-20T22:16:41Z</time>
      </trkpt>
      <trkpt lat="45.77183" lon="4.64336">
        <ele>564.29473876953</ele>
        <time>2017-04-20T22:16:44Z</time>
      </trkpt>
      <trkpt lat="45.77176" lon="4.64339">
        <ele>562.75054931641</ele>
        <time>2017-04-20T22:16:49Z</time>
      </trkpt>
      <trkpt lat="45.7717" lon="4.64347">
        <ele>566.75384521484</ele>
        <time>2017-04-20T22:16:51Z</time>
      </trkpt>
      <trkpt lat="45.77163" lon="4.64369">
        <ele>570.43719482422</ele>
        <time>2017-04-20T22:16:53Z</time>
      </trkpt>
      <trkpt lat="45.77159" lon="4.64395">
        <ele>567.08148193359</ele>
        <time>2017-04-20T22:16:58Z</time>
      </trkpt>
      <trkpt lat="45.77158" lon="4.64423">
        <ele>565.00756835938</ele>
        <time>2017-04-20T22:17:03Z</time>
      </trkpt>
      <trkpt lat="45.77168" lon="4.64514">
        <ele>558.95385742188</ele>
        <time>2017-04-20T22:17:08Z</time>
      </trkpt>
      <trkpt lat="45.7717" lon="4.6454">
        <ele>557.85198974609</ele>
        <time>2017-04-20T22:17:25Z</time>
      </trkpt>
      <trkpt lat="45.77169" lon="4.64565">
        <ele>552.93170166016</ele>
        <time>2017-04-20T22:17:30Z</time>
      </trkpt>
      <trkpt lat="45.77166" lon="4.64579">
        <ele>550.38775634766</ele>
        <time>2017-04-20T22:17:35Z</time>
      </trkpt>
      <trkpt lat="45.77159" lon="4.64593">
        <ele>548.26489257812</ele>
        <time>2017-04-20T22:17:38Z</time>
      </trkpt>
      <trkpt lat="45.77152" lon="4.64604">
        <ele>547.8095703125</ele>
        <time>2017-04-20T22:17:41Z</time>
      </trkpt>
      <trkpt lat="45.77142" lon="4.64613">
        <ele>547.33526611328</ele>
        <time>2017-04-20T22:17:44Z</time>
      </trkpt>
      <trkpt lat="45.77129" lon="4.64617">
        <ele>545.267578125</ele>
        <time>2017-04-20T22:17:47Z</time>
      </trkpt>
      <trkpt lat="45.77103" lon="4.64617">
        <ele>544.74572753906</ele>
        <time>2017-04-20T22:17:51Z</time>
      </trkpt>
      <trkpt lat="45.77078" lon="4.64618">
        <ele>541.69757080078</ele>
        <time>2017-04-20T22:17:58Z</time>
      </trkpt>
      <trkpt lat="45.77069" lon="4.64625">
        <ele>543.20294189453</ele>
        <time>2017-04-20T22:18:05Z</time>
      </trkpt>
      <trkpt lat="45.77058" lon="4.64643">
        <ele>540.13024902344</ele>
        <time>2017-04-20T22:18:08Z</time>
      </trkpt>
      <trkpt lat="45.77007" lon="4.64801">
        <ele>525.75512695312</ele>
        <time>2017-04-20T22:18:12Z</time>
      </trkpt>
      <trkpt lat="45.76988" lon="4.64857">
        <ele>521.09527587891</ele>
        <time>2017-04-20T22:18:44Z</time>
      </trkpt>
      <trkpt lat="45.7698" lon="4.64874">
        <ele>518.51226806641</ele>
        <time>2017-04-20T22:18:56Z</time>
      </trkpt>
      <trkpt lat="45.7697" lon="4.64884">
        <ele>516.74279785156</ele>
        <time>2017-04-20T22:19:00Z</time>
      </trkpt>
      <trkpt lat="45.76957" lon="4.6489">
        <ele>516.67218017578</ele>
        <time>2017-04-20T22:19:03Z</time>
      </trkpt>
      <trkpt lat="45.76945" lon="4.64892">
        <ele>516.57299804688</ele>
        <time>2017-04-20T22:19:07Z</time>
      </trkpt>
      <trkpt lat="45.76889" lon="4.64883">
        <ele>518.00817871094</ele>
        <time>2017-04-20T22:19:10Z</time>
      </trkpt>
      <trkpt lat="45.7687" lon="4.64884">
        <ele>517.05993652344</ele>
        <time>2017-04-20T22:19:25Z</time>
      </trkpt>
      <trkpt lat="45.76837" lon="4.64892">
        <ele>512.77886962891</ele>
        <time>2017-04-20T22:19:30Z</time>
      </trkpt>
      <trkpt lat="45.76823" lon="4.64891">
        <ele>510.28237915039</ele>
        <time>2017-04-20T22:19:39Z</time>
      </trkpt>
      <trkpt lat="45.76809" lon="4.64881">
        <ele>507.55557250977</ele>
        <time>2017-04-20T22:19:43Z</time>
      </trkpt>
      <trkpt lat="45.76803" lon="4.64871">
        <ele>506.4885559082</ele>
        <time>2017-04-20T22:19:47Z</time>
      </trkpt>
      <trkpt lat="45.76796" lon="4.6483">
        <ele>506.25360107422</ele>
        <time>2017-04-20T22:19:49Z</time>
      </trkpt>
      <trkpt lat="45.76792" lon="4.64816">
        <ele>507.41030883789</ele>
        <time>2017-04-20T22:19:57Z</time>
      </trkpt>
      <trkpt lat="45.76785" lon="4.6481">
        <ele>508.70864868164</ele>
        <time>2017-04-20T22:20:00Z</time>
      </trkpt>
      <trkpt lat="45.76775" lon="4.64811">
        <ele>509.00958251953</ele>
        <time>2017-04-20T22:20:02Z</time>
      </trkpt>
      <trkpt lat="45.76768" lon="4.64818">
        <ele>505.95471191406</ele>
        <time>2017-04-20T22:20:05Z</time>
      </trkpt>
      <trkpt lat="45.76742" lon="4.64854">
        <ele>503.39334106445</ele>
        <time>2017-04-20T22:20:07Z</time>
      </trkpt>
      <trkpt lat="45.76704" lon="4.6494">
        <ele>498.51187133789</ele>
        <time>2017-04-20T22:20:17Z</time>
      </trkpt>
      <trkpt lat="45.76678" lon="4.64995">
        <ele>492.84536743164</ele>
        <time>2017-04-20T22:20:36Z</time>
      </trkpt>
      <trkpt lat="45.76663" lon="4.65033">
        <ele>488.94033813477</ele>
        <time>2017-04-20T22:20:48Z</time>
      </trkpt>
      <trkpt lat="45.76662" lon="4.6504">
        <ele>488.23165893555</ele>
        <time>2017-04-20T22:20:56Z</time>
      </trkpt>
      <trkpt lat="45.76662" lon="4.6504">
        <ele>488.23165893555</ele>
        <time>2017-04-20T22:20:57Z</time>
      </trkpt>
      <trkpt lat="45.76658" lon="4.65056">
        <ele>486.81768798828</ele>
        <time>2017-04-20T22:20:57Z</time>
      </trkpt>
      <trkpt lat="45.76658" lon="4.65082">
        <ele>484.96420288086</ele>
        <time>2017-04-20T22:21:00Z</time>
      </trkpt>
      <trkpt lat="45.76668" lon="4.6517">
        <ele>478.90341186523</ele>
        <time>2017-04-20T22:21:05Z</time>
      </trkpt>
      <trkpt lat="45.76675" lon="4.65258">
        <ele>476.83056640625</ele>
        <time>2017-04-20T22:21:22Z</time>
      </trkpt>
      <trkpt lat="45.76677" lon="4.65315">
        <ele>475.58880615234</ele>
        <time>2017-04-20T22:21:39Z</time>
      </trkpt>
      <trkpt lat="45.76673" lon="4.65336">
        <ele>474.64889526367</ele>
        <time>2017-04-20T22:21:50Z</time>
      </trkpt>
      <trkpt lat="45.76659" lon="4.65416">
        <ele>471.91644287109</ele>
        <time>2017-04-20T22:21:54Z</time>
      </trkpt>
      <trkpt lat="45.76646" lon="4.65466">
        <ele>472.18280029297</ele>
        <time>2017-04-20T22:22:09Z</time>
      </trkpt>
      <trkpt lat="45.76638" lon="4.65487">
        <ele>471.14074707031</ele>
        <time>2017-04-20T22:22:19Z</time>
      </trkpt>
      <trkpt lat="45.76646" lon="4.65545">
        <ele>474.51412963867</ele>
        <time>2017-04-20T22:22:23Z</time>
      </trkpt>
      <trkpt lat="45.76665" lon="4.65663">
        <ele>474.56854248047</ele>
        <time>2017-04-20T22:22:34Z</time>
      </trkpt>
      <trkpt lat="45.76673" lon="4.65719">
        <ele>470.64651489258</ele>
        <time>2017-04-20T22:22:57Z</time>
      </trkpt>
      <trkpt lat="45.76687" lon="4.65796">
        <ele>465.93487548828</ele>
        <time>2017-04-20T22:23:08Z</time>
      </trkpt>
      <trkpt lat="45.76691" lon="4.65832">
        <ele>463.56393432617</ele>
        <time>2017-04-20T22:23:23Z</time>
      </trkpt>
      <trkpt lat="45.76695" lon="4.65871">
        <ele>459.78387451172</ele>
        <time>2017-04-20T22:23:30Z</time>
      </trkpt>
      <trkpt lat="45.76695" lon="4.65889">
        <ele>456.86807250977</ele>
        <time>2017-04-20T22:23:37Z</time>
      </trkpt>
      <trkpt lat="45.7669" lon="4.65902">
        <ele>455.78253173828</ele>
        <time>2017-04-20T22:23:40Z</time>
      </trkpt>
      <trkpt lat="45.76677" lon="4.65924">
        <ele>451.28497314453</ele>
        <time>2017-04-20T22:23:43Z</time>
      </trkpt>
      <trkpt lat="45.76667" lon="4.65947">
        <ele>447.32919311523</ele>
        <time>2017-04-20T22:23:48Z</time>
      </trkpt>
      <trkpt lat="45.76666" lon="4.65954">
        <ele>446.08120727539</ele>
        <time>2017-04-20T22:23:53Z</time>
      </trkpt>
      <trkpt lat="45.76669" lon="4.65966">
        <ele>444.27737426758</ele>
        <time>2017-04-20T22:23:54Z</time>
      </trkpt>
      <trkpt lat="45.76672" lon="4.65975">
        <ele>442.88272094727</ele>
        <time>2017-04-20T22:23:56Z</time>
      </trkpt>
      <trkpt lat="45.76674" lon="4.6598">
        <ele>442.40100097656</ele>
        <time>2017-04-20T22:23:58Z</time>
      </trkpt>
      <trkpt lat="45.76669" lon="4.65979">
        <ele>442.14553833008</ele>
        <time>2017-04-20T22:23:59Z</time>
      </trkpt>
      <trkpt lat="45.76669" lon="4.65979">
        <ele>442.14553833008</ele>
        <time>2017-04-20T22:24:00Z</time>
      </trkpt>
      <trkpt lat="45.76638" lon="4.65971">
        <ele>440.01870727539</ele>
        <time>2017-04-20T22:24:00Z</time>
      </trkpt>
      <trkpt lat="45.76615" lon="4.65971">
        <ele>438.54766845703</ele>
        <time>2017-04-20T22:24:08Z</time>
      </trkpt>
      <trkpt lat="45.7656" lon="4.6598">
        <ele>436.42321777344</ele>
        <time>2017-04-20T22:24:14Z</time>
      </trkpt>
      <trkpt lat="45.76515" lon="4.6599">
        <ele>432.61892700195</ele>
        <time>2017-04-20T22:24:29Z</time>
      </trkpt>
      <trkpt lat="45.76511" lon="4.65991">
        <ele>432.3991394043</ele>
        <time>2017-04-20T22:24:41Z</time>
      </trkpt>
      <trkpt lat="45.76507" lon="4.66003">
        <ele>431.07565307617</ele>
        <time>2017-04-20T22:24:42Z</time>
      </trkpt>
      <trkpt lat="45.76504" lon="4.66021">
        <ele>429.9460144043</ele>
        <time>2017-04-20T22:24:44Z</time>
      </trkpt>
      <trkpt lat="45.76493" lon="4.66076">
        <ele>427.03656005859</ele>
        <time>2017-04-20T22:24:47Z</time>
      </trkpt>
      <trkpt lat="45.76472" lon="4.66061">
        <ele>427.63687133789</ele>
        <time>2017-04-20T22:24:58Z</time>
      </trkpt>
      <trkpt lat="45.76437" lon="4.66043">
        <ele>426.41534423828</ele>
        <time>2017-04-20T22:25:04Z</time>
      </trkpt>
      <trkpt lat="45.76416" lon="4.66036">
        <ele>424.8264465332</ele>
        <time>2017-04-20T22:25:14Z</time>
      </trkpt>
      <trkpt lat="45.764" lon="4.66037">
        <ele>424.29852294922</ele>
        <time>2017-04-20T22:25:20Z</time>
      </trkpt>
      <trkpt lat="45.76315" lon="4.66094">
        <ele>416.85855102539</ele>
        <time>2017-04-20T22:25:24Z</time>
      </trkpt>
      <trkpt lat="45.76295" lon="4.66102">
        <ele>415.64739990234</ele>
        <time>2017-04-20T22:25:49Z</time>
      </trkpt>
      <trkpt lat="45.76283" lon="4.66105">
        <ele>414.76391601562</ele>
        <time>2017-04-20T22:25:55Z</time>
      </trkpt>
      <trkpt lat="45.7626" lon="4.66105">
        <ele>413.61868286133</ele>
        <time>2017-04-20T22:25:58Z</time>
      </trkpt>
      <trkpt lat="45.76243" lon="4.66101">
        <ele>412.52111816406</ele>
        <time>2017-04-20T22:26:04Z</time>
      </trkpt>
      <trkpt lat="45.76241" lon="4.66095">
        <ele>412.79058837891</ele>
        <time>2017-04-20T22:26:09Z</time>
      </trkpt>
      <trkpt lat="45.76215" lon="4.66123">
        <ele>409.30712890625</ele>
        <time>2017-04-20T22:26:10Z</time>
      </trkpt>
      <trkpt lat="45.76107" lon="4.66224">
        <ele>397.73959350586</ele>
        <time>2017-04-20T22:26:19Z</time>
      </trkpt>
      <trkpt lat="45.76083" lon="4.6626">
        <ele>395.14776611328</ele>
        <time>2017-04-20T22:26:53Z</time>
      </trkpt>
      <trkpt lat="45.76074" lon="4.66298">
        <ele>392.4560546875</ele>
        <time>2017-04-20T22:27:02Z</time>
      </trkpt>
      <trkpt lat="45.76068" lon="4.66365">
        <ele>387.86529541016</ele>
        <time>2017-04-20T22:27:09Z</time>
      </trkpt>
      <trkpt lat="45.76062" lon="4.66398">
        <ele>387.07067871094</ele>
        <time>2017-04-20T22:27:22Z</time>
      </trkpt>
      <trkpt lat="45.76052" lon="4.66432">
        <ele>386.80682373047</ele>
        <time>2017-04-20T22:27:28Z</time>
      </trkpt>
      <trkpt lat="45.76" lon="4.66581">
        <ele>386.48162841797</ele>
        <time>2017-04-20T22:27:35Z</time>
      </trkpt>
      <trkpt lat="45.75987" lon="4.66637">
        <ele>387.10385131836</ele>
        <time>2017-04-20T22:28:06Z</time>
      </trkpt>
      <trkpt lat="45.75977" lon="4.66702">
        <ele>384.80291748047</ele>
        <time>2017-04-20T22:28:17Z</time>
      </trkpt>
      <trkpt lat="45.7596" lon="4.6677">
        <ele>383.55053710938</ele>
        <time>2017-04-20T22:28:29Z</time>
      </trkpt>
      <trkpt lat="45.7595" lon="4.66791">
        <ele>383.02688598633</ele>
        <time>2017-04-20T22:28:42Z</time>
      </trkpt>
      <trkpt lat="45.75937" lon="4.6681">
        <ele>383.6618347168</ele>
        <time>2017-04-20T22:28:47Z</time>
      </trkpt>
      <trkpt lat="45.759" lon="4.66838">
        <ele>383.90008544922</ele>
        <time>2017-04-20T22:28:52Z</time>
      </trkpt>
      <trkpt lat="45.75887" lon="4.66852">
        <ele>384.22598266602</ele>
        <time>2017-04-20T22:29:03Z</time>
      </trkpt>
      <trkpt lat="45.75857" lon="4.66908">
        <ele>386.0212097168</ele>
        <time>2017-04-20T22:29:07Z</time>
      </trkpt>
      <trkpt lat="45.75849" lon="4.66922">
        <ele>384.67984008789</ele>
        <time>2017-04-20T22:29:20Z</time>
      </trkpt>
      <trkpt lat="45.75784" lon="4.67004">
        <ele>377.25839233398</ele>
        <time>2017-04-20T22:29:23Z</time>
      </trkpt>
      <trkpt lat="45.75753" lon="4.6705">
        <ele>373.76684570312</ele>
        <time>2017-04-20T22:29:46Z</time>
      </trkpt>
      <trkpt lat="45.75736" lon="4.67083">
        <ele>370.83288574219</ele>
        <time>2017-04-20T22:29:58Z</time>
      </trkpt>
      <trkpt lat="45.75719" lon="4.67134">
        <ele>366.47253417969</ele>
        <time>2017-04-20T22:30:06Z</time>
      </trkpt>
      <trkpt lat="45.75699" lon="4.67203">
        <ele>362.53634643555</ele>
        <time>2017-04-20T22:30:17Z</time>
      </trkpt>
      <trkpt lat="45.7569" lon="4.67225">
        <ele>362.13037109375</ele>
        <time>2017-04-20T22:30:31Z</time>
      </trkpt>
      <trkpt lat="45.75681" lon="4.67239">
        <ele>361.88638305664</ele>
        <time>2017-04-20T22:30:36Z</time>
      </trkpt>
      <trkpt lat="45.75675" lon="4.67246">
        <ele>361.96420288086</ele>
        <time>2017-04-20T22:30:40Z</time>
      </trkpt>
      <trkpt lat="45.75636" lon="4.67275">
        <ele>358.99984741211</ele>
        <time>2017-04-20T22:30:42Z</time>
      </trkpt>
      <trkpt lat="45.75618" lon="4.67293">
        <ele>356.97027587891</ele>
        <time>2017-04-20T22:30:54Z</time>
      </trkpt>
      <trkpt lat="45.75603" lon="4.67311">
        <ele>355.93081665039</ele>
        <time>2017-04-20T22:31:00Z</time>
      </trkpt>
      <trkpt lat="45.75587" lon="4.67345">
        <ele>354.84167480469</ele>
        <time>2017-04-20T22:31:05Z</time>
      </trkpt>
      <trkpt lat="45.75568" lon="4.67389">
        <ele>351.95938110352</ele>
        <time>2017-04-20T22:31:13Z</time>
      </trkpt>
      <trkpt lat="45.75556" lon="4.67408">
        <ele>351.35397338867</ele>
        <time>2017-04-20T22:31:23Z</time>
      </trkpt>
      <trkpt lat="45.75538" lon="4.67425">
        <ele>350.00122070312</ele>
        <time>2017-04-20T22:31:28Z</time>
      </trkpt>
      <trkpt lat="45.75515" lon="4.67448">
        <ele>347.2741394043</ele>
        <time>2017-04-20T22:31:34Z</time>
      </trkpt>
      <trkpt lat="45.7549" lon="4.67479">
        <ele>343.34045410156</ele>
        <time>2017-04-20T22:31:41Z</time>
      </trkpt>
      <trkpt lat="45.75473" lon="4.67509">
        <ele>341.00338745117</ele>
        <time>2017-04-20T22:31:50Z</time>
      </trkpt>
      <trkpt lat="45.75464" lon="4.6753">
        <ele>339.74359130859</ele>
        <time>2017-04-20T22:31:57Z</time>
      </trkpt>
      <trkpt lat="45.75461" lon="4.67552">
        <ele>338.0712890625</ele>
        <time>2017-04-20T22:32:02Z</time>
      </trkpt>
      <trkpt lat="45.75459" lon="4.67583">
        <ele>335.40765380859</ele>
        <time>2017-04-20T22:32:06Z</time>
      </trkpt>
      <trkpt lat="45.75459" lon="4.67607">
        <ele>334.14797973633</ele>
        <time>2017-04-20T22:32:12Z</time>
      </trkpt>
      <trkpt lat="45.75455" lon="4.67634">
        <ele>333.8268737793</ele>
        <time>2017-04-20T22:32:16Z</time>
      </trkpt>
      <trkpt lat="45.75433" lon="4.67774">
        <ele>326.55947875977</ele>
        <time>2017-04-20T22:32:21Z</time>
      </trkpt>
      <trkpt lat="45.75428" lon="4.67803">
        <ele>326.37652587891</ele>
        <time>2017-04-20T22:32:48Z</time>
      </trkpt>
      <trkpt lat="45.75416" lon="4.67841">
        <ele>324.54901123047</ele>
        <time>2017-04-20T22:32:54Z</time>
      </trkpt>
      <trkpt lat="45.75367" lon="4.67965">
        <ele>313.9967956543</ele>
        <time>2017-04-20T22:33:02Z</time>
      </trkpt>
      <trkpt lat="45.75359" lon="4.67989">
        <ele>314.73205566406</ele>
        <time>2017-04-20T22:33:29Z</time>
      </trkpt>
      <trkpt lat="45.75355" lon="4.68012">
        <ele>315.82443237305</ele>
        <time>2017-04-20T22:33:34Z</time>
      </trkpt>
      <trkpt lat="45.75353" lon="4.68099">
        <ele>320.54034423828</ele>
        <time>2017-04-20T22:33:38Z</time>
      </trkpt>
      <trkpt lat="45.7535" lon="4.68116">
        <ele>320.77694702148</ele>
        <time>2017-04-20T22:33:54Z</time>
      </trkpt>
      <trkpt lat="45.75343" lon="4.68138">
        <ele>321.97732543945</ele>
        <time>2017-04-20T22:33:57Z</time>
      </trkpt>
      <trkpt lat="45.7533" lon="4.68172">
        <ele>323.81143188477</ele>
        <time>2017-04-20T22:34:02Z</time>
      </trkpt>
      <trkpt lat="45.75272" lon="4.68301">
        <ele>329.11318969727</ele>
        <time>2017-04-20T22:34:09Z</time>
      </trkpt>
      <trkpt lat="45.75255" lon="4.68334">
        <ele>331.35751342773</ele>
        <time>2017-04-20T22:34:38Z</time>
      </trkpt>
      <trkpt lat="45.75247" lon="4.68347">
        <ele>331.63067626953</ele>
        <time>2017-04-20T22:34:46Z</time>
      </trkpt>
      <trkpt lat="45.75228" lon="4.68365">
        <ele>333.42813110352</ele>
        <time>2017-04-20T22:34:49Z</time>
      </trkpt>
      <trkpt lat="45.75202" lon="4.68386">
        <ele>335.10833740234</ele>
        <time>2017-04-20T22:34:55Z</time>
      </trkpt>
      <trkpt lat="45.75193" lon="4.68398">
        <ele>335.27621459961</ele>
        <time>2017-04-20T22:35:03Z</time>
      </trkpt>
      <trkpt lat="45.75189" lon="4.68409">
        <ele>335.43084716797</ele>
        <time>2017-04-20T22:35:06Z</time>
      </trkpt>
      <trkpt lat="45.75187" lon="4.68439">
        <ele>337.0309753418</ele>
        <time>2017-04-20T22:35:08Z</time>
      </trkpt>
      <trkpt lat="45.75189" lon="4.68508">
        <ele>336.67877197266</ele>
        <time>2017-04-20T22:35:14Z</time>
      </trkpt>
      <trkpt lat="45.75186" lon="4.68547">
        <ele>336.67999267578</ele>
        <time>2017-04-20T22:35:27Z</time>
      </trkpt>
      <trkpt lat="45.75182" lon="4.68563">
        <ele>337.31674194336</ele>
        <time>2017-04-20T22:35:34Z</time>
      </trkpt>
      <trkpt lat="45.75175" lon="4.68591">
        <ele>338.07904052734</ele>
        <time>2017-04-20T22:35:37Z</time>
      </trkpt>
      <trkpt lat="45.75162" lon="4.68626">
        <ele>339.55276489258</ele>
        <time>2017-04-20T22:35:43Z</time>
      </trkpt>
      <trkpt lat="45.751" lon="4.68755">
        <ele>342.19250488281</ele>
        <time>2017-04-20T22:35:50Z</time>
      </trkpt>
      <trkpt lat="45.7508" lon="4.68792">
        <ele>342.96722412109</ele>
        <time>2017-04-20T22:36:19Z</time>
      </trkpt>
      <trkpt lat="45.75042" lon="4.68855">
        <ele>342.76779174805</ele>
        <time>2017-04-20T22:36:28Z</time>
      </trkpt>
      <trkpt lat="45.75012" lon="4.689">
        <ele>342.64248657227</ele>
        <time>2017-04-20T22:36:44Z</time>
      </trkpt>
      <trkpt lat="45.75012" lon="4.689">
        <ele>342.64248657227</ele>
        <time>2017-04-20T22:36:56Z</time>
      </trkpt>
      <trkpt lat="45.75004" lon="4.68912">
        <ele>342.5517578125</ele>
        <time>2017-04-20T22:36:56Z</time>
      </trkpt>
      <trkpt lat="45.75004" lon="4.68913">
        <ele>342.54061889648</ele>
        <time>2017-04-20T22:36:59Z</time>
      </trkpt>
      <trkpt lat="45.75004" lon="4.68917">
        <ele>342.50411987305</ele>
        <time>2017-04-20T22:36:59Z</time>
      </trkpt>
      <trkpt lat="45.75003" lon="4.68924">
        <ele>342.31286621094</ele>
        <time>2017-04-20T22:37:00Z</time>
      </trkpt>
      <trkpt lat="45.74997" lon="4.68928">
        <ele>342.04815673828</ele>
        <time>2017-04-20T22:37:01Z</time>
      </trkpt>
      <trkpt lat="45.74991" lon="4.68926">
        <ele>342.04052734375</ele>
        <time>2017-04-20T22:37:03Z</time>
      </trkpt>
      <trkpt lat="45.7499" lon="4.68925">
        <ele>342.08505249023</ele>
        <time>2017-04-20T22:37:05Z</time>
      </trkpt>
      <trkpt lat="45.74974" lon="4.68967">
        <ele>342.68008422852</ele>
        <time>2017-04-20T22:37:05Z</time>
      </trkpt>
      <trkpt lat="45.74951" lon="4.68998">
        <ele>342.34716796875</ele>
        <time>2017-04-20T22:37:14Z</time>
      </trkpt>
      <trkpt lat="45.74929" lon="4.68992">
        <ele>343.45431518555</ele>
        <time>2017-04-20T22:37:22Z</time>
      </trkpt>
      <trkpt lat="45.74885" lon="4.68976">
        <ele>342.88159179688</ele>
        <time>2017-04-20T22:37:28Z</time>
      </trkpt>
      <trkpt lat="45.74877" lon="4.68972">
        <ele>342.14297485352</ele>
        <time>2017-04-20T22:37:40Z</time>
      </trkpt>
      <trkpt lat="45.74867" lon="4.68972">
        <ele>341.76010131836</ele>
        <time>2017-04-20T22:37:42Z</time>
      </trkpt>
      <trkpt lat="45.74851" lon="4.68978">
        <ele>340.85162353516</ele>
        <time>2017-04-20T22:37:45Z</time>
      </trkpt>
      <trkpt lat="45.74825" lon="4.68991">
        <ele>340.0500793457</ele>
        <time>2017-04-20T22:37:49Z</time>
      </trkpt>
      <trkpt lat="45.74805" lon="4.68985">
        <ele>340.68878173828</ele>
        <time>2017-04-20T22:37:56Z</time>
      </trkpt>
      <trkpt lat="45.74788" lon="4.68991">
        <ele>339.64218139648</ele>
        <time>2017-04-20T22:38:01Z</time>
      </trkpt>
      <trkpt lat="45.7477" lon="4.69">
        <ele>337.26974487305</ele>
        <time>2017-04-20T22:38:06Z</time>
      </trkpt>
      <trkpt lat="45.74768" lon="4.68992">
        <ele>337.80023193359</ele>
        <time>2017-04-20T22:38:11Z</time>
      </trkpt>
      <trkpt lat="45.74763" lon="4.68979">
        <ele>338.85733032227</ele>
        <time>2017-04-20T22:38:13Z</time>
      </trkpt>
      <trkpt lat="45.74758" lon="4.68973">
        <ele>339.4084777832</ele>
        <time>2017-04-20T22:38:16Z</time>
      </trkpt>
      <trkpt lat="45.74741" lon="4.68968">
        <ele>337.76010131836</ele>
        <time>2017-04-20T22:38:18Z</time>
      </trkpt>
      <trkpt lat="45.74737" lon="4.68973">
        <ele>337.09552001953</ele>
        <time>2017-04-20T22:38:23Z</time>
      </trkpt>
      <trkpt lat="45.74739" lon="4.69044">
        <ele>336.46731567383</ele>
        <time>2017-04-20T22:38:24Z</time>
      </trkpt>
      <trkpt lat="45.74737" lon="4.69073">
        <ele>335.50119018555</ele>
        <time>2017-04-20T22:38:37Z</time>
      </trkpt>
      <trkpt lat="45.74732" lon="4.69166">
        <ele>331.208984375</ele>
        <time>2017-04-20T22:38:42Z</time>
      </trkpt>
      <trkpt lat="45.7473" lon="4.69229">
        <ele>330.45629882812</ele>
        <time>2017-04-20T22:38:59Z</time>
      </trkpt>
      <trkpt lat="45.74724" lon="4.6929">
        <ele>328.15872192383</ele>
        <time>2017-04-20T22:39:11Z</time>
      </trkpt>
      <trkpt lat="45.7467" lon="4.69294">
        <ele>327.93362426758</ele>
        <time>2017-04-20T22:39:22Z</time>
      </trkpt>
      <trkpt lat="45.74629" lon="4.69302">
        <ele>323.92230224609</ele>
        <time>2017-04-20T22:39:36Z</time>
      </trkpt>
      <trkpt lat="45.74629" lon="4.69302">
        <ele>323.92230224609</ele>
        <time>2017-04-20T22:39:47Z</time>
      </trkpt>
      <trkpt lat="45.74592" lon="4.69308">
        <ele>321.34375</ele>
        <time>2017-04-20T22:39:47Z</time>
      </trkpt>
      <trkpt lat="45.7455" lon="4.69311">
        <ele>318.04742431641</ele>
        <time>2017-04-20T22:39:57Z</time>
      </trkpt>
      <trkpt lat="45.74526" lon="4.69312">
        <ele>316.45834350586</ele>
        <time>2017-04-20T22:40:08Z</time>
      </trkpt>
      <trkpt lat="45.74533" lon="4.69473">
        <ele>314.26617431641</ele>
        <time>2017-04-20T22:40:14Z</time>
      </trkpt>
      <trkpt lat="45.74541" lon="4.69633">
        <ele>312.34381103516</ele>
        <time>2017-04-20T22:40:44Z</time>
      </trkpt>
      <trkpt lat="45.74541" lon="4.69633">
        <ele>312.34381103516</ele>
        <time>2017-04-20T22:41:14Z</time>
      </trkpt>
      <trkpt lat="45.74547" lon="4.69793">
        <ele>310.73400878906</ele>
        <time>2017-04-20T22:41:14Z</time>
      </trkpt>
      <trkpt lat="45.74548" lon="4.69803">
        <ele>310.35061645508</ele>
        <time>2017-04-20T22:41:44Z</time>
      </trkpt>
      <trkpt lat="45.74523" lon="4.69839">
        <ele>309.49938964844</ele>
        <time>2017-04-20T22:41:46Z</time>
      </trkpt>
      <trkpt lat="45.74513" lon="4.69853">
        <ele>308.74865722656</ele>
        <time>2017-04-20T22:41:55Z</time>
      </trkpt>
      <trkpt lat="45.74497" lon="4.69868">
        <ele>308.04351806641</ele>
        <time>2017-04-20T22:41:59Z</time>
      </trkpt>
      <trkpt lat="45.74474" lon="4.69882">
        <ele>307.5539855957</ele>
        <time>2017-04-20T22:42:04Z</time>
      </trkpt>
      <trkpt lat="45.74446" lon="4.69899">
        <ele>306.08685302734</ele>
        <time>2017-04-20T22:42:11Z</time>
      </trkpt>
      <trkpt lat="45.74432" lon="4.69908">
        <ele>306.25909423828</ele>
        <time>2017-04-20T22:42:19Z</time>
      </trkpt>
      <trkpt lat="45.74415" lon="4.69924">
        <ele>305.7370300293</ele>
        <time>2017-04-20T22:42:23Z</time>
      </trkpt>
      <trkpt lat="45.74409" lon="4.69933">
        <ele>305.28018188477</ele>
        <time>2017-04-20T22:42:28Z</time>
      </trkpt>
      <trkpt lat="45.74367" lon="4.69953">
        <ele>304.888671875</ele>
        <time>2017-04-20T22:42:30Z</time>
      </trkpt>
      <trkpt lat="45.74345" lon="4.69972">
        <ele>304.5517578125</ele>
        <time>2017-04-20T22:42:42Z</time>
      </trkpt>
      <trkpt lat="45.74326" lon="4.69998">
        <ele>302.99905395508</ele>
        <time>2017-04-20T22:42:49Z</time>
      </trkpt>
      <trkpt lat="45.74323" lon="4.69991">
        <ele>303.08831787109</ele>
        <time>2017-04-20T22:42:56Z</time>
      </trkpt>
      <trkpt lat="45.74323" lon="4.69991">
        <ele>303.08831787109</ele>
        <time>2017-04-20T22:42:58Z</time>
      </trkpt>
      <trkpt lat="45.74326" lon="4.69998">
        <ele>302.99905395508</ele>
        <time>2017-04-20T22:42:58Z</time>
      </trkpt>
      <trkpt lat="45.74309" lon="4.7003">
        <ele>303.68402099609</ele>
        <time>2017-04-20T22:43:00Z</time>
      </trkpt>
      <trkpt lat="45.74279" lon="4.70083">
        <ele>302.9326171875</ele>
        <time>2017-04-20T22:43:07Z</time>
      </trkpt>
      <trkpt lat="45.7427" lon="4.70132">
        <ele>302.79095458984</ele>
        <time>2017-04-20T22:43:20Z</time>
      </trkpt>
      <trkpt lat="45.74258" lon="4.70193">
        <ele>303.48532104492</ele>
        <time>2017-04-20T22:43:29Z</time>
      </trkpt>
      <trkpt lat="45.74249" lon="4.70245">
        <ele>303.00177001953</ele>
        <time>2017-04-20T22:43:41Z</time>
      </trkpt>
      <trkpt lat="45.74238" lon="4.70337">
        <ele>302.98007202148</ele>
        <time>2017-04-20T22:43:51Z</time>
      </trkpt>
      <trkpt lat="45.74235" lon="4.70369">
        <ele>303.01315307617</ele>
        <time>2017-04-20T22:44:08Z</time>
      </trkpt>
      <trkpt lat="45.74234" lon="4.7039">
        <ele>301.48425292969</ele>
        <time>2017-04-20T22:44:14Z</time>
      </trkpt>
      <trkpt lat="45.74237" lon="4.7045">
        <ele>301.72555541992</ele>
        <time>2017-04-20T22:44:18Z</time>
      </trkpt>
      <trkpt lat="45.74241" lon="4.70491">
        <ele>301.54898071289</ele>
        <time>2017-04-20T22:44:29Z</time>
      </trkpt>
      <trkpt lat="45.74247" lon="4.70539">
        <ele>299.1091003418</ele>
        <time>2017-04-20T22:44:37Z</time>
      </trkpt>
      <trkpt lat="45.74256" lon="4.70565">
        <ele>298.06921386719</ele>
        <time>2017-04-20T22:44:46Z</time>
      </trkpt>
      <trkpt lat="45.74258" lon="4.70587">
        <ele>297.97186279297</ele>
        <time>2017-04-20T22:44:51Z</time>
      </trkpt>
      <trkpt lat="45.74269" lon="4.70635">
        <ele>297.04010009766</ele>
        <time>2017-04-20T22:44:55Z</time>
      </trkpt>
      <trkpt lat="45.7427" lon="4.70649">
        <ele>297.05163574219</ele>
        <time>2017-04-20T22:45:04Z</time>
      </trkpt>
      <trkpt lat="45.74269" lon="4.70671">
        <ele>297.83557128906</ele>
        <time>2017-04-20T22:45:07Z</time>
      </trkpt>
      <trkpt lat="45.7426" lon="4.70726">
        <ele>296.87777709961</ele>
        <time>2017-04-20T22:45:11Z</time>
      </trkpt>
      <trkpt lat="45.74257" lon="4.7079">
        <ele>297.91711425781</ele>
        <time>2017-04-20T22:45:22Z</time>
      </trkpt>
      <trkpt lat="45.74257" lon="4.70801">
        <ele>298.40859985352</ele>
        <time>2017-04-20T22:45:34Z</time>
      </trkpt>
      <trkpt lat="45.74257" lon="4.70801">
        <ele>298.40859985352</ele>
        <time>2017-04-20T22:45:36Z</time>
      </trkpt>
      <trkpt lat="45.74257" lon="4.70879">
        <ele>298.45901489258</ele>
        <time>2017-04-20T22:45:36Z</time>
      </trkpt>
      <trkpt lat="45.74257" lon="4.70946">
        <ele>298.14996337891</ele>
        <time>2017-04-20T22:45:51Z</time>
      </trkpt>
      <trkpt lat="45.74306" lon="4.70942">
        <ele>298.08465576172</ele>
        <time>2017-04-20T22:46:03Z</time>
      </trkpt>
      <trkpt lat="45.74313" lon="4.70942">
        <ele>298.03280639648</ele>
        <time>2017-04-20T22:46:16Z</time>
      </trkpt>
      <trkpt lat="45.74322" lon="4.70947">
        <ele>297.8583984375</ele>
        <time>2017-04-20T22:46:18Z</time>
      </trkpt>
      <trkpt lat="45.74335" lon="4.70978">
        <ele>297.31979370117</ele>
        <time>2017-04-20T22:46:21Z</time>
      </trkpt>
      <trkpt lat="45.74341" lon="4.70986">
        <ele>297.17706298828</ele>
        <time>2017-04-20T22:46:28Z</time>
      </trkpt>
      <trkpt lat="45.74356" lon="4.70995">
        <ele>297.48651123047</ele>
        <time>2017-04-20T22:46:30Z</time>
      </trkpt>
      <trkpt lat="45.74369" lon="4.70994">
        <ele>298.11889648438</ele>
        <time>2017-04-20T22:46:34Z</time>
      </trkpt>
      <trkpt lat="45.74416" lon="4.7098">
        <ele>298.05505371094</ele>
        <time>2017-04-20T22:46:37Z</time>
      </trkpt>
      <trkpt lat="45.74446" lon="4.70975">
        <ele>297.54861450195</ele>
        <time>2017-04-20T22:46:50Z</time>
      </trkpt>
      <trkpt lat="45.74479" lon="4.7097">
        <ele>297.93560791016</ele>
        <time>2017-04-20T22:46:58Z</time>
      </trkpt>
      <trkpt lat="45.74503" lon="4.70963">
        <ele>297.75802612305</ele>
        <time>2017-04-20T22:47:07Z</time>
      </trkpt>
      <trkpt lat="45.74542" lon="4.71158">
        <ele>293.95236206055</ele>
        <time>2017-04-20T22:47:14Z</time>
      </trkpt>
      <trkpt lat="45.74552" lon="4.71207">
        <ele>293.6633605957</ele>
        <time>2017-04-20T22:47:52Z</time>
      </trkpt>
      <trkpt lat="45.74552" lon="4.71207">
        <ele>293.6633605957</ele>
        <time>2017-04-20T22:48:02Z</time>
      </trkpt>
      <trkpt lat="45.74567" lon="4.71277">
        <ele>292.71188354492</ele>
        <time>2017-04-20T22:48:02Z</time>
      </trkpt>
      <trkpt lat="45.74571" lon="4.71302">
        <ele>292.30590820312</ele>
        <time>2017-04-20T22:48:16Z</time>
      </trkpt>
      <trkpt lat="45.74586" lon="4.71418">
        <ele>291.0051574707</ele>
        <time>2017-04-20T22:48:21Z</time>
      </trkpt>
      <trkpt lat="45.74592" lon="4.71518">
        <ele>290.46099853516</ele>
        <time>2017-04-20T22:48:43Z</time>
      </trkpt>
      <trkpt lat="45.74593" lon="4.71579">
        <ele>290.63363647461</ele>
        <time>2017-04-20T22:49:02Z</time>
      </trkpt>
      <trkpt lat="45.7459" lon="4.71651">
        <ele>290.43505859375</ele>
        <time>2017-04-20T22:49:13Z</time>
      </trkpt>
      <trkpt lat="45.74585" lon="4.71911">
        <ele>287.66735839844</ele>
        <time>2017-04-20T22:49:26Z</time>
      </trkpt>
      <trkpt lat="45.74583" lon="4.72046">
        <ele>286.08465576172</ele>
        <time>2017-04-20T22:50:14Z</time>
      </trkpt>
      <trkpt lat="45.74585" lon="4.72209">
        <ele>284.45663452148</ele>
        <time>2017-04-20T22:50:39Z</time>
      </trkpt>
      <trkpt lat="45.7459" lon="4.72352">
        <ele>282.96350097656</ele>
        <time>2017-04-20T22:51:09Z</time>
      </trkpt>
      <trkpt lat="45.74593" lon="4.72577">
        <ele>281.38500976562</ele>
        <time>2017-04-20T22:51:36Z</time>
      </trkpt>
      <trkpt lat="45.74598" lon="4.72873">
        <ele>276.82098388672</ele>
        <time>2017-04-20T22:52:18Z</time>
      </trkpt>
      <trkpt lat="45.746" lon="4.7294">
        <ele>275.05596923828</ele>
        <time>2017-04-20T22:53:13Z</time>
      </trkpt>
      <trkpt lat="45.74599" lon="4.73043">
        <ele>270.82998657227</ele>
        <time>2017-04-20T22:53:26Z</time>
      </trkpt>
      <trkpt lat="45.74597" lon="4.73071">
        <ele>269.8473815918</ele>
        <time>2017-04-20T22:53:45Z</time>
      </trkpt>
      <trkpt lat="45.74598" lon="4.73089">
        <ele>269.02249145508</ele>
        <time>2017-04-20T22:53:50Z</time>
      </trkpt>
      <trkpt lat="45.74605" lon="4.73096">
        <ele>268.7275390625</ele>
        <time>2017-04-20T22:53:53Z</time>
      </trkpt>
      <trkpt lat="45.74604" lon="4.73123">
        <ele>268.27481079102</ele>
        <time>2017-04-20T22:53:55Z</time>
      </trkpt>
      <trkpt lat="45.74604" lon="4.7317">
        <ele>266.85693359375</ele>
        <time>2017-04-20T22:54:00Z</time>
      </trkpt>
      <trkpt lat="45.74604" lon="4.7317">
        <ele>266.85693359375</ele>
        <time>2017-04-20T22:54:09Z</time>
      </trkpt>
      <trkpt lat="45.74601" lon="4.73222">
        <ele>266.0280456543</ele>
        <time>2017-04-20T22:54:09Z</time>
      </trkpt>
      <trkpt lat="45.74596" lon="4.7325">
        <ele>265.45004272461</ele>
        <time>2017-04-20T22:54:19Z</time>
      </trkpt>
      <trkpt lat="45.74593" lon="4.73273">
        <ele>265.31378173828</ele>
        <time>2017-04-20T22:54:24Z</time>
      </trkpt>
      <trkpt lat="45.74587" lon="4.73301">
        <ele>265.59866333008</ele>
        <time>2017-04-20T22:54:28Z</time>
      </trkpt>
      <trkpt lat="45.74578" lon="4.73328">
        <ele>264.91152954102</ele>
        <time>2017-04-20T22:54:33Z</time>
      </trkpt>
      <trkpt lat="45.74563" lon="4.73362">
        <ele>264.80807495117</ele>
        <time>2017-04-20T22:54:39Z</time>
      </trkpt>
      <trkpt lat="45.74542" lon="4.734">
        <ele>265.85919189453</ele>
        <time>2017-04-20T22:54:46Z</time>
      </trkpt>
      <trkpt lat="45.74514" lon="4.73446">
        <ele>267.69515991211</ele>
        <time>2017-04-20T22:54:55Z</time>
      </trkpt>
      <trkpt lat="45.74507" lon="4.73437">
        <ele>268.03814697266</ele>
        <time>2017-04-20T22:55:06Z</time>
      </trkpt>
      <trkpt lat="45.74501" lon="4.73427">
        <ele>268.35464477539</ele>
        <time>2017-04-20T22:55:09Z</time>
      </trkpt>
      <trkpt lat="45.74498" lon="4.73384">
        <ele>265.82342529297</ele>
        <time>2017-04-20T22:55:11Z</time>
      </trkpt>
      <trkpt lat="45.74493" lon="4.7338">
        <ele>265.74697875977</ele>
        <time>2017-04-20T22:55:19Z</time>
      </trkpt>
      <trkpt lat="45.74454" lon="4.73379">
        <ele>266.85073852539</ele>
        <time>2017-04-20T22:55:21Z</time>
      </trkpt>
      <trkpt lat="45.74447" lon="4.73379">
        <ele>267.44110107422</ele>
        <time>2017-04-20T22:55:31Z</time>
      </trkpt>
      <trkpt lat="45.74447" lon="4.73389">
        <ele>267.04898071289</ele>
        <time>2017-04-20T22:55:33Z</time>
      </trkpt>
      <trkpt lat="45.74447" lon="4.73389">
        <ele>267.04898071289</ele>
        <time>2017-04-20T22:55:35Z</time>
      </trkpt>
      <trkpt lat="45.74447" lon="4.73379">
        <ele>267.44110107422</ele>
        <time>2017-04-20T22:55:35Z</time>
      </trkpt>
      <trkpt lat="45.7444" lon="4.73379">
        <ele>267.79620361328</ele>
        <time>2017-04-20T22:55:37Z</time>
      </trkpt>
      <trkpt lat="45.74409" lon="4.73377">
        <ele>269.89022827148</ele>
        <time>2017-04-20T22:55:39Z</time>
      </trkpt>
      <trkpt lat="45.74404" lon="4.73376">
        <ele>269.52456665039</ele>
        <time>2017-04-20T22:55:47Z</time>
      </trkpt>
      <trkpt lat="45.744" lon="4.7337">
        <ele>268.86175537109</ele>
        <time>2017-04-20T22:55:48Z</time>
      </trkpt>
      <trkpt lat="45.744" lon="4.73333">
        <ele>268.07922363281</ele>
        <time>2017-04-20T22:55:50Z</time>
      </trkpt>
      <trkpt lat="45.74393" lon="4.73328">
        <ele>268.41033935547</ele>
        <time>2017-04-20T22:55:57Z</time>
      </trkpt>
      <trkpt lat="45.74351" lon="4.73329">
        <ele>265.86541748047</ele>
        <time>2017-04-20T22:55:59Z</time>
      </trkpt>
    </trkseg>
  </trk>
</gpx>